<?xml version='1.0' encoding='UTF-8'?><gpx version="1.1" creator="JPX - https://github.com/jenetics/jpx" xmlns="http://www.topografix.com/GPX/1/1"><trk><trkseg><trkpt lat="42.861630084561355" lon="12.929000542537286"><ele>430.00000000000006</ele><time>2026-04-10T14:14:48Z</time></trkpt><trkpt lat="42.861719731511215" lon="12.929004852128287"><ele>430.0</ele><time>2026-04-10T14:14:49Z</time></trkpt><trkpt lat="42.86178847966727" lon="12.929026458685282"><ele>430.0</ele><time>2026-04-10T14:14:50Z</time></trkpt><trkpt lat="42.861860844591924" lon="12.929014346094025"><ele>430.0</ele><time>2026-04-10T14:14:51Z</time></trkpt><trkpt lat="42.86194783262814" lon="12.928983199455134"><ele>430.00000000000006</ele><time>2026-04-10T14:14:52Z</time></trkpt><trkpt lat="42.86205613056808" lon="12.928956077574377"><ele>430.0</ele><time>2026-04-10T14:14:53Z</time></trkpt><trkpt lat="42.8622260730566" lon="12.928943839135702"><ele>431.0</ele><time>2026-04-10T14:14:54Z</time></trkpt><trkpt lat="42.86242768838039" lon="12.928908984347474"><ele>432.0</ele><time>2026-04-10T14:14:55Z</time></trkpt><trkpt lat="42.862530904279865" lon="12.928887735798359"><ele>433.0</ele><time>2026-04-10T14:14:56Z</time></trkpt><trkpt lat="42.86264818936561" lon="12.928863324281679"><ele>434.0</ele><time>2026-04-10T14:14:57Z</time></trkpt><trkpt lat="42.86271864913168" lon="12.928856864072882"><ele>434.66666666666663</ele><time>2026-04-10T14:14:58Z</time></trkpt><trkpt lat="42.8627968940565" lon="12.928864148573338"><ele>435.3333333333333</ele><time>2026-04-10T14:14:59Z</time></trkpt><trkpt lat="42.86284468330878" lon="12.92892564128043"><ele>436.0</ele><time>2026-04-10T14:15:00Z</time></trkpt><trkpt lat="42.86289341222" lon="12.92900999070679"><ele>436.66666666666663</ele><time>2026-04-10T14:15:01Z</time></trkpt><trkpt lat="42.86289771139543" lon="12.929124073262823"><ele>437.3333333333333</ele><time>2026-04-10T14:15:02Z</time></trkpt><trkpt lat="42.86292241386625" lon="12.929236882298017"><ele>438.0</ele><time>2026-04-10T14:15:03Z</time></trkpt><trkpt lat="42.86295919929533" lon="12.929375897097378"><ele>440.25</ele><time>2026-04-10T14:15:04Z</time></trkpt><trkpt lat="42.863036716582286" lon="12.9295704277529"><ele>442.5</ele><time>2026-04-10T14:15:05Z</time></trkpt><trkpt lat="42.86311566140044" lon="12.929697534231705"><ele>444.75</ele><time>2026-04-10T14:15:06Z</time></trkpt><trkpt lat="42.86322679653568" lon="12.929772400405843"><ele>447.0</ele><time>2026-04-10T14:15:07Z</time></trkpt><trkpt lat="42.86332297275818" lon="12.929815954252064"><ele>447.0</ele><time>2026-04-10T14:15:08Z</time></trkpt><trkpt lat="42.863373378498565" lon="12.929926988981432"><ele>447.00000000000006</ele><time>2026-04-10T14:15:10Z</time></trkpt><trkpt lat="42.8634353903107" lon="12.9300123397248"><ele>447.00000000000006</ele><time>2026-04-10T14:15:12Z</time></trkpt><trkpt lat="42.863573284705716" lon="12.930051362112774"><ele>447.0</ele><time>2026-04-10T14:15:14Z</time></trkpt><trkpt lat="42.86367961846153" lon="12.930052868926717"><ele>447.0</ele><time>2026-04-10T14:15:15Z</time></trkpt><trkpt lat="42.863780044842656" lon="12.930074568007534"><ele>447.0</ele><time>2026-04-10T14:15:16Z</time></trkpt><trkpt lat="42.86385522462151" lon="12.930120759238184"><ele>447.00000000000006</ele><time>2026-04-10T14:15:17Z</time></trkpt><trkpt lat="42.86391733464246" lon="12.930204675850243"><ele>447.00000000000006</ele><time>2026-04-10T14:15:18Z</time></trkpt><trkpt lat="42.86402975380707" lon="12.930289660811548"><ele>447.0</ele><time>2026-04-10T14:15:19Z</time></trkpt><trkpt lat="42.864116821125506" lon="12.930324158523913"><ele>447.0</ele><time>2026-04-10T14:15:20Z</time></trkpt><trkpt lat="42.864232863013505" lon="12.930342792495017"><ele>448.0</ele><time>2026-04-10T14:15:21Z</time></trkpt><trkpt lat="42.86434003531919" lon="12.930332861985487"><ele>449.0</ele><time>2026-04-10T14:15:22Z</time></trkpt><trkpt lat="42.86442803845669" lon="12.930392493156658"><ele>450.0</ele><time>2026-04-10T14:15:23Z</time></trkpt><trkpt lat="42.86451172229699" lon="12.930492940128532"><ele>451.0</ele><time>2026-04-10T14:15:24Z</time></trkpt><trkpt lat="42.86464283132885" lon="12.930584587415993"><ele>451.0</ele><time>2026-04-10T14:15:25Z</time></trkpt><trkpt lat="42.864747374189406" lon="12.93063371411829"><ele>451.0</ele><time>2026-04-10T14:15:26Z</time></trkpt><trkpt lat="42.864863730618744" lon="12.930680930161135"><ele>451.0</ele><time>2026-04-10T14:15:27Z</time></trkpt><trkpt lat="42.86497949636703" lon="12.930720080591719"><ele>451.0</ele><time>2026-04-10T14:15:28Z</time></trkpt><trkpt lat="42.86505728634756" lon="12.930741552284022"><ele>451.0</ele><time>2026-04-10T14:15:29Z</time></trkpt><trkpt lat="42.86518666502343" lon="12.930742062112465"><ele>452.5</ele><time>2026-04-10T14:15:31Z</time></trkpt><trkpt lat="42.865279469228476" lon="12.930733124718229"><ele>454.0</ele><time>2026-04-10T14:15:32Z</time></trkpt><trkpt lat="42.8653858985093" lon="12.930763054783009"><ele>455.5</ele><time>2026-04-10T14:15:33Z</time></trkpt><trkpt lat="42.86551285872084" lon="12.930814746820461"><ele>457.0</ele><time>2026-04-10T14:15:34Z</time></trkpt><trkpt lat="42.865646347662356" lon="12.930827753601983"><ele>457.0</ele><time>2026-04-10T14:15:35Z</time></trkpt><trkpt lat="42.86573840398663" lon="12.930846335724175"><ele>457.0</ele><time>2026-04-10T14:15:36Z</time></trkpt><trkpt lat="42.86584004090114" lon="12.930840042481634"><ele>457.0</ele><time>2026-04-10T14:15:37Z</time></trkpt><trkpt lat="42.865973418696285" lon="12.93081998076166"><ele>457.0</ele><time>2026-04-10T14:15:38Z</time></trkpt><trkpt lat="42.86611838959123" lon="12.930792488509754"><ele>458.0</ele><time>2026-04-10T14:15:39Z</time></trkpt><trkpt lat="42.866223831742445" lon="12.930747756565987"><ele>459.00000000000006</ele><time>2026-04-10T14:15:40Z</time></trkpt><trkpt lat="42.86631473275991" lon="12.930696674695223"><ele>460.00000000000006</ele><time>2026-04-10T14:15:41Z</time></trkpt><trkpt lat="42.866400551347176" lon="12.93064461757205"><ele>461.0</ele><time>2026-04-10T14:15:42Z</time></trkpt><trkpt lat="42.86647651008364" lon="12.930615882730416"><ele>462.0</ele><time>2026-04-10T14:15:43Z</time></trkpt><trkpt lat="42.866539192271325" lon="12.930565796957588"><ele>462.0</ele><time>2026-04-10T14:15:44Z</time></trkpt><trkpt lat="42.86659308343169" lon="12.93050606040885"><ele>462.00000000000006</ele><time>2026-04-10T14:15:45Z</time></trkpt><trkpt lat="42.86661162539536" lon="12.930417108312152"><ele>462.00000000000006</ele><time>2026-04-10T14:15:46Z</time></trkpt><trkpt lat="42.86662751764826" lon="12.930309966890846"><ele>462.0</ele><time>2026-04-10T14:15:47Z</time></trkpt><trkpt lat="42.866616353750686" lon="12.93008738798091"><ele>462.0</ele><time>2026-04-10T14:15:49Z</time></trkpt><trkpt lat="42.86665095946986" lon="12.929981143013574"><ele>459.8</ele><time>2026-04-10T14:15:50Z</time></trkpt><trkpt lat="42.86673462739742" lon="12.929894969900692"><ele>457.6</ele><time>2026-04-10T14:15:51Z</time></trkpt><trkpt lat="42.8668002770688" lon="12.929751674894849"><ele>455.40000000000003</ele><time>2026-04-10T14:15:52Z</time></trkpt><trkpt lat="42.866846568358376" lon="12.929652324692773"><ele>453.20000000000005</ele><time>2026-04-10T14:15:53Z</time></trkpt><trkpt lat="42.86689923102418" lon="12.92958152839126"><ele>451.0</ele><time>2026-04-10T14:15:54Z</time></trkpt><trkpt lat="42.86696768933845" lon="12.929502902444675"><ele>451.00000000000006</ele><time>2026-04-10T14:15:55Z</time></trkpt><trkpt lat="42.86703542005797" lon="12.929391106087202"><ele>451.0</ele><time>2026-04-10T14:15:56Z</time></trkpt><trkpt lat="42.867098387247786" lon="12.92933184888945"><ele>451.0</ele><time>2026-04-10T14:15:57Z</time></trkpt><trkpt lat="42.867133773899894" lon="12.929254907022779"><ele>451.0</ele><time>2026-04-10T14:15:58Z</time></trkpt><trkpt lat="42.86716437299372" lon="12.929142207336906"><ele>451.00000000000006</ele><time>2026-04-10T14:15:59Z</time></trkpt><trkpt lat="42.86716208668191" lon="12.92905277001429"><ele>451.0</ele><time>2026-04-10T14:16:00Z</time></trkpt><trkpt lat="42.86713778348215" lon="12.928938376480048"><ele>450.0</ele><time>2026-04-10T14:16:01Z</time></trkpt><trkpt lat="42.867087814493566" lon="12.928792100332345"><ele>449.0</ele><time>2026-04-10T14:16:02Z</time></trkpt><trkpt lat="42.86702239117833" lon="12.928642025929905"><ele>448.0</ele><time>2026-04-10T14:16:03Z</time></trkpt><trkpt lat="42.866946558420366" lon="12.928482324159603"><ele>447.0</ele><time>2026-04-10T14:16:04Z</time></trkpt><trkpt lat="42.86688515182936" lon="12.92835541007141"><ele>447.0</ele><time>2026-04-10T14:16:05Z</time></trkpt><trkpt lat="42.86684357622246" lon="12.928282628394273"><ele>447.0</ele><time>2026-04-10T14:16:06Z</time></trkpt><trkpt lat="42.86671693933291" lon="12.92823855266747"><ele>447.0</ele><time>2026-04-10T14:16:08Z</time></trkpt><trkpt lat="42.86664323553629" lon="12.928244370569777"><ele>447.0</ele><time>2026-04-10T14:16:09Z</time></trkpt><trkpt lat="42.8665762687031" lon="12.928233326757468"><ele>447.0</ele><time>2026-04-10T14:16:10Z</time></trkpt><trkpt lat="42.86650599049562" lon="12.928221736845158"><ele>447.0</ele><time>2026-04-10T14:16:11Z</time></trkpt><trkpt lat="42.86659380032249" lon="12.928145874522285"><ele>447.0</ele><time>2026-04-10T14:16:13Z</time></trkpt><trkpt lat="42.86662957292409" lon="12.92823067557816"><ele>447.0</ele><time>2026-04-10T14:16:14Z</time></trkpt><trkpt lat="42.866689879226634" lon="12.928111957382967"><ele>447.0</ele><time>2026-04-10T14:16:17Z</time></trkpt><trkpt lat="42.86672293511961" lon="12.928015357912205"><ele>447.0</ele><time>2026-04-10T14:16:18Z</time></trkpt><trkpt lat="42.866743288542025" lon="12.927889023641626"><ele>447.0</ele><time>2026-04-10T14:16:19Z</time></trkpt><trkpt lat="42.866789345456326" lon="12.927797056648956"><ele>447.0</ele><time>2026-04-10T14:16:20Z</time></trkpt><trkpt lat="42.866839706987335" lon="12.927671977884627"><ele>447.0</ele><time>2026-04-10T14:16:21Z</time></trkpt><trkpt lat="42.86689485556711" lon="12.927579111609985"><ele>447.0</ele><time>2026-04-10T14:16:22Z</time></trkpt><trkpt lat="42.86694662650258" lon="12.927456303441378"><ele>447.0</ele><time>2026-04-10T14:16:23Z</time></trkpt><trkpt lat="42.86698913586914" lon="12.927363002191685"><ele>447.0</ele><time>2026-04-10T14:16:24Z</time></trkpt><trkpt lat="42.866996873177385" lon="12.92726927655254"><ele>447.0</ele><time>2026-04-10T14:16:25Z</time></trkpt><trkpt lat="42.86698465030447" lon="12.927158709920187"><ele>447.0</ele><time>2026-04-10T14:16:26Z</time></trkpt><trkpt lat="42.86694639149837" lon="12.92707571523713"><ele>449.75</ele><time>2026-04-10T14:16:27Z</time></trkpt><trkpt lat="42.8668741790624" lon="12.926979806947813"><ele>452.5</ele><time>2026-04-10T14:16:28Z</time></trkpt><trkpt lat="42.86680756948643" lon="12.926832104721916"><ele>455.25</ele><time>2026-04-10T14:16:29Z</time></trkpt><trkpt lat="42.86671398509683" lon="12.926692658335046"><ele>458.0</ele><time>2026-04-10T14:16:30Z</time></trkpt><trkpt lat="42.866643080913185" lon="12.926554915061546"><ele>460.59999999999997</ele><time>2026-04-10T14:16:31Z</time></trkpt><trkpt lat="42.866587120260135" lon="12.926426478238506"><ele>463.19999999999993</ele><time>2026-04-10T14:16:32Z</time></trkpt><trkpt lat="42.866547953548796" lon="12.926309987545359"><ele>465.8</ele><time>2026-04-10T14:16:33Z</time></trkpt><trkpt lat="42.866525352621665" lon="12.926180320303478"><ele>468.4</ele><time>2026-04-10T14:16:34Z</time></trkpt><trkpt lat="42.86649592966853" lon="12.926047763225652"><ele>471.0</ele><time>2026-04-10T14:16:35Z</time></trkpt><trkpt lat="42.866471617124326" lon="12.925906664270386"><ele>472.1666666666667</ele><time>2026-04-10T14:16:36Z</time></trkpt><trkpt lat="42.86642266873945" lon="12.925783248898092"><ele>473.33333333333337</ele><time>2026-04-10T14:16:37Z</time></trkpt><trkpt lat="42.866366485051536" lon="12.9257051119155"><ele>474.5</ele><time>2026-04-10T14:16:38Z</time></trkpt><trkpt lat="42.86636581699981" lon="12.925578310411806"><ele>475.6666666666667</ele><time>2026-04-10T14:16:40Z</time></trkpt><trkpt lat="42.86637911017388" lon="12.925486915179327"><ele>476.83333333333337</ele><time>2026-04-10T14:16:41Z</time></trkpt><trkpt lat="42.86640731909393" lon="12.925380230528413"><ele>478.0</ele><time>2026-04-10T14:16:42Z</time></trkpt><trkpt lat="42.866414481221504" lon="12.925233913957873"><ele>478.0</ele><time>2026-04-10T14:16:43Z</time></trkpt><trkpt lat="42.866422701008105" lon="12.92510747892906"><ele>477.99999999999994</ele><time>2026-04-10T14:16:44Z</time></trkpt><trkpt lat="42.8663783300494" lon="12.925020714877377"><ele>477.99999999999994</ele><time>2026-04-10T14:16:45Z</time></trkpt><trkpt lat="42.866350006532166" lon="12.92490888647635"><ele>478.0</ele><time>2026-04-10T14:16:46Z</time></trkpt><trkpt lat="42.86634157243992" lon="12.924755239470736"><ele>478.0</ele><time>2026-04-10T14:16:47Z</time></trkpt><trkpt lat="42.86629807810285" lon="12.92464992526574"><ele>479.59999999999997</ele><time>2026-04-10T14:16:48Z</time></trkpt><trkpt lat="42.86626839510726" lon="12.924543622334452"><ele>481.19999999999993</ele><time>2026-04-10T14:16:50Z</time></trkpt><trkpt lat="42.86628090717038" lon="12.924446040109897"><ele>482.8</ele><time>2026-04-10T14:16:52Z</time></trkpt><trkpt lat="42.86630318111079" lon="12.924356987209261"><ele>484.4</ele><time>2026-04-10T14:16:53Z</time></trkpt><trkpt lat="42.866194966679785" lon="12.924159487642134"><ele>486.0</ele><time>2026-04-10T14:16:54Z</time></trkpt><trkpt lat="42.866155333436815" lon="12.923925485491997"><ele>488.33333333333337</ele><time>2026-04-10T14:16:55Z</time></trkpt><trkpt lat="42.86614991505958" lon="12.923676666382308"><ele>490.6666666666667</ele><time>2026-04-10T14:16:56Z</time></trkpt><trkpt lat="42.86615978001764" lon="12.92343297562989"><ele>493.0</ele><time>2026-04-10T14:16:57Z</time></trkpt><trkpt lat="42.86616794424082" lon="12.923212489521484"><ele>493.0</ele><time>2026-04-10T14:16:58Z</time></trkpt><trkpt lat="42.866179281494894" lon="12.923000230031382"><ele>493.0</ele><time>2026-04-10T14:16:59Z</time></trkpt><trkpt lat="42.86622815135811" lon="12.922821739466789"><ele>493.0</ele><time>2026-04-10T14:17:00Z</time></trkpt><trkpt lat="42.86628790266639" lon="12.92265718637099"><ele>493.0</ele><time>2026-04-10T14:17:01Z</time></trkpt><trkpt lat="42.866398973272595" lon="12.922525667711467"><ele>491.0</ele><time>2026-04-10T14:17:02Z</time></trkpt><trkpt lat="42.866532488617096" lon="12.92236778344905"><ele>489.0</ele><time>2026-04-10T14:17:03Z</time></trkpt><trkpt lat="42.866666099764785" lon="12.922182619790593"><ele>487.0</ele><time>2026-04-10T14:17:04Z</time></trkpt><trkpt lat="42.86677351123564" lon="12.92204131500466"><ele>489.75</ele><time>2026-04-10T14:17:05Z</time></trkpt><trkpt lat="42.86684178839647" lon="12.921884281899873"><ele>492.5</ele><time>2026-04-10T14:17:06Z</time></trkpt><trkpt lat="42.86686499524497" lon="12.921719641041658"><ele>495.25</ele><time>2026-04-10T14:17:07Z</time></trkpt><trkpt lat="42.866874738573365" lon="12.92156585638904"><ele>498.0</ele><time>2026-04-10T14:17:08Z</time></trkpt><trkpt lat="42.866883261872715" lon="12.92144830648291"><ele>498.0</ele><time>2026-04-10T14:17:09Z</time></trkpt><trkpt lat="42.86687383604756" lon="12.92135889917543"><ele>498.0</ele><time>2026-04-10T14:17:10Z</time></trkpt><trkpt lat="42.86684349004489" lon="12.92126611632951"><ele>498.0</ele><time>2026-04-10T14:17:11Z</time></trkpt><trkpt lat="42.866796486617055" lon="12.921182301816083"><ele>498.0</ele><time>2026-04-10T14:17:12Z</time></trkpt><trkpt lat="42.86679818095287" lon="12.921045726524355"><ele>498.0</ele><time>2026-04-10T14:17:59Z</time></trkpt><trkpt lat="42.86686512301763" lon="12.920891652928539"><ele>498.0</ele><time>2026-04-10T14:18:01Z</time></trkpt><trkpt lat="42.866983209405284" lon="12.920786291101443"><ele>497.4</ele><time>2026-04-10T14:18:03Z</time></trkpt><trkpt lat="42.86705122034489" lon="12.920684876591151"><ele>496.79999999999995</ele><time>2026-04-10T14:18:04Z</time></trkpt><trkpt lat="42.86712969474801" lon="12.920559427659404"><ele>496.2</ele><time>2026-04-10T14:18:05Z</time></trkpt><trkpt lat="42.8671986109473" lon="12.920451949115488"><ele>495.6</ele><time>2026-04-10T14:18:06Z</time></trkpt><trkpt lat="42.86724409095149" lon="12.920382355419559"><ele>495.0</ele><time>2026-04-10T14:18:07Z</time></trkpt><trkpt lat="42.867295949057244" lon="12.920305612440806"><ele>495.0</ele><time>2026-04-10T14:18:09Z</time></trkpt><trkpt lat="42.86711558466757" lon="12.920080426707381"><ele>495.0</ele><time>2026-04-10T14:18:11Z</time></trkpt><trkpt lat="42.86703768851317" lon="12.920056239885852"><ele>495.0</ele><time>2026-04-10T14:18:12Z</time></trkpt><trkpt lat="42.86694889378797" lon="12.920078601133943"><ele>495.0</ele><time>2026-04-10T14:18:13Z</time></trkpt><trkpt lat="42.866886459184215" lon="12.92016302063661"><ele>495.0</ele><time>2026-04-10T14:18:14Z</time></trkpt><trkpt lat="42.86680037743394" lon="12.920250535419436"><ele>495.0</ele><time>2026-04-10T14:18:15Z</time></trkpt><trkpt lat="42.86672954204741" lon="12.920271805034272"><ele>495.0</ele><time>2026-04-10T14:18:16Z</time></trkpt><trkpt lat="42.86667493453328" lon="12.920208294124544"><ele>495.0</ele><time>2026-04-10T14:18:18Z</time></trkpt><trkpt lat="42.86670422195031" lon="12.920054876238106"><ele>495.0</ele><time>2026-04-10T14:18:20Z</time></trkpt><trkpt lat="42.866730298154316" lon="12.919970018109003"><ele>495.0</ele><time>2026-04-10T14:18:22Z</time></trkpt><trkpt lat="42.866650905935074" lon="12.919894115762432"><ele>495.8</ele><time>2026-04-10T14:18:25Z</time></trkpt><trkpt lat="42.866590068959404" lon="12.919811569196243"><ele>496.6</ele><time>2026-04-10T14:18:27Z</time></trkpt><trkpt lat="42.86651123648638" lon="12.919661035511007"><ele>497.4</ele><time>2026-04-10T14:18:29Z</time></trkpt><trkpt lat="42.866433885433736" lon="12.91958925519158"><ele>498.2</ele><time>2026-04-10T14:18:30Z</time></trkpt><trkpt lat="42.86637258617104" lon="12.919539425505825"><ele>499.0</ele><time>2026-04-10T14:18:31Z</time></trkpt><trkpt lat="42.86627313606506" lon="12.919459749179966"><ele>499.0</ele><time>2026-04-10T14:18:33Z</time></trkpt><trkpt lat="42.866208383692125" lon="12.919402313317686"><ele>499.0</ele><time>2026-04-10T14:18:34Z</time></trkpt><trkpt lat="42.86613087527629" lon="12.91934406752837"><ele>499.0</ele><time>2026-04-10T14:18:35Z</time></trkpt><trkpt lat="42.86605568643295" lon="12.919296438867816"><ele>499.0</ele><time>2026-04-10T14:18:36Z</time></trkpt><trkpt lat="42.865977482125835" lon="12.919190967825733"><ele>499.0</ele><time>2026-04-10T14:18:38Z</time></trkpt><trkpt lat="42.86611743329272" lon="12.919111669891405"><ele>506.0</ele><time>2026-04-10T14:18:40Z</time></trkpt><trkpt lat="42.866252434111466" lon="12.918927663574056"><ele>513.0</ele><time>2026-04-10T14:18:42Z</time></trkpt><trkpt lat="42.866365720954796" lon="12.918811040575084"><ele>520.0</ele><time>2026-04-10T14:18:43Z</time></trkpt><trkpt lat="42.86648669917587" lon="12.918728488569462"><ele>520.0</ele><time>2026-04-10T14:18:44Z</time></trkpt><trkpt lat="42.86656970592422" lon="12.918669334086088"><ele>520.0</ele><time>2026-04-10T14:18:45Z</time></trkpt><trkpt lat="42.86665869709519" lon="12.9185485066874"><ele>520.0</ele><time>2026-04-10T14:18:47Z</time></trkpt><trkpt lat="42.86661671713291" lon="12.91835363188841"><ele>520.0</ele><time>2026-04-10T14:18:49Z</time></trkpt><trkpt lat="42.86658442523434" lon="12.918218024354024"><ele>522.0</ele><time>2026-04-10T14:18:50Z</time></trkpt><trkpt lat="42.86656422333494" lon="12.918085916473856"><ele>524.0</ele><time>2026-04-10T14:18:51Z</time></trkpt><trkpt lat="42.866539801639185" lon="12.917955876279107"><ele>526.0</ele><time>2026-04-10T14:18:52Z</time></trkpt><trkpt lat="42.86652075379757" lon="12.917831691961258"><ele>528.0</ele><time>2026-04-10T14:18:53Z</time></trkpt><trkpt lat="42.86651156505421" lon="12.917727347168787"><ele>530.0</ele><time>2026-04-10T14:18:54Z</time></trkpt><trkpt lat="42.86646932239257" lon="12.917627886564008"><ele>531.8</ele><time>2026-04-10T14:18:55Z</time></trkpt><trkpt lat="42.86642961217769" lon="12.917511139211241"><ele>533.6</ele><time>2026-04-10T14:18:56Z</time></trkpt><trkpt lat="42.86636620779845" lon="12.917368851086458"><ele>535.4</ele><time>2026-04-10T14:18:57Z</time></trkpt><trkpt lat="42.86632076380505" lon="12.917216506166977"><ele>537.2</ele><time>2026-04-10T14:18:58Z</time></trkpt><trkpt lat="42.86628780982775" lon="12.917113285962046"><ele>539.0</ele><time>2026-04-10T14:18:59Z</time></trkpt><trkpt lat="42.86626906754618" lon="12.917017698611795"><ele>539.0</ele><time>2026-04-10T14:19:00Z</time></trkpt><trkpt lat="42.86625099247235" lon="12.916933515309234"><ele>539.0</ele><time>2026-04-10T14:19:01Z</time></trkpt><trkpt lat="42.86615744589492" lon="12.916861436701963"><ele>539.0</ele><time>2026-04-10T14:19:02Z</time></trkpt><trkpt lat="42.866082343053705" lon="12.916729104189027"><ele>539.0</ele><time>2026-04-10T14:19:03Z</time></trkpt><trkpt lat="42.86603241548023" lon="12.916580260467958"><ele>539.0</ele><time>2026-04-10T14:19:04Z</time></trkpt><trkpt lat="42.86596846533973" lon="12.916482719744593"><ele>538.2</ele><time>2026-04-10T14:19:05Z</time></trkpt><trkpt lat="42.865935094156576" lon="12.91638921457288"><ele>537.4</ele><time>2026-04-10T14:19:06Z</time></trkpt><trkpt lat="42.86588719305392" lon="12.91628246974934"><ele>536.6</ele><time>2026-04-10T14:19:07Z</time></trkpt><trkpt lat="42.86580575628926" lon="12.91615958707485"><ele>535.8</ele><time>2026-04-10T14:19:08Z</time></trkpt><trkpt lat="42.865700652520616" lon="12.91604506523093"><ele>535.0</ele><time>2026-04-10T14:19:09Z</time></trkpt><trkpt lat="42.86561783539233" lon="12.91593606237088"><ele>535.6</ele><time>2026-04-10T14:19:10Z</time></trkpt><trkpt lat="42.86558271846067" lon="12.915851694098125"><ele>536.2</ele><time>2026-04-10T14:19:11Z</time></trkpt><trkpt lat="42.86563397271997" lon="12.915695156196662"><ele>536.8</ele><time>2026-04-10T14:19:13Z</time></trkpt><trkpt lat="42.86570867237256" lon="12.915634080810333"><ele>537.4</ele><time>2026-04-10T14:19:14Z</time></trkpt><trkpt lat="42.86575145091516" lon="12.915536145858285"><ele>538.0</ele><time>2026-04-10T14:19:15Z</time></trkpt><trkpt lat="42.865825016841" lon="12.915460988757642"><ele>538.0</ele><time>2026-04-10T14:19:16Z</time></trkpt><trkpt lat="42.865909144395296" lon="12.915349755507826"><ele>538.0</ele><time>2026-04-10T14:19:17Z</time></trkpt><trkpt lat="42.86600416475232" lon="12.915222547484571"><ele>538.0</ele><time>2026-04-10T14:19:18Z</time></trkpt><trkpt lat="42.8660690096627" lon="12.915092270716482"><ele>538.0</ele><time>2026-04-10T14:19:19Z</time></trkpt><trkpt lat="42.866118479793656" lon="12.914973061018857"><ele>545.6666666666667</ele><time>2026-04-10T14:19:20Z</time></trkpt><trkpt lat="42.86613785983915" lon="12.91487276309502"><ele>553.3333333333334</ele><time>2026-04-10T14:19:21Z</time></trkpt><trkpt lat="42.866212135283966" lon="12.914791102382761"><ele>561.0</ele><time>2026-04-10T14:19:24Z</time></trkpt><trkpt lat="42.86628815444199" lon="12.914849891231963"><ele>568.6666666666666</ele><time>2026-04-10T14:19:25Z</time></trkpt><trkpt lat="42.866297016216976" lon="12.914968590773645"><ele>576.3333333333333</ele><time>2026-04-10T14:19:26Z</time></trkpt><trkpt lat="42.86634056388277" lon="12.91504947084967"><ele>584.0</ele><time>2026-04-10T14:19:28Z</time></trkpt><trkpt lat="42.866453934963715" lon="12.914955970382147"><ele>584.0</ele><time>2026-04-10T14:19:30Z</time></trkpt><trkpt lat="42.86637438912336" lon="12.914754076614026"><ele>584.0</ele><time>2026-04-10T14:19:31Z</time></trkpt><trkpt lat="42.866306961714855" lon="12.914673433778267"><ele>584.0</ele><time>2026-04-10T14:19:32Z</time></trkpt><trkpt lat="42.86625563298503" lon="12.914585586304165"><ele>584.0</ele><time>2026-04-10T14:19:33Z</time></trkpt><trkpt lat="42.8661778083231" lon="12.914472870809053"><ele>584.0</ele><time>2026-04-10T14:19:34Z</time></trkpt><trkpt lat="42.86602741853028" lon="12.91434677348955"><ele>584.0</ele><time>2026-04-10T14:19:35Z</time></trkpt><trkpt lat="42.865881179343134" lon="12.914213123496085"><ele>584.0</ele><time>2026-04-10T14:19:36Z</time></trkpt><trkpt lat="42.86578633767186" lon="12.91408314686941"><ele>580.25</ele><time>2026-04-10T14:19:37Z</time></trkpt><trkpt lat="42.86569414068868" lon="12.913980772600056"><ele>576.5</ele><time>2026-04-10T14:19:38Z</time></trkpt><trkpt lat="42.86560311482212" lon="12.913860800319869"><ele>572.75</ele><time>2026-04-10T14:19:39Z</time></trkpt><trkpt lat="42.865518182547454" lon="12.913698038861494"><ele>569.0</ele><time>2026-04-10T14:19:40Z</time></trkpt><trkpt lat="42.86540443554142" lon="12.91352073775826"><ele>566.75</ele><time>2026-04-10T14:19:41Z</time></trkpt><trkpt lat="42.86527823635287" lon="12.913385638365758"><ele>564.5</ele><time>2026-04-10T14:19:42Z</time></trkpt><trkpt lat="42.86519222130036" lon="12.913251455602323"><ele>562.25</ele><time>2026-04-10T14:19:43Z</time></trkpt><trkpt lat="42.865100855330525" lon="12.913142791595025"><ele>560.0</ele><time>2026-04-10T14:19:44Z</time></trkpt><trkpt lat="42.86498652403318" lon="12.91304338319343"><ele>560.0</ele><time>2026-04-10T14:19:45Z</time></trkpt><trkpt lat="42.86488950362139" lon="12.912940487091099"><ele>560.0</ele><time>2026-04-10T14:19:46Z</time></trkpt><trkpt lat="42.864813120007" lon="12.912862754002532"><ele>560.0</ele><time>2026-04-10T14:19:47Z</time></trkpt><trkpt lat="42.86477181215619" lon="12.912740306622368"><ele>560.0</ele><time>2026-04-10T14:19:48Z</time></trkpt><trkpt lat="42.86473947221011" lon="12.912589686592424"><ele>560.0</ele><time>2026-04-10T14:19:49Z</time></trkpt><trkpt lat="42.86464714902769" lon="12.912433034430743"><ele>564.75</ele><time>2026-04-10T14:19:50Z</time></trkpt><trkpt lat="42.86459482247134" lon="12.912277037297637"><ele>569.5</ele><time>2026-04-10T14:19:51Z</time></trkpt><trkpt lat="42.8645470417213" lon="12.912135262985435"><ele>574.25</ele><time>2026-04-10T14:19:52Z</time></trkpt><trkpt lat="42.86451781833683" lon="12.91198656592159"><ele>579.0</ele><time>2026-04-10T14:19:53Z</time></trkpt><trkpt lat="42.864511594484874" lon="12.911823553236319"><ele>583.5</ele><time>2026-04-10T14:19:54Z</time></trkpt><trkpt lat="42.864545124848725" lon="12.911671653475242"><ele>588.0</ele><time>2026-04-10T14:19:55Z</time></trkpt><trkpt lat="42.86458287310211" lon="12.911483221843875"><ele>592.5</ele><time>2026-04-10T14:19:56Z</time></trkpt><trkpt lat="42.864612792832745" lon="12.911269844304396"><ele>597.0</ele><time>2026-04-10T14:19:57Z</time></trkpt><trkpt lat="42.86463685501978" lon="12.911097836978461"><ele>597.0</ele><time>2026-04-10T14:19:58Z</time></trkpt><trkpt lat="42.86463806808264" lon="12.910918354109"><ele>597.0</ele><time>2026-04-10T14:19:59Z</time></trkpt><trkpt lat="42.86461923616241" lon="12.910700120753013"><ele>597.0</ele><time>2026-04-10T14:20:00Z</time></trkpt><trkpt lat="42.86459514419082" lon="12.910477250670592"><ele>598.3333333333334</ele><time>2026-04-10T14:20:01Z</time></trkpt><trkpt lat="42.86456460881422" lon="12.910229467302898"><ele>599.6666666666667</ele><time>2026-04-10T14:20:02Z</time></trkpt><trkpt lat="42.86452731685861" lon="12.909992758513866"><ele>601.0</ele><time>2026-04-10T14:20:03Z</time></trkpt><trkpt lat="42.864503445819885" lon="12.909782637595534"><ele>602.0</ele><time>2026-04-10T14:20:04Z</time></trkpt><trkpt lat="42.864451191058635" lon="12.909592659655914"><ele>603.0</ele><time>2026-04-10T14:20:05Z</time></trkpt><trkpt lat="42.864432538588154" lon="12.90943372663433"><ele>604.0</ele><time>2026-04-10T14:20:06Z</time></trkpt><trkpt lat="42.864407477618364" lon="12.909305576869107"><ele>605.0</ele><time>2026-04-10T14:20:07Z</time></trkpt><trkpt lat="42.86440214767507" lon="12.909195537831566"><ele>606.0</ele><time>2026-04-10T14:20:08Z</time></trkpt><trkpt lat="42.86442328816997" lon="12.909063027920247"><ele>606.0</ele><time>2026-04-10T14:20:09Z</time></trkpt><trkpt lat="42.86446133227897" lon="12.908899994602995"><ele>606.0</ele><time>2026-04-10T14:20:10Z</time></trkpt><trkpt lat="42.86449318347793" lon="12.908712390846153"><ele>606.0</ele><time>2026-04-10T14:20:11Z</time></trkpt><trkpt lat="42.8645180348091" lon="12.908537460838126"><ele>606.0</ele><time>2026-04-10T14:20:12Z</time></trkpt><trkpt lat="42.86451519328623" lon="12.908361993459765"><ele>603.0</ele><time>2026-04-10T14:20:13Z</time></trkpt><trkpt lat="42.86448573272247" lon="12.908163238863931"><ele>600.0</ele><time>2026-04-10T14:20:14Z</time></trkpt><trkpt lat="42.864454130910524" lon="12.907920370847137"><ele>597.0</ele><time>2026-04-10T14:20:15Z</time></trkpt><trkpt lat="42.86445094492748" lon="12.907687849038261"><ele>601.5</ele><time>2026-04-10T14:20:16Z</time></trkpt><trkpt lat="42.864437338564144" lon="12.907466261083645"><ele>606.0</ele><time>2026-04-10T14:20:17Z</time></trkpt><trkpt lat="42.86442466634516" lon="12.90726865691766"><ele>610.5</ele><time>2026-04-10T14:20:18Z</time></trkpt><trkpt lat="42.86437729859395" lon="12.907103779796943"><ele>615.0</ele><time>2026-04-10T14:20:19Z</time></trkpt><trkpt lat="42.86433071989237" lon="12.906913863795987"><ele>601.3333333333334</ele><time>2026-04-10T14:20:20Z</time></trkpt><trkpt lat="42.86427330885589" lon="12.906695758095898"><ele>587.6666666666667</ele><time>2026-04-10T14:20:21Z</time></trkpt><trkpt lat="42.86421916271069" lon="12.906490875678537"><ele>574.0</ele><time>2026-04-10T14:20:22Z</time></trkpt><trkpt lat="42.864165501560144" lon="12.906288590449316"><ele>574.0</ele><time>2026-04-10T14:20:23Z</time></trkpt><trkpt lat="42.86410609805125" lon="12.906091902098515"><ele>574.0</ele><time>2026-04-10T14:20:24Z</time></trkpt><trkpt lat="42.86403566387111" lon="12.905916318490293"><ele>574.0</ele><time>2026-04-10T14:20:25Z</time></trkpt><trkpt lat="42.86394903781979" lon="12.905715965759738"><ele>575.75</ele><time>2026-04-10T14:20:26Z</time></trkpt><trkpt lat="42.863860140622386" lon="12.905552289595361"><ele>577.5</ele><time>2026-04-10T14:20:27Z</time></trkpt><trkpt lat="42.86376999193659" lon="12.905402934559762"><ele>579.25</ele><time>2026-04-10T14:20:28Z</time></trkpt><trkpt lat="42.86368896746711" lon="12.905264058048939"><ele>581.0</ele><time>2026-04-10T14:20:29Z</time></trkpt><trkpt lat="42.863618570895845" lon="12.905143787966363"><ele>580.2</ele><time>2026-04-10T14:20:30Z</time></trkpt><trkpt lat="42.86354033314673" lon="12.905032207878888"><ele>579.4000000000001</ele><time>2026-04-10T14:20:31Z</time></trkpt><trkpt lat="42.863456012492435" lon="12.904925106397698"><ele>578.6</ele><time>2026-04-10T14:20:32Z</time></trkpt><trkpt lat="42.86337088922158" lon="12.904822203719966"><ele>577.8000000000001</ele><time>2026-04-10T14:20:33Z</time></trkpt><trkpt lat="42.863300408258866" lon="12.904738271507712"><ele>577.0</ele><time>2026-04-10T14:20:34Z</time></trkpt><trkpt lat="42.86323238212486" lon="12.904664640797803"><ele>577.0</ele><time>2026-04-10T14:20:35Z</time></trkpt><trkpt lat="42.86315274196995" lon="12.904557317813268"><ele>577.0</ele><time>2026-04-10T14:20:36Z</time></trkpt><trkpt lat="42.863046958498636" lon="12.904491508633004"><ele>577.0</ele><time>2026-04-10T14:20:37Z</time></trkpt><trkpt lat="42.862971184446664" lon="12.904427543590128"><ele>577.0</ele><time>2026-04-10T14:20:38Z</time></trkpt><trkpt lat="42.8630010054012" lon="12.904172717132198"><ele>576.8333333333334</ele><time>2026-04-10T14:20:39Z</time></trkpt><trkpt lat="42.86297091349355" lon="12.90406722514461"><ele>576.6666666666667</ele><time>2026-04-10T14:20:40Z</time></trkpt><trkpt lat="42.862950814306814" lon="12.90396786171903"><ele>576.5</ele><time>2026-04-10T14:20:41Z</time></trkpt><trkpt lat="42.86293056852985" lon="12.90388114961914"><ele>576.3333333333334</ele><time>2026-04-10T14:20:42Z</time></trkpt><trkpt lat="42.86289986843892" lon="12.903789945353333"><ele>576.1666666666666</ele><time>2026-04-10T14:20:43Z</time></trkpt><trkpt lat="42.862853303510406" lon="12.903714017564461"><ele>576.0</ele><time>2026-04-10T14:20:44Z</time></trkpt><trkpt lat="42.862803033723445" lon="12.90363202522554"><ele>576.0</ele><time>2026-04-10T14:20:45Z</time></trkpt><trkpt lat="42.862764073071645" lon="12.903552220616987"><ele>576.0</ele><time>2026-04-10T14:20:46Z</time></trkpt><trkpt lat="42.86272882837853" lon="12.903465214467102"><ele>576.0</ele><time>2026-04-10T14:20:47Z</time></trkpt><trkpt lat="42.86268748924333" lon="12.90336459810641"><ele>576.0</ele><time>2026-04-10T14:20:48Z</time></trkpt><trkpt lat="42.86264729326126" lon="12.903265843583497"><ele>576.0</ele><time>2026-04-10T14:20:49Z</time></trkpt><trkpt lat="42.86260418156426" lon="12.903134680455722"><ele>576.0</ele><time>2026-04-10T14:20:50Z</time></trkpt><trkpt lat="42.86257882061454" lon="12.902995918057535"><ele>579.1666666666666</ele><time>2026-04-10T14:20:51Z</time></trkpt><trkpt lat="42.862560030788806" lon="12.902876102929367"><ele>582.3333333333334</ele><time>2026-04-10T14:20:52Z</time></trkpt><trkpt lat="42.86254798710579" lon="12.902780820469745"><ele>585.5</ele><time>2026-04-10T14:20:53Z</time></trkpt><trkpt lat="42.86252609184513" lon="12.902691821460268"><ele>588.6666666666667</ele><time>2026-04-10T14:20:54Z</time></trkpt><trkpt lat="42.862516517079776" lon="12.902548465129874"><ele>591.8333333333334</ele><time>2026-04-10T14:20:55Z</time></trkpt><trkpt lat="42.8625230021658" lon="12.902408190733324"><ele>595.0</ele><time>2026-04-10T14:20:56Z</time></trkpt><trkpt lat="42.86252075897477" lon="12.902289946580538"><ele>595.0</ele><time>2026-04-10T14:20:57Z</time></trkpt><trkpt lat="42.86251756460572" lon="12.902164747937764"><ele>595.0</ele><time>2026-04-10T14:20:58Z</time></trkpt><trkpt lat="42.86248722009581" lon="12.902041690245479"><ele>595.0</ele><time>2026-04-10T14:20:59Z</time></trkpt><trkpt lat="42.86247570008153" lon="12.901892922957037"><ele>595.0</ele><time>2026-04-10T14:21:00Z</time></trkpt><trkpt lat="42.86246504965526" lon="12.901747123609299"><ele>595.0</ele><time>2026-04-10T14:21:01Z</time></trkpt><trkpt lat="42.862447993684114" lon="12.901605262057528"><ele>595.4</ele><time>2026-04-10T14:21:02Z</time></trkpt><trkpt lat="42.862449835559055" lon="12.901456298365083"><ele>595.8</ele><time>2026-04-10T14:21:03Z</time></trkpt><trkpt lat="42.862469609206066" lon="12.901319408636734"><ele>596.2</ele><time>2026-04-10T14:21:04Z</time></trkpt><trkpt lat="42.86249409176506" lon="12.901204868163756"><ele>596.6</ele><time>2026-04-10T14:21:05Z</time></trkpt><trkpt lat="42.8624944861686" lon="12.901098837176313"><ele>597.0</ele><time>2026-04-10T14:21:06Z</time></trkpt><trkpt lat="42.86248969699948" lon="12.90097720872983"><ele>598.0</ele><time>2026-04-10T14:21:07Z</time></trkpt><trkpt lat="42.86247428412932" lon="12.900830145653403"><ele>599.0</ele><time>2026-04-10T14:21:08Z</time></trkpt><trkpt lat="42.86249163890122" lon="12.90070803063056"><ele>600.0</ele><time>2026-04-10T14:21:09Z</time></trkpt><trkpt lat="42.86252414456267" lon="12.900589947269001"><ele>601.0</ele><time>2026-04-10T14:21:10Z</time></trkpt><trkpt lat="42.862545002382" lon="12.900446288540602"><ele>602.0</ele><time>2026-04-10T14:21:11Z</time></trkpt><trkpt lat="42.86257546408249" lon="12.900322500574434"><ele>602.0</ele><time>2026-04-10T14:21:12Z</time></trkpt><trkpt lat="42.86260091300596" lon="12.900196878713999"><ele>602.0</ele><time>2026-04-10T14:21:13Z</time></trkpt><trkpt lat="42.86263726575167" lon="12.900066141513998"><ele>602.0</ele><time>2026-04-10T14:21:14Z</time></trkpt><trkpt lat="42.862677687156186" lon="12.899934454874726"><ele>602.0</ele><time>2026-04-10T14:21:15Z</time></trkpt><trkpt lat="42.86272522239162" lon="12.899800813836569"><ele>602.0</ele><time>2026-04-10T14:21:16Z</time></trkpt><trkpt lat="42.86278859037107" lon="12.899689247777694"><ele>605.2</ele><time>2026-04-10T14:21:17Z</time></trkpt><trkpt lat="42.862834338759576" lon="12.89958059399365"><ele>608.4000000000001</ele><time>2026-04-10T14:21:18Z</time></trkpt><trkpt lat="42.862872385285186" lon="12.899473656034283"><ele>611.5999999999999</ele><time>2026-04-10T14:21:19Z</time></trkpt><trkpt lat="42.86290496483844" lon="12.899370264405373"><ele>614.8</ele><time>2026-04-10T14:21:20Z</time></trkpt><trkpt lat="42.86291110068076" lon="12.899245034470857"><ele>618.0</ele><time>2026-04-10T14:21:21Z</time></trkpt><trkpt lat="42.86291286138743" lon="12.899089143298273"><ele>618.0</ele><time>2026-04-10T14:21:22Z</time></trkpt><trkpt lat="42.86293325360095" lon="12.898940061513043"><ele>618.0</ele><time>2026-04-10T14:21:23Z</time></trkpt><trkpt lat="42.862953977259174" lon="12.898823123162206"><ele>618.0</ele><time>2026-04-10T14:21:24Z</time></trkpt><trkpt lat="42.86296288073286" lon="12.898706255091108"><ele>618.0</ele><time>2026-04-10T14:21:25Z</time></trkpt><trkpt lat="42.8629604865464" lon="12.898581838217579"><ele>618.0</ele><time>2026-04-10T14:21:26Z</time></trkpt><trkpt lat="42.8629559743703" lon="12.898456227732654"><ele>617.8333333333334</ele><time>2026-04-10T14:21:27Z</time></trkpt><trkpt lat="42.862970238430066" lon="12.898354821687535"><ele>617.6666666666666</ele><time>2026-04-10T14:21:28Z</time></trkpt><trkpt lat="42.862988599543804" lon="12.898219553574114"><ele>617.5</ele><time>2026-04-10T14:21:29Z</time></trkpt><trkpt lat="42.86300643660442" lon="12.898118320761478"><ele>617.3333333333333</ele><time>2026-04-10T14:21:30Z</time></trkpt><trkpt lat="42.86302985538841" lon="12.898021326574101"><ele>617.1666666666666</ele><time>2026-04-10T14:21:31Z</time></trkpt><trkpt lat="42.863076733228176" lon="12.897909998991656"><ele>617.0</ele><time>2026-04-10T14:21:32Z</time></trkpt><trkpt lat="42.86310095405337" lon="12.897817840517938"><ele>617.0</ele><time>2026-04-10T14:21:33Z</time></trkpt><trkpt lat="42.86311718471179" lon="12.897650551406882"><ele>617.0</ele><time>2026-04-10T14:21:34Z</time></trkpt><trkpt lat="42.86314652370712" lon="12.897466335199777"><ele>617.0</ele><time>2026-04-10T14:21:35Z</time></trkpt><trkpt lat="42.86316756707202" lon="12.897311399335344"><ele>617.0</ele><time>2026-04-10T14:21:36Z</time></trkpt><trkpt lat="42.86318392789845" lon="12.897165966929686"><ele>617.6</ele><time>2026-04-10T14:21:37Z</time></trkpt><trkpt lat="42.863189619582556" lon="12.897032513676988"><ele>618.2</ele><time>2026-04-10T14:21:38Z</time></trkpt><trkpt lat="42.86320264906675" lon="12.896889474817664"><ele>618.8</ele><time>2026-04-10T14:21:39Z</time></trkpt><trkpt lat="42.86320060348026" lon="12.896779095098598"><ele>619.4</ele><time>2026-04-10T14:21:40Z</time></trkpt><trkpt lat="42.863212534795025" lon="12.896671879089205"><ele>620.0</ele><time>2026-04-10T14:21:41Z</time></trkpt><trkpt lat="42.863243915610944" lon="12.896537361528098"><ele>621.3333333333333</ele><time>2026-04-10T14:21:43Z</time></trkpt><trkpt lat="42.863252753079166" lon="12.896442718559317"><ele>622.6666666666666</ele><time>2026-04-10T14:21:45Z</time></trkpt><trkpt lat="42.86323198659315" lon="12.896290438129176"><ele>624.0</ele><time>2026-04-10T14:21:47Z</time></trkpt><trkpt lat="42.863213778279864" lon="12.896189029556695"><ele>625.3333333333334</ele><time>2026-04-10T14:21:48Z</time></trkpt><trkpt lat="42.86316828779517" lon="12.896039290084143"><ele>626.6666666666667</ele><time>2026-04-10T14:21:50Z</time></trkpt><trkpt lat="42.86314657129374" lon="12.895954238839188"><ele>628.0</ele><time>2026-04-10T14:21:51Z</time></trkpt><trkpt lat="42.863113064792685" lon="12.89587350039655"><ele>630.1999999999999</ele><time>2026-04-10T14:21:52Z</time></trkpt><trkpt lat="42.86307472262677" lon="12.895778015877585"><ele>632.4</ele><time>2026-04-10T14:21:53Z</time></trkpt><trkpt lat="42.863014332096384" lon="12.895648080833995"><ele>634.5999999999999</ele><time>2026-04-10T14:21:55Z</time></trkpt><trkpt lat="42.8629376895446" lon="12.89554834831289"><ele>636.8</ele><time>2026-04-10T14:21:57Z</time></trkpt><trkpt lat="42.86284882283432" lon="12.895485006870874"><ele>639.0</ele><time>2026-04-10T14:21:59Z</time></trkpt><trkpt lat="42.86278364495953" lon="12.895461959296126"><ele>639.0</ele><time>2026-04-10T14:22:00Z</time></trkpt><trkpt lat="42.862713918342685" lon="12.895440982548914"><ele>639.0</ele><time>2026-04-10T14:22:01Z</time></trkpt><trkpt lat="42.8626136992337" lon="12.895423064217086"><ele>639.0</ele><time>2026-04-10T14:22:03Z</time></trkpt><trkpt lat="42.86252647295876" lon="12.89541444947166"><ele>639.0</ele><time>2026-04-10T14:22:05Z</time></trkpt><trkpt lat="42.86241274962275" lon="12.895371235870773"><ele>639.0</ele><time>2026-04-10T14:22:07Z</time></trkpt><trkpt lat="42.86233482858038" lon="12.895302803555223"><ele>639.6666666666666</ele><time>2026-04-10T14:22:09Z</time></trkpt><trkpt lat="42.86229122589368" lon="12.89523856880683"><ele>640.3333333333334</ele><time>2026-04-10T14:22:12Z</time></trkpt><trkpt lat="42.862200060847215" lon="12.89524391427295"><ele>641.0</ele><time>2026-04-10T14:22:15Z</time></trkpt><trkpt lat="42.86214266457159" lon="12.895201860760181"><ele>641.6666666666667</ele><time>2026-04-10T14:22:16Z</time></trkpt><trkpt lat="42.86206650368251" lon="12.895136304794605"><ele>642.3333333333334</ele><time>2026-04-10T14:22:18Z</time></trkpt><trkpt lat="42.86198789435069" lon="12.895083137521745"><ele>643.0</ele><time>2026-04-10T14:22:20Z</time></trkpt><trkpt lat="42.86188490649627" lon="12.895044768947601"><ele>643.0</ele><time>2026-04-10T14:22:22Z</time></trkpt><trkpt lat="42.86181754567672" lon="12.895030230505736"><ele>643.0</ele><time>2026-04-10T14:22:24Z</time></trkpt><trkpt lat="42.8617177410672" lon="12.89492159237983"><ele>643.0</ele><time>2026-04-10T14:22:26Z</time></trkpt><trkpt lat="42.86165818504981" lon="12.894875364341972"><ele>643.0</ele><time>2026-04-10T14:22:27Z</time></trkpt><trkpt lat="42.861586456518125" lon="12.894827593805774"><ele>643.0</ele><time>2026-04-10T14:22:29Z</time></trkpt><trkpt lat="42.861534948652725" lon="12.894729756001976"><ele>643.0</ele><time>2026-04-10T14:22:31Z</time></trkpt><trkpt lat="42.86146065152985" lon="12.894651757624937"><ele>643.2</ele><time>2026-04-10T14:22:33Z</time></trkpt><trkpt lat="42.86140800699981" lon="12.894534040245508"><ele>643.4</ele><time>2026-04-10T14:22:35Z</time></trkpt><trkpt lat="42.861317759150495" lon="12.894436957029047"><ele>643.6</ele><time>2026-04-10T14:22:37Z</time></trkpt><trkpt lat="42.86120594227692" lon="12.894425566181063"><ele>643.8000000000001</ele><time>2026-04-10T14:22:39Z</time></trkpt><trkpt lat="42.861136694502356" lon="12.894337315386487"><ele>644.0</ele><time>2026-04-10T14:22:41Z</time></trkpt><trkpt lat="42.8611262876159" lon="12.894245687550852"><ele>645.1666666666666</ele><time>2026-04-10T14:22:43Z</time></trkpt><trkpt lat="42.86105888785121" lon="12.89422812090022"><ele>646.3333333333333</ele><time>2026-04-10T14:22:45Z</time></trkpt><trkpt lat="42.861013691910856" lon="12.894144613902395"><ele>647.5</ele><time>2026-04-10T14:22:47Z</time></trkpt><trkpt lat="42.860978383808174" lon="12.894033943543734"><ele>648.6666666666666</ele><time>2026-04-10T14:22:49Z</time></trkpt><trkpt lat="42.860894995437896" lon="12.893963034351422"><ele>649.8333333333334</ele><time>2026-04-10T14:22:51Z</time></trkpt><trkpt lat="42.860845501688104" lon="12.893878013257687"><ele>651.0</ele><time>2026-04-10T14:23:42Z</time></trkpt><trkpt lat="42.8607892809933" lon="12.893785804170006"><ele>651.0</ele><time>2026-04-10T14:23:44Z</time></trkpt><trkpt lat="42.86070220781248" lon="12.893798561250737"><ele>651.0</ele><time>2026-04-10T14:23:46Z</time></trkpt><trkpt lat="42.86064668987264" lon="12.893725245221008"><ele>651.0</ele><time>2026-04-10T14:23:48Z</time></trkpt><trkpt lat="42.86052459319389" lon="12.893629261435107"><ele>651.0</ele><time>2026-04-10T14:23:50Z</time></trkpt><trkpt lat="42.86047004997924" lon="12.893569597224161"><ele>651.0</ele><time>2026-04-10T14:23:51Z</time></trkpt><trkpt lat="42.860363903769056" lon="12.893461814040046"><ele>654.8333333333334</ele><time>2026-04-10T14:23:53Z</time></trkpt><trkpt lat="42.86030126997785" lon="12.893394188481116"><ele>658.6666666666666</ele><time>2026-04-10T14:23:54Z</time></trkpt><trkpt lat="42.86026370301639" lon="12.893314050728975"><ele>662.5</ele><time>2026-04-10T14:23:55Z</time></trkpt><trkpt lat="42.86022221902338" lon="12.893244385423252"><ele>666.3333333333333</ele><time>2026-04-10T14:23:56Z</time></trkpt><trkpt lat="42.86017425806295" lon="12.893126328760095"><ele>670.1666666666666</ele><time>2026-04-10T14:23:59Z</time></trkpt><trkpt lat="42.86014960922158" lon="12.893012288582844"><ele>674.0</ele><time>2026-04-10T14:24:03Z</time></trkpt><trkpt lat="42.86016188847392" lon="12.892883663700115"><ele>674.0</ele><time>2026-04-10T14:24:05Z</time></trkpt><trkpt lat="42.86015321571611" lon="12.89279533197376"><ele>674.0</ele><time>2026-04-10T14:24:07Z</time></trkpt><trkpt lat="42.86010331538645" lon="12.892708624039667"><ele>674.0</ele><time>2026-04-10T14:24:09Z</time></trkpt><trkpt lat="42.860052819278614" lon="12.892629311254884"><ele>674.0</ele><time>2026-04-10T14:24:11Z</time></trkpt><trkpt lat="42.860009607710886" lon="12.892552569779856"><ele>674.0</ele><time>2026-04-10T14:24:13Z</time></trkpt><trkpt lat="42.85995978498601" lon="12.892452282274812"><ele>674.0</ele><time>2026-04-10T14:24:15Z</time></trkpt><trkpt lat="42.85991934409529" lon="12.892343602360269"><ele>673.8333333333333</ele><time>2026-04-10T14:24:17Z</time></trkpt><trkpt lat="42.85986142012436" lon="12.89226240127883"><ele>673.6666666666666</ele><time>2026-04-10T14:24:19Z</time></trkpt><trkpt lat="42.85976186127393" lon="12.892231305528897"><ele>673.5</ele><time>2026-04-10T14:24:21Z</time></trkpt><trkpt lat="42.85970584108179" lon="12.892176324044886"><ele>673.3333333333334</ele><time>2026-04-10T14:24:23Z</time></trkpt><trkpt lat="42.85967511929363" lon="12.892068847929018"><ele>673.1666666666667</ele><time>2026-04-10T14:24:25Z</time></trkpt><trkpt lat="42.85961209574174" lon="12.892028316949375"><ele>673.0</ele><time>2026-04-10T14:24:27Z</time></trkpt><trkpt lat="42.85951136146154" lon="12.891969972483816"><ele>673.0</ele><time>2026-04-10T14:24:29Z</time></trkpt><trkpt lat="42.85946513899347" lon="12.891865656532142"><ele>673.0</ele><time>2026-04-10T14:24:31Z</time></trkpt><trkpt lat="42.85939817716382" lon="12.891765214870553"><ele>673.0</ele><time>2026-04-10T14:24:33Z</time></trkpt><trkpt lat="42.859304717249785" lon="12.89169605599587"><ele>673.0</ele><time>2026-04-10T14:24:35Z</time></trkpt><trkpt lat="42.85924392154602" lon="12.891659914491846"><ele>673.0</ele><time>2026-04-10T14:24:36Z</time></trkpt><trkpt lat="42.859170323157564" lon="12.891591361513932"><ele>673.1666666666667</ele><time>2026-04-10T14:24:38Z</time></trkpt><trkpt lat="42.859097761552796" lon="12.891533504154458"><ele>673.3333333333334</ele><time>2026-04-10T14:24:41Z</time></trkpt><trkpt lat="42.859027388284545" lon="12.891460029554674"><ele>673.5</ele><time>2026-04-10T14:24:43Z</time></trkpt><trkpt lat="42.85896567579928" lon="12.891336247717236"><ele>673.6666666666666</ele><time>2026-04-10T14:24:45Z</time></trkpt><trkpt lat="42.858962282521766" lon="12.891226513387508"><ele>673.8333333333333</ele><time>2026-04-10T14:24:47Z</time></trkpt><trkpt lat="42.85889938690912" lon="12.891180979291686"><ele>674.0</ele><time>2026-04-10T14:24:50Z</time></trkpt><trkpt lat="42.85882853912133" lon="12.89111530793007"><ele>674.0</ele><time>2026-04-10T14:24:52Z</time></trkpt><trkpt lat="42.858813289443425" lon="12.890971919217613"><ele>674.0</ele><time>2026-04-10T14:24:54Z</time></trkpt><trkpt lat="42.858788882065994" lon="12.890886684042222"><ele>674.0</ele><time>2026-04-10T14:24:55Z</time></trkpt><trkpt lat="42.858735042774406" lon="12.89076011277917"><ele>674.0</ele><time>2026-04-10T14:24:57Z</time></trkpt><trkpt lat="42.858666771934566" lon="12.890698206592358"><ele>674.0</ele><time>2026-04-10T14:24:59Z</time></trkpt><trkpt lat="42.85861686526436" lon="12.89061809615136"><ele>674.0</ele><time>2026-04-10T14:25:53Z</time></trkpt><trkpt lat="42.8585822455539" lon="12.890482920272788"><ele>674.8000000000001</ele><time>2026-04-10T14:25:57Z</time></trkpt><trkpt lat="42.85856905725879" lon="12.8903536577055"><ele>675.6</ele><time>2026-04-10T14:25:59Z</time></trkpt><trkpt lat="42.85853092567724" lon="12.89022417092905"><ele>676.4</ele><time>2026-04-10T14:26:01Z</time></trkpt><trkpt lat="42.85854535580024" lon="12.890105135538967"><ele>677.2</ele><time>2026-04-10T14:26:12Z</time></trkpt><trkpt lat="42.85850537320637" lon="12.890011098857151"><ele>678.0</ele><time>2026-04-10T14:26:15Z</time></trkpt><trkpt lat="42.858424237915266" lon="12.889947367928302"><ele>678.0</ele><time>2026-04-10T14:26:17Z</time></trkpt><trkpt lat="42.85837394339309" lon="12.88986444455206"><ele>678.0</ele><time>2026-04-10T14:26:48Z</time></trkpt><trkpt lat="42.858328982440575" lon="12.88979642491849"><ele>678.0</ele><time>2026-04-10T14:27:14Z</time></trkpt><trkpt lat="42.85837202803792" lon="12.88986870211776"><ele>678.0</ele><time>2026-04-10T14:27:32Z</time></trkpt><trkpt lat="42.85844252232026" lon="12.889967518098846"><ele>678.0</ele><time>2026-04-10T14:27:35Z</time></trkpt><trkpt lat="42.85850882581392" lon="12.890038172345795"><ele>678.0</ele><time>2026-04-10T14:27:37Z</time></trkpt><trkpt lat="42.85856539946037" lon="12.8901251052887"><ele>679.5999999999999</ele><time>2026-04-10T14:27:39Z</time></trkpt><trkpt lat="42.85863497311976" lon="12.89006150924274"><ele>681.1999999999999</ele><time>2026-04-10T14:27:47Z</time></trkpt><trkpt lat="42.85858176552995" lon="12.889961773676285"><ele>682.8</ele><time>2026-04-10T14:27:50Z</time></trkpt><trkpt lat="42.85849889835265" lon="12.889874234778047"><ele>684.4</ele><time>2026-04-10T14:27:52Z</time></trkpt><trkpt lat="42.85840029046901" lon="12.889775566318741"><ele>686.0</ele><time>2026-04-10T14:27:54Z</time></trkpt><trkpt lat="42.858326063428215" lon="12.88972013567938"><ele>686.4</ele><time>2026-04-10T14:27:56Z</time></trkpt><trkpt lat="42.85823759992843" lon="12.889685878909672"><ele>686.8</ele><time>2026-04-10T14:27:58Z</time></trkpt><trkpt lat="42.85813525916786" lon="12.889599707426145"><ele>687.1999999999999</ele><time>2026-04-10T14:28:00Z</time></trkpt><trkpt lat="42.858065270251736" lon="12.889554668374624"><ele>687.5999999999999</ele><time>2026-04-10T14:28:01Z</time></trkpt><trkpt lat="42.857986864603234" lon="12.88947918274995"><ele>688.0</ele><time>2026-04-10T14:28:02Z</time></trkpt><trkpt lat="42.857912910612036" lon="12.889421133074393"><ele>688.0</ele><time>2026-04-10T14:28:03Z</time></trkpt><trkpt lat="42.85781802937898" lon="12.889380089673221"><ele>688.0</ele><time>2026-04-10T14:28:04Z</time></trkpt><trkpt lat="42.85773971446166" lon="12.889353078108877"><ele>688.0</ele><time>2026-04-10T14:28:05Z</time></trkpt><trkpt lat="42.85766211766854" lon="12.889302516990323"><ele>688.0</ele><time>2026-04-10T14:28:07Z</time></trkpt><trkpt lat="42.857599849852456" lon="12.889253485518498"><ele>688.0</ele><time>2026-04-10T14:28:15Z</time></trkpt><trkpt lat="42.85752886681891" lon="12.889185516761664"><ele>688.0</ele><time>2026-04-10T14:28:17Z</time></trkpt><trkpt lat="42.85744042142581" lon="12.889124054198664"><ele>690.1666666666667</ele><time>2026-04-10T14:28:19Z</time></trkpt><trkpt lat="42.85735805667065" lon="12.889078110435653"><ele>692.3333333333334</ele><time>2026-04-10T14:28:21Z</time></trkpt><trkpt lat="42.85731058472723" lon="12.889020248173791"><ele>694.5</ele><time>2026-04-10T14:28:23Z</time></trkpt><trkpt lat="42.85724304190787" lon="12.888944040710582"><ele>696.6666666666666</ele><time>2026-04-10T14:28:26Z</time></trkpt><trkpt lat="42.85718985546036" lon="12.888872827443103"><ele>698.8333333333333</ele><time>2026-04-10T14:28:29Z</time></trkpt><trkpt lat="42.857162708154284" lon="12.888762881527567"><ele>701.0</ele><time>2026-04-10T14:28:31Z</time></trkpt><trkpt lat="42.85711916213765" lon="12.888687435486538"><ele>701.0</ele><time>2026-04-10T14:28:33Z</time></trkpt><trkpt lat="42.85704256205523" lon="12.88867248500037"><ele>701.0</ele><time>2026-04-10T14:28:41Z</time></trkpt><trkpt lat="42.85695850844033" lon="12.888662916924389"><ele>701.0</ele><time>2026-04-10T14:28:43Z</time></trkpt><trkpt lat="42.85687425025169" lon="12.888664901662802"><ele>701.0</ele><time>2026-04-10T14:29:30Z</time></trkpt><trkpt lat="42.856801742805835" lon="12.888661147211103"><ele>701.0</ele><time>2026-04-10T14:29:43Z</time></trkpt><trkpt lat="42.85672716147975" lon="12.888630125951563"><ele>701.0</ele><time>2026-04-10T14:29:46Z</time></trkpt><trkpt lat="42.85666138943374" lon="12.888547118880759"><ele>703.1999999999999</ele><time>2026-04-10T14:29:48Z</time></trkpt><trkpt lat="42.856568587527306" lon="12.8884891133478"><ele>705.4</ele><time>2026-04-10T14:29:50Z</time></trkpt><trkpt lat="42.85648491047973" lon="12.888385668952585"><ele>707.6</ele><time>2026-04-10T14:29:52Z</time></trkpt><trkpt lat="42.85636568032914" lon="12.888281639582376"><ele>709.8</ele><time>2026-04-10T14:29:54Z</time></trkpt><trkpt lat="42.85629333026619" lon="12.888234703131294"><ele>712.0</ele><time>2026-04-10T14:29:55Z</time></trkpt><trkpt lat="42.856211911222935" lon="12.888186506701583"><ele>712.0</ele><time>2026-04-10T14:29:56Z</time></trkpt><trkpt lat="42.85614077989969" lon="12.888134887208558"><ele>712.0</ele><time>2026-04-10T14:29:57Z</time></trkpt><trkpt lat="42.85607849015838" lon="12.888102506410393"><ele>712.0</ele><time>2026-04-10T14:29:58Z</time></trkpt><trkpt lat="42.85598188397468" lon="12.88816559982234"><ele>712.0</ele><time>2026-04-10T14:30:00Z</time></trkpt><trkpt lat="42.855939535474796" lon="12.888232693924534"><ele>712.0</ele><time>2026-04-10T14:30:01Z</time></trkpt><trkpt lat="42.85585839852095" lon="12.888324412617077"><ele>712.0</ele><time>2026-04-10T14:30:02Z</time></trkpt><trkpt lat="42.855786745110954" lon="12.888352513464811"><ele>714.3333333333334</ele><time>2026-04-10T14:30:03Z</time></trkpt><trkpt lat="42.85569891768254" lon="12.888361172745372"><ele>716.6666666666667</ele><time>2026-04-10T14:31:20Z</time></trkpt><trkpt lat="42.85562206383213" lon="12.888398854009639"><ele>719.0</ele><time>2026-04-10T14:31:25Z</time></trkpt><trkpt lat="42.8555595382062" lon="12.888433209582075"><ele>721.3333333333334</ele><time>2026-04-10T14:31:27Z</time></trkpt><trkpt lat="42.85547226217843" lon="12.888375384577872"><ele>723.6666666666666</ele><time>2026-04-10T14:31:29Z</time></trkpt><trkpt lat="42.855357892877784" lon="12.88835829332432"><ele>726.0</ele><time>2026-04-10T14:31:31Z</time></trkpt><trkpt lat="42.855223448534794" lon="12.888350516904364"><ele>728.4</ele><time>2026-04-10T14:31:33Z</time></trkpt><trkpt lat="42.85510790546693" lon="12.888317073786123"><ele>730.8</ele><time>2026-04-10T14:31:35Z</time></trkpt><trkpt lat="42.854977066790305" lon="12.888232612834495"><ele>733.1999999999999</ele><time>2026-04-10T14:31:37Z</time></trkpt><trkpt lat="42.85489631986576" lon="12.888197910876388"><ele>735.5999999999999</ele><time>2026-04-10T14:31:38Z</time></trkpt><trkpt lat="42.85480746923835" lon="12.888150649727486"><ele>738.0</ele><time>2026-04-10T14:31:39Z</time></trkpt><trkpt lat="42.85474088245329" lon="12.888115814937857"><ele>738.0</ele><time>2026-04-10T14:31:40Z</time></trkpt><trkpt lat="42.85466691857098" lon="12.888117354437025"><ele>738.0</ele><time>2026-04-10T14:31:41Z</time></trkpt><trkpt lat="42.85459680447232" lon="12.888153158659408"><ele>738.0</ele><time>2026-04-10T14:31:42Z</time></trkpt><trkpt lat="42.854508710329064" lon="12.88816726962817"><ele>738.0</ele><time>2026-04-10T14:31:43Z</time></trkpt><trkpt lat="42.854414952903035" lon="12.888179165536382"><ele>738.0</ele><time>2026-04-10T14:31:44Z</time></trkpt><trkpt lat="42.854349638315384" lon="12.888162512889963"><ele>738.0</ele><time>2026-04-10T14:31:45Z</time></trkpt><trkpt lat="42.85429426579613" lon="12.888121207049698"><ele>741.8</ele><time>2026-04-10T14:31:46Z</time></trkpt><trkpt lat="42.85421474504343" lon="12.888048524139938"><ele>745.5999999999999</ele><time>2026-04-10T14:31:47Z</time></trkpt><trkpt lat="42.854113553881746" lon="12.8879955821403"><ele>749.4000000000001</ele><time>2026-04-10T14:31:48Z</time></trkpt><trkpt lat="42.85402923969161" lon="12.887954242241735"><ele>753.2</ele><time>2026-04-10T14:31:49Z</time></trkpt><trkpt lat="42.85390797522378" lon="12.887924066879535"><ele>757.0</ele><time>2026-04-10T14:31:51Z</time></trkpt><trkpt lat="42.853844683079664" lon="12.88788322582289"><ele>757.0</ele><time>2026-04-10T14:31:52Z</time></trkpt><trkpt lat="42.853780412819845" lon="12.887860558990518"><ele>757.0</ele><time>2026-04-10T14:31:53Z</time></trkpt><trkpt lat="42.853670723893565" lon="12.887747675827077"><ele>757.0</ele><time>2026-04-10T14:31:55Z</time></trkpt><trkpt lat="42.853600731506695" lon="12.887664786636805"><ele>757.0</ele><time>2026-04-10T14:31:56Z</time></trkpt><trkpt lat="42.85351985192066" lon="12.88757677028621"><ele>757.0</ele><time>2026-04-10T14:31:57Z</time></trkpt><trkpt lat="42.85345338092089" lon="12.887531627445101"><ele>758.8</ele><time>2026-04-10T14:31:58Z</time></trkpt><trkpt lat="42.853361983116876" lon="12.88747071582447"><ele>760.6</ele><time>2026-04-10T14:32:00Z</time></trkpt><trkpt lat="42.85331066653625" lon="12.887416151846871"><ele>762.4</ele><time>2026-04-10T14:32:01Z</time></trkpt><trkpt lat="42.85323943386049" lon="12.887291210939171"><ele>764.1999999999999</ele><time>2026-04-10T14:32:03Z</time></trkpt><trkpt lat="42.853210046139125" lon="12.887213540939953"><ele>766.0</ele><time>2026-04-10T14:32:04Z</time></trkpt><trkpt lat="42.85314646555658" lon="12.88708341819586"><ele>766.0</ele><time>2026-04-10T14:32:06Z</time></trkpt><trkpt lat="42.85308422459171" lon="12.8869778160916"><ele>766.0</ele><time>2026-04-10T14:32:08Z</time></trkpt><trkpt lat="42.85301926712192" lon="12.886948053178303"><ele>766.0</ele><time>2026-04-10T14:32:09Z</time></trkpt><trkpt lat="42.852950493741" lon="12.886915175798107"><ele>766.0</ele><time>2026-04-10T14:32:10Z</time></trkpt><trkpt lat="42.85288047553814" lon="12.886893471549719"><ele>766.0</ele><time>2026-04-10T14:32:11Z</time></trkpt><trkpt lat="42.85279409681136" lon="12.886852959375846"><ele>766.0</ele><time>2026-04-10T14:32:12Z</time></trkpt><trkpt lat="42.8526873517839" lon="12.886803789978792"><ele>768.8</ele><time>2026-04-10T14:32:14Z</time></trkpt><trkpt lat="42.85258092250764" lon="12.886736909630361"><ele>771.5999999999999</ele><time>2026-04-10T14:32:16Z</time></trkpt><trkpt lat="42.85254023265761" lon="12.886667198411436"><ele>774.4</ele><time>2026-04-10T14:32:17Z</time></trkpt><trkpt lat="42.85249785942978" lon="12.886509522758834"><ele>777.2</ele><time>2026-04-10T14:32:19Z</time></trkpt><trkpt lat="42.85248813803429" lon="12.886347924473133"><ele>780.0</ele><time>2026-04-10T14:32:21Z</time></trkpt><trkpt lat="42.85249294880714" lon="12.886230604781696"><ele>780.0</ele><time>2026-04-10T14:32:23Z</time></trkpt><trkpt lat="42.85240048581585" lon="12.886207296078922"><ele>780.0</ele><time>2026-04-10T14:32:25Z</time></trkpt><trkpt lat="42.85227656849644" lon="12.886188369308018"><ele>780.0</ele><time>2026-04-10T14:32:27Z</time></trkpt><trkpt lat="42.85220234212299" lon="12.886136439100072"><ele>780.0</ele><time>2026-04-10T14:32:29Z</time></trkpt><trkpt lat="42.85213175744517" lon="12.886130495567958"><ele>780.0</ele><time>2026-04-10T14:32:30Z</time></trkpt><trkpt lat="42.852040694476294" lon="12.886103730682095"><ele>780.0</ele><time>2026-04-10T14:32:32Z</time></trkpt><trkpt lat="42.85197953897131" lon="12.886130217353784"><ele>780.0</ele><time>2026-04-10T14:32:34Z</time></trkpt><trkpt lat="42.851876593687685" lon="12.886118239230681"><ele>780.0</ele><time>2026-04-10T14:32:35Z</time></trkpt><trkpt lat="42.85180040059229" lon="12.88614029598643"><ele>780.0</ele><time>2026-04-10T14:32:36Z</time></trkpt><trkpt lat="42.85169552086282" lon="12.886102535655708"><ele>780.0</ele><time>2026-04-10T14:32:38Z</time></trkpt><trkpt lat="42.851590969194895" lon="12.886017678628475"><ele>784.8333333333334</ele><time>2026-04-10T14:32:40Z</time></trkpt><trkpt lat="42.85148191989343" lon="12.885983199574293"><ele>789.6666666666667</ele><time>2026-04-10T14:32:42Z</time></trkpt><trkpt lat="42.85141400629559" lon="12.885931629671772"><ele>794.5</ele><time>2026-04-10T14:32:44Z</time></trkpt><trkpt lat="42.85133059880403" lon="12.885968305879695"><ele>799.3333333333334</ele><time>2026-04-10T14:32:46Z</time></trkpt><trkpt lat="42.851252009830674" lon="12.88601196756659"><ele>804.1666666666667</ele><time>2026-04-10T14:32:48Z</time></trkpt><trkpt lat="42.85118590810542" lon="12.88598025332228"><ele>809.0</ele><time>2026-04-10T14:32:49Z</time></trkpt><trkpt lat="42.85111621353888" lon="12.885962255311986"><ele>809.0000000000001</ele><time>2026-04-10T14:32:50Z</time></trkpt><trkpt lat="42.85105102599956" lon="12.885956460678289"><ele>809.0</ele><time>2026-04-10T14:32:52Z</time></trkpt><trkpt lat="42.85099999259893" lon="12.885842281093504"><ele>809.0</ele><time>2026-04-10T14:32:56Z</time></trkpt><trkpt lat="42.850987749084666" lon="12.885756891300147"><ele>809.0</ele><time>2026-04-10T14:32:57Z</time></trkpt><trkpt lat="42.85095850385982" lon="12.885676802410616"><ele>809.0000000000001</ele><time>2026-04-10T14:32:58Z</time></trkpt><trkpt lat="42.85086066657623" lon="12.885567788021222"><ele>809.0</ele><time>2026-04-10T14:33:00Z</time></trkpt><trkpt lat="42.85080300410502" lon="12.885489385596383"><ele>809.5000000000001</ele><time>2026-04-10T14:33:01Z</time></trkpt><trkpt lat="42.850714621692525" lon="12.885414013647408"><ele>810.0</ele><time>2026-04-10T14:33:03Z</time></trkpt><trkpt lat="42.850625991469734" lon="12.885402001514047"><ele>810.5</ele><time>2026-04-10T14:33:04Z</time></trkpt><trkpt lat="42.850556369065835" lon="12.885400739632704"><ele>811.0</ele><time>2026-04-10T14:33:05Z</time></trkpt><trkpt lat="42.850477734288646" lon="12.885377767446576"><ele>811.5000000000001</ele><time>2026-04-10T14:33:06Z</time></trkpt><trkpt lat="42.85040535576507" lon="12.8853634966035"><ele>812.0</ele><time>2026-04-10T14:33:07Z</time></trkpt><trkpt lat="42.85032363927225" lon="12.885341243997814"><ele>812.0000000000001</ele><time>2026-04-10T14:33:08Z</time></trkpt><trkpt lat="42.85023648575145" lon="12.885292431601297"><ele>812.0</ele><time>2026-04-10T14:33:09Z</time></trkpt><trkpt lat="42.85015494632444" lon="12.885218714608012"><ele>812.0</ele><time>2026-04-10T14:33:10Z</time></trkpt><trkpt lat="42.8500891684398" lon="12.885140676039198"><ele>812.0</ele><time>2026-04-10T14:33:11Z</time></trkpt><trkpt lat="42.85003711313816" lon="12.885064533621062"><ele>812.0000000000001</ele><time>2026-04-10T14:33:12Z</time></trkpt><trkpt lat="42.84998512273918" lon="12.884987906989341"><ele>812.0</ele><time>2026-04-10T14:33:13Z</time></trkpt><trkpt lat="42.849909808568626" lon="12.884880682638036"><ele>814.6</ele><time>2026-04-10T14:33:15Z</time></trkpt><trkpt lat="42.84982698499683" lon="12.884764091223188"><ele>817.2</ele><time>2026-04-10T14:33:17Z</time></trkpt><trkpt lat="42.84974986436847" lon="12.88465945146272"><ele>819.8</ele><time>2026-04-10T14:33:19Z</time></trkpt><trkpt lat="42.849712908083326" lon="12.884574412027039"><ele>822.4</ele><time>2026-04-10T14:33:20Z</time></trkpt><trkpt lat="42.849673215409865" lon="12.884485538032553"><ele>825.0</ele><time>2026-04-10T14:33:21Z</time></trkpt><trkpt lat="42.84963908424751" lon="12.884392941473482"><ele>825.0</ele><time>2026-04-10T14:33:22Z</time></trkpt><trkpt lat="42.849612815966225" lon="12.884312020535463"><ele>825.0</ele><time>2026-04-10T14:33:23Z</time></trkpt><trkpt lat="42.8495876074443" lon="12.88422880776411"><ele>825.0</ele><time>2026-04-10T14:33:24Z</time></trkpt><trkpt lat="42.849574362696664" lon="12.884124650602807"><ele>825.0</ele><time>2026-04-10T14:33:26Z</time></trkpt><trkpt lat="42.84951870368675" lon="12.883973900159292"><ele>825.0</ele><time>2026-04-10T14:33:28Z</time></trkpt><trkpt lat="42.84948305201232" lon="12.883872579305674"><ele>825.0</ele><time>2026-04-10T14:33:29Z</time></trkpt><trkpt lat="42.84940669932798" lon="12.883756078705145"><ele>826.0</ele><time>2026-04-10T14:33:31Z</time></trkpt><trkpt lat="42.8493718879128" lon="12.883656266919898"><ele>827.0</ele><time>2026-04-10T14:33:32Z</time></trkpt><trkpt lat="42.849344723901154" lon="12.883569291178985"><ele>828.0</ele><time>2026-04-10T14:33:33Z</time></trkpt><trkpt lat="42.84930808555768" lon="12.883485147060629"><ele>829.0</ele><time>2026-04-10T14:33:34Z</time></trkpt><trkpt lat="42.849226917271515" lon="12.883325243849793"><ele>830.0</ele><time>2026-04-10T14:33:36Z</time></trkpt><trkpt lat="42.84917499361458" lon="12.883263561709292"><ele>831.0</ele><time>2026-04-10T14:33:37Z</time></trkpt><trkpt lat="42.84915714753085" lon="12.883166212537217"><ele>835.0</ele><time>2026-04-10T14:33:39Z</time></trkpt><trkpt lat="42.849159603760015" lon="12.88307562469248"><ele>839.0</ele><time>2026-04-10T14:33:41Z</time></trkpt><trkpt lat="42.84914738976532" lon="12.882960843412102"><ele>843.0</ele><time>2026-04-10T14:33:43Z</time></trkpt><trkpt lat="42.849141941462676" lon="12.882854447391257"><ele>847.0</ele><time>2026-04-10T14:33:46Z</time></trkpt><trkpt lat="42.84917118320615" lon="12.882761557132623"><ele>851.0</ele><time>2026-04-10T14:33:48Z</time></trkpt><trkpt lat="42.84911290380381" lon="12.88261244092986"><ele>855.0</ele><time>2026-04-10T14:33:50Z</time></trkpt><trkpt lat="42.84904031077328" lon="12.88257035217043"><ele>855.0</ele><time>2026-04-10T14:33:52Z</time></trkpt><trkpt lat="42.848984997330035" lon="12.882517602350136"><ele>855.0</ele><time>2026-04-10T14:33:54Z</time></trkpt><trkpt lat="42.84893749627041" lon="12.882447070472645"><ele>855.0</ele><time>2026-04-10T14:33:56Z</time></trkpt><trkpt lat="42.84888287725208" lon="12.882349904570681"><ele>855.0</ele><time>2026-04-10T14:33:59Z</time></trkpt><trkpt lat="42.848900882456654" lon="12.882177758099226"><ele>855.0</ele><time>2026-04-10T14:34:01Z</time></trkpt><trkpt lat="42.84888512036995" lon="12.882025237722065"><ele>855.0</ele><time>2026-04-10T14:34:03Z</time></trkpt><trkpt lat="42.84889126477114" lon="12.881929093159155"><ele>855.0</ele><time>2026-04-10T14:34:04Z</time></trkpt><trkpt lat="42.84889192233691" lon="12.881822675788603"><ele>855.0</ele><time>2026-04-10T14:34:05Z</time></trkpt><trkpt lat="42.84887679630808" lon="12.881730625321689"><ele>855.0</ele><time>2026-04-10T14:34:06Z</time></trkpt><trkpt lat="42.84887187254112" lon="12.88158940632256"><ele>855.0</ele><time>2026-04-10T14:34:08Z</time></trkpt><trkpt lat="42.84894775749766" lon="12.881432844825934"><ele>857.1666666666666</ele><time>2026-04-10T14:34:10Z</time></trkpt><trkpt lat="42.8489577059403" lon="12.88133802470417"><ele>859.3333333333333</ele><time>2026-04-10T14:34:11Z</time></trkpt><trkpt lat="42.848961785949314" lon="12.881235217542473"><ele>861.5</ele><time>2026-04-10T14:34:12Z</time></trkpt><trkpt lat="42.848972560205645" lon="12.881129516384158"><ele>863.6666666666666</ele><time>2026-04-10T14:34:13Z</time></trkpt><trkpt lat="42.84899452162917" lon="12.881026476662397"><ele>865.8333333333333</ele><time>2026-04-10T14:34:14Z</time></trkpt><trkpt lat="42.848980241060914" lon="12.880884730019769"><ele>868.0</ele><time>2026-04-10T14:34:17Z</time></trkpt><trkpt lat="42.84891493633388" lon="12.880804829435611"><ele>870.4999999999999</ele><time>2026-04-10T14:34:19Z</time></trkpt><trkpt lat="42.84885777688337" lon="12.880693011692303"><ele>873.0</ele><time>2026-04-10T14:34:21Z</time></trkpt><trkpt lat="42.84878783225784" lon="12.880649548680532"><ele>875.5</ele><time>2026-04-10T14:34:23Z</time></trkpt><trkpt lat="42.848736244593695" lon="12.880590217282197"><ele>878.0</ele><time>2026-04-10T14:34:25Z</time></trkpt><trkpt lat="42.848705898282574" lon="12.880506569872036"><ele>880.4999999999999</ele><time>2026-04-10T14:41:01Z</time></trkpt><trkpt lat="42.84874185437184" lon="12.880579856288588"><ele>883.0</ele><time>2026-04-10T14:56:59Z</time></trkpt><trkpt lat="42.848802654402604" lon="12.880639749518275"><ele>883.0</ele><time>2026-04-10T14:57:02Z</time></trkpt><trkpt lat="42.848907883579614" lon="12.880682393010185"><ele>883.0</ele><time>2026-04-10T14:57:05Z</time></trkpt><trkpt lat="42.84895502102602" lon="12.880806272713244"><ele>883.0</ele><time>2026-04-10T14:57:07Z</time></trkpt><trkpt lat="42.849014306927955" lon="12.880922156608678"><ele>883.0</ele><time>2026-04-10T14:57:09Z</time></trkpt><trkpt lat="42.84902320468356" lon="12.881021235216492"><ele>883.0</ele><time>2026-04-10T14:57:11Z</time></trkpt><trkpt lat="42.84899201094787" lon="12.881130972480861"><ele>880.0</ele><time>2026-04-10T14:57:13Z</time></trkpt><trkpt lat="42.84896843117973" lon="12.881283455422656"><ele>877.0</ele><time>2026-04-10T14:57:15Z</time></trkpt><trkpt lat="42.84893514811362" lon="12.881414609061759"><ele>874.0</ele><time>2026-04-10T14:57:17Z</time></trkpt><trkpt lat="42.84891672440793" lon="12.881548071387655"><ele>871.0</ele><time>2026-04-10T14:57:19Z</time></trkpt><trkpt lat="42.84887525703198" lon="12.881668687917918"><ele>868.0</ele><time>2026-04-10T14:57:21Z</time></trkpt><trkpt lat="42.848890347809736" lon="12.88175937310241"><ele>865.8333333333333</ele><time>2026-04-10T14:57:22Z</time></trkpt><trkpt lat="42.84891539603509" lon="12.881910846707935"><ele>863.6666666666666</ele><time>2026-04-10T14:57:24Z</time></trkpt><trkpt lat="42.84891526064666" lon="12.881998100581848"><ele>861.5</ele><time>2026-04-10T14:57:25Z</time></trkpt><trkpt lat="42.84890196385204" lon="12.88216237758381"><ele>859.3333333333333</ele><time>2026-04-10T14:57:27Z</time></trkpt><trkpt lat="42.84890397047769" lon="12.882251360718087"><ele>857.1666666666666</ele><time>2026-04-10T14:57:28Z</time></trkpt><trkpt lat="42.84890742006941" lon="12.88235127022204"><ele>855.0</ele><time>2026-04-10T14:57:29Z</time></trkpt><trkpt lat="42.848940647413606" lon="12.882505537323064"><ele>855.0</ele><time>2026-04-10T14:57:31Z</time></trkpt><trkpt lat="42.849027412842474" lon="12.882516205791607"><ele>855.0</ele><time>2026-04-10T14:57:36Z</time></trkpt><trkpt lat="42.84909085128497" lon="12.88254470998337"><ele>855.0</ele><time>2026-04-10T14:57:38Z</time></trkpt><trkpt lat="42.84916246520786" lon="12.882649806686663"><ele>855.0</ele><time>2026-04-10T14:57:40Z</time></trkpt><trkpt lat="42.84917910692367" lon="12.88277241291151"><ele>855.0</ele><time>2026-04-10T14:57:42Z</time></trkpt><trkpt lat="42.84913911537967" lon="12.882843925652413"><ele>855.0</ele><time>2026-04-10T14:57:44Z</time></trkpt><trkpt lat="42.849124273794004" lon="12.882928706625066"><ele>855.0</ele><time>2026-04-10T14:57:46Z</time></trkpt><trkpt lat="42.849168666798406" lon="12.88301557957122"><ele>855.0</ele><time>2026-04-10T14:57:48Z</time></trkpt><trkpt lat="42.84915291912286" lon="12.883128765364475"><ele>855.0</ele><time>2026-04-10T14:57:50Z</time></trkpt><trkpt lat="42.849188414949424" lon="12.883250818826404"><ele>855.0</ele><time>2026-04-10T14:57:52Z</time></trkpt><trkpt lat="42.849275892784384" lon="12.883369497802796"><ele>855.0</ele><time>2026-04-10T14:57:54Z</time></trkpt><trkpt lat="42.84934795133115" lon="12.88351383758855"><ele>851.0</ele><time>2026-04-10T14:57:56Z</time></trkpt><trkpt lat="42.84938325916192" lon="12.883586374954767"><ele>847.0</ele><time>2026-04-10T14:57:57Z</time></trkpt><trkpt lat="42.84941164852465" lon="12.8836634458694"><ele>843.0</ele><time>2026-04-10T14:57:58Z</time></trkpt><trkpt lat="42.84943397118648" lon="12.88374639724013"><ele>839.0</ele><time>2026-04-10T14:57:59Z</time></trkpt><trkpt lat="42.849497399245244" lon="12.883868719987898"><ele>835.0</ele><time>2026-04-10T14:58:01Z</time></trkpt><trkpt lat="42.84956982507065" lon="12.883982785105381"><ele>831.0</ele><time>2026-04-10T14:58:03Z</time></trkpt><trkpt lat="42.84959980028708" lon="12.884142387451998"><ele>829.5</ele><time>2026-04-10T14:58:05Z</time></trkpt><trkpt lat="42.84965112431846" lon="12.884296566043524"><ele>828.0</ele><time>2026-04-10T14:58:07Z</time></trkpt><trkpt lat="42.84968894574746" lon="12.884464287449662"><ele>826.5</ele><time>2026-04-10T14:58:09Z</time></trkpt><trkpt lat="42.84975729219124" lon="12.884603718056603"><ele>825.0</ele><time>2026-04-10T14:58:11Z</time></trkpt><trkpt lat="42.84984023584978" lon="12.884730415638131"><ele>825.0</ele><time>2026-04-10T14:58:13Z</time></trkpt><trkpt lat="42.849942864486025" lon="12.884843747163904"><ele>825.0</ele><time>2026-04-10T14:58:15Z</time></trkpt><trkpt lat="42.849988917919774" lon="12.88492114994264"><ele>825.0</ele><time>2026-04-10T14:58:16Z</time></trkpt><trkpt lat="42.850059149062346" lon="12.885036381403355"><ele>825.0</ele><time>2026-04-10T14:58:18Z</time></trkpt><trkpt lat="42.85012595067655" lon="12.885154761203115"><ele>825.0</ele><time>2026-04-10T14:58:20Z</time></trkpt><trkpt lat="42.85017982783933" lon="12.885205027075312"><ele>822.4</ele><time>2026-04-10T14:58:21Z</time></trkpt><trkpt lat="42.85028241218838" lon="12.885289525449336"><ele>819.8</ele><time>2026-04-10T14:58:23Z</time></trkpt><trkpt lat="42.85034638291354" lon="12.885325405273463"><ele>817.2</ele><time>2026-04-10T14:58:24Z</time></trkpt><trkpt lat="42.85048700157799" lon="12.885380521716305"><ele>814.6</ele><time>2026-04-10T14:58:26Z</time></trkpt><trkpt lat="42.85055382308055" lon="12.885376163797986"><ele>812.0</ele><time>2026-04-10T14:58:27Z</time></trkpt><trkpt lat="42.85064729740311" lon="12.885380978508913"><ele>812.0000000000001</ele><time>2026-04-10T14:58:29Z</time></trkpt><trkpt lat="42.850755538606286" lon="12.885421131063186"><ele>812.0</ele><time>2026-04-10T14:58:31Z</time></trkpt><trkpt lat="42.85081819243149" lon="12.885458278776156"><ele>812.0</ele><time>2026-04-10T14:58:32Z</time></trkpt><trkpt lat="42.850871343914044" lon="12.885534854428071"><ele>812.0</ele><time>2026-04-10T14:58:33Z</time></trkpt><trkpt lat="42.85091239021873" lon="12.88561069158482"><ele>812.0000000000001</ele><time>2026-04-10T14:58:34Z</time></trkpt><trkpt lat="42.850963930036535" lon="12.885713807444192"><ele>812.0</ele><time>2026-04-10T14:58:37Z</time></trkpt><trkpt lat="42.8509880690243" lon="12.885816146100437"><ele>811.5000000000001</ele><time>2026-04-10T14:58:39Z</time></trkpt><trkpt lat="42.850979831094165" lon="12.885935501108449"><ele>811.0</ele><time>2026-04-10T14:58:41Z</time></trkpt><trkpt lat="42.85105032412742" lon="12.885951433289977"><ele>810.5</ele><time>2026-04-10T14:58:44Z</time></trkpt><trkpt lat="42.851148734046504" lon="12.88594296603254"><ele>810.0</ele><time>2026-04-10T14:58:46Z</time></trkpt><trkpt lat="42.851242930222895" lon="12.885953519650256"><ele>809.5000000000001</ele><time>2026-04-10T14:58:49Z</time></trkpt><trkpt lat="42.85132582146961" lon="12.885933438347164"><ele>809.0</ele><time>2026-04-10T14:58:51Z</time></trkpt><trkpt lat="42.85139508839865" lon="12.885892905425495"><ele>809.0</ele><time>2026-04-10T14:58:53Z</time></trkpt><trkpt lat="42.85146547144703" lon="12.885915614151548"><ele>809.0</ele><time>2026-04-10T14:58:55Z</time></trkpt><trkpt lat="42.851545756963034" lon="12.886022009032038"><ele>809.0</ele><time>2026-04-10T14:58:57Z</time></trkpt><trkpt lat="42.85165985554306" lon="12.886053910790867"><ele>809.0</ele><time>2026-04-10T14:58:59Z</time></trkpt><trkpt lat="42.85177573075881" lon="12.88609010579855"><ele>809.0</ele><time>2026-04-10T14:59:01Z</time></trkpt><trkpt lat="42.85187529621653" lon="12.886073748445543"><ele>803.2</ele><time>2026-04-10T14:59:03Z</time></trkpt><trkpt lat="42.85199443290157" lon="12.886076190052096"><ele>797.4000000000001</ele><time>2026-04-10T14:59:05Z</time></trkpt><trkpt lat="42.85210447663998" lon="12.886049635011766"><ele>791.6</ele><time>2026-04-10T14:59:07Z</time></trkpt><trkpt lat="42.852183159889286" lon="12.886099768821433"><ele>785.8</ele><time>2026-04-10T14:59:09Z</time></trkpt><trkpt lat="42.852281894658155" lon="12.886141751536666"><ele>780.0</ele><time>2026-04-10T14:59:11Z</time></trkpt><trkpt lat="42.85235670059437" lon="12.886192476332674"><ele>780.0</ele><time>2026-04-10T14:59:13Z</time></trkpt><trkpt lat="42.85241766382143" lon="12.88621457641464"><ele>780.0</ele><time>2026-04-10T14:59:14Z</time></trkpt><trkpt lat="42.85247105985608" lon="12.88628087664032"><ele>780.0</ele><time>2026-04-10T14:59:16Z</time></trkpt><trkpt lat="42.85247079587482" lon="12.886405270724463"><ele>780.0</ele><time>2026-04-10T14:59:18Z</time></trkpt><trkpt lat="42.85245940032521" lon="12.886506751894057"><ele>780.0</ele><time>2026-04-10T14:59:19Z</time></trkpt><trkpt lat="42.85246526170372" lon="12.886603164354195"><ele>780.0</ele><time>2026-04-10T14:59:20Z</time></trkpt><trkpt lat="42.85252276493436" lon="12.886753239405946"><ele>777.6666666666666</ele><time>2026-04-10T14:59:22Z</time></trkpt><trkpt lat="42.852590398006065" lon="12.88681088295975"><ele>775.3333333333334</ele><time>2026-04-10T14:59:23Z</time></trkpt><trkpt lat="42.852656428357285" lon="12.886843488410506"><ele>773.0</ele><time>2026-04-10T14:59:24Z</time></trkpt><trkpt lat="42.85273488401055" lon="12.886885898743508"><ele>770.6666666666667</ele><time>2026-04-10T14:59:25Z</time></trkpt><trkpt lat="42.852817444549196" lon="12.88692096083485"><ele>768.3333333333334</ele><time>2026-04-10T14:59:26Z</time></trkpt><trkpt lat="42.85288694492569" lon="12.88693742840514"><ele>766.0</ele><time>2026-04-10T14:59:27Z</time></trkpt><trkpt lat="42.85294887878908" lon="12.88696295307947"><ele>766.0</ele><time>2026-04-10T14:59:28Z</time></trkpt><trkpt lat="42.8530145992543" lon="12.886997962217732"><ele>766.0</ele><time>2026-04-10T14:59:29Z</time></trkpt><trkpt lat="42.85312499710265" lon="12.887098938805611"><ele>766.0</ele><time>2026-04-10T14:59:31Z</time></trkpt><trkpt lat="42.85317923452939" lon="12.887167906029617"><ele>766.0</ele><time>2026-04-10T14:59:32Z</time></trkpt><trkpt lat="42.85322388001271" lon="12.88725006855956"><ele>766.0</ele><time>2026-04-10T14:59:33Z</time></trkpt><trkpt lat="42.85325595589824" lon="12.887328385845343"><ele>766.0</ele><time>2026-04-10T14:59:34Z</time></trkpt><trkpt lat="42.85332165246441" lon="12.887458311813234"><ele>766.0</ele><time>2026-04-10T14:59:36Z</time></trkpt><trkpt lat="42.853394777735254" lon="12.88750920937599"><ele>766.0</ele><time>2026-04-10T14:59:37Z</time></trkpt><trkpt lat="42.853463070527305" lon="12.887564995302109"><ele>766.0</ele><time>2026-04-10T14:59:38Z</time></trkpt><trkpt lat="42.853533979716694" lon="12.887607389747306"><ele>766.0</ele><time>2026-04-10T14:59:39Z</time></trkpt><trkpt lat="42.85360611545546" lon="12.887697433693807"><ele>766.0</ele><time>2026-04-10T14:59:40Z</time></trkpt><trkpt lat="42.85367079539068" lon="12.88775833843"><ele>766.0</ele><time>2026-04-10T14:59:41Z</time></trkpt><trkpt lat="42.85373105814524" lon="12.887807935022566"><ele>764.1999999999999</ele><time>2026-04-10T14:59:42Z</time></trkpt><trkpt lat="42.85383943642621" lon="12.887911080699554"><ele>762.4</ele><time>2026-04-10T14:59:44Z</time></trkpt><trkpt lat="42.853946011548786" lon="12.887942240093754"><ele>760.6</ele><time>2026-04-10T14:59:45Z</time></trkpt><trkpt lat="42.854050160518106" lon="12.887978355150471"><ele>758.8</ele><time>2026-04-10T14:59:46Z</time></trkpt><trkpt lat="42.85413963543802" lon="12.888026057895843"><ele>757.0</ele><time>2026-04-10T14:59:47Z</time></trkpt><trkpt lat="42.85421051439352" lon="12.888068069179552"><ele>757.0</ele><time>2026-04-10T14:59:48Z</time></trkpt><trkpt lat="42.85427341249461" lon="12.888089266136152"><ele>757.0</ele><time>2026-04-10T14:59:49Z</time></trkpt><trkpt lat="42.85434174431856" lon="12.888106984189536"><ele>757.0</ele><time>2026-04-10T14:59:50Z</time></trkpt><trkpt lat="42.854399679359666" lon="12.88814454510847"><ele>757.0</ele><time>2026-04-10T14:59:51Z</time></trkpt><trkpt lat="42.85452942542039" lon="12.88812452734299"><ele>757.0</ele><time>2026-04-10T14:59:53Z</time></trkpt><trkpt lat="42.85463547615551" lon="12.888115847175591"><ele>757.0</ele><time>2026-04-10T14:59:54Z</time></trkpt><trkpt lat="42.854709738193804" lon="12.888115624516239"><ele>753.8333333333334</ele><time>2026-04-10T14:59:55Z</time></trkpt><trkpt lat="42.85478589477495" lon="12.888115618798569"><ele>750.6666666666667</ele><time>2026-04-10T14:59:56Z</time></trkpt><trkpt lat="42.85485486244955" lon="12.88814723100098"><ele>747.5</ele><time>2026-04-10T14:59:57Z</time></trkpt><trkpt lat="42.854948009632956" lon="12.888193134740458"><ele>744.3333333333334</ele><time>2026-04-10T14:59:58Z</time></trkpt><trkpt lat="42.8550377209342" lon="12.888248406159219"><ele>741.1666666666666</ele><time>2026-04-10T14:59:59Z</time></trkpt><trkpt lat="42.85511787029771" lon="12.888283264155985"><ele>738.0</ele><time>2026-04-10T15:00:00Z</time></trkpt><trkpt lat="42.85518875132279" lon="12.88832124943107"><ele>736.0</ele><time>2026-04-10T15:00:01Z</time></trkpt><trkpt lat="42.855328939440724" lon="12.88835256865622"><ele>734.0</ele><time>2026-04-10T15:00:03Z</time></trkpt><trkpt lat="42.855419687281476" lon="12.888361332143356"><ele>732.0</ele><time>2026-04-10T15:00:04Z</time></trkpt><trkpt lat="42.85548913596878" lon="12.888380791158337"><ele>730.0</ele><time>2026-04-10T15:00:05Z</time></trkpt><trkpt lat="42.85554728143321" lon="12.888417624872039"><ele>728.0</ele><time>2026-04-10T15:00:06Z</time></trkpt><trkpt lat="42.85561200666855" lon="12.888426735399293"><ele>726.0</ele><time>2026-04-10T15:00:08Z</time></trkpt><trkpt lat="42.855681438829016" lon="12.888356004317503"><ele>726.0</ele><time>2026-04-10T15:00:15Z</time></trkpt><trkpt lat="42.85573921819981" lon="12.888321516630702"><ele>726.0</ele><time>2026-04-10T15:00:16Z</time></trkpt><trkpt lat="42.85579882089346" lon="12.888269283259266"><ele>726.0</ele><time>2026-04-10T15:00:17Z</time></trkpt><trkpt lat="42.855879673939086" lon="12.888206512074818"><ele>726.0</ele><time>2026-04-10T15:00:20Z</time></trkpt><trkpt lat="42.85596399443499" lon="12.888133673989627"><ele>726.0</ele><time>2026-04-10T15:00:21Z</time></trkpt><trkpt lat="42.85602369129673" lon="12.888086756329269"><ele>726.0</ele><time>2026-04-10T15:00:22Z</time></trkpt><trkpt lat="42.85611486438453" lon="12.888093182462043"><ele>726.0</ele><time>2026-04-10T15:00:24Z</time></trkpt><trkpt lat="42.85618376617493" lon="12.888148963619964"><ele>726.0</ele><time>2026-04-10T15:00:25Z</time></trkpt><trkpt lat="42.85626527034302" lon="12.888217877548012"><ele>726.0</ele><time>2026-04-10T15:00:26Z</time></trkpt><trkpt lat="42.8563505125871" lon="12.888283135013126"><ele>726.0</ele><time>2026-04-10T15:00:27Z</time></trkpt><trkpt lat="42.856418766639315" lon="12.88833077831595"><ele>726.0</ele><time>2026-04-10T15:00:28Z</time></trkpt><trkpt lat="42.85649300508064" lon="12.88839799379312"><ele>726.0</ele><time>2026-04-10T15:00:29Z</time></trkpt><trkpt lat="42.85656839593525" lon="12.888495489724356"><ele>726.0</ele><time>2026-04-10T15:00:30Z</time></trkpt><trkpt lat="42.85666069807179" lon="12.888568558471901"><ele>726.0</ele><time>2026-04-10T15:00:32Z</time></trkpt><trkpt lat="42.85671680510585" lon="12.888616303217676"><ele>726.0</ele><time>2026-04-10T15:00:39Z</time></trkpt><trkpt lat="42.85679274802016" lon="12.888616800088418"><ele>726.0</ele><time>2026-04-10T15:00:43Z</time></trkpt><trkpt lat="42.85687914128818" lon="12.888617532706364"><ele>726.0</ele><time>2026-04-10T15:00:49Z</time></trkpt><trkpt lat="42.85698314739768" lon="12.888622984394008"><ele>726.0</ele><time>2026-04-10T15:00:52Z</time></trkpt><trkpt lat="42.85706065676334" lon="12.888652263010108"><ele>721.8333333333334</ele><time>2026-04-10T15:00:54Z</time></trkpt><trkpt lat="42.85710205968237" lon="12.888757940847645"><ele>717.6666666666666</ele><time>2026-04-10T15:00:57Z</time></trkpt><trkpt lat="42.85717089237915" lon="12.888805490471015"><ele>713.5</ele><time>2026-04-10T15:01:00Z</time></trkpt><trkpt lat="42.85720845467381" lon="12.888881266521539"><ele>709.3333333333333</ele><time>2026-04-10T15:01:03Z</time></trkpt><trkpt lat="42.85725193119511" lon="12.888976048686843"><ele>705.1666666666666</ele><time>2026-04-10T15:01:07Z</time></trkpt><trkpt lat="42.85731478158252" lon="12.889013374586042"><ele>701.0</ele><time>2026-04-10T15:01:10Z</time></trkpt><trkpt lat="42.85739118579484" lon="12.88909850874301"><ele>701.0</ele><time>2026-04-10T15:01:13Z</time></trkpt><trkpt lat="42.857469228287826" lon="12.889131656838318"><ele>701.0</ele><time>2026-04-10T15:01:15Z</time></trkpt><trkpt lat="42.857528853942576" lon="12.889169910968954"><ele>701.0</ele><time>2026-04-10T15:01:18Z</time></trkpt><trkpt lat="42.85757384804526" lon="12.88923555633424"><ele>701.0</ele><time>2026-04-10T15:01:20Z</time></trkpt><trkpt lat="42.85764570827113" lon="12.889287892260617"><ele>701.0</ele><time>2026-04-10T15:01:23Z</time></trkpt><trkpt lat="42.857718551224806" lon="12.88932441137292"><ele>701.0</ele><time>2026-04-10T15:01:24Z</time></trkpt><trkpt lat="42.85781487466577" lon="12.889352518827724"><ele>698.4</ele><time>2026-04-10T15:01:25Z</time></trkpt><trkpt lat="42.85792311358918" lon="12.889409097466327"><ele>695.8</ele><time>2026-04-10T15:01:26Z</time></trkpt><trkpt lat="42.85798274112174" lon="12.889458668581753"><ele>693.1999999999999</ele><time>2026-04-10T15:01:27Z</time></trkpt><trkpt lat="42.858059350069944" lon="12.889528462405707"><ele>690.5999999999999</ele><time>2026-04-10T15:01:28Z</time></trkpt><trkpt lat="42.858128557863836" lon="12.889575464995838"><ele>688.0</ele><time>2026-04-10T15:01:29Z</time></trkpt><trkpt lat="42.85821210883319" lon="12.889640628764457"><ele>688.0</ele><time>2026-04-10T15:01:30Z</time></trkpt><trkpt lat="42.858280747471156" lon="12.889703418418996"><ele>688.0</ele><time>2026-04-10T15:01:31Z</time></trkpt><trkpt lat="42.858363156429135" lon="12.889760111905753"><ele>688.0</ele><time>2026-04-10T15:01:33Z</time></trkpt><trkpt lat="42.858422805518266" lon="12.889798659249653"><ele>688.0</ele><time>2026-04-10T15:01:34Z</time></trkpt><trkpt lat="42.85847490691769" lon="12.889864733402074"><ele>688.0</ele><time>2026-04-10T15:01:35Z</time></trkpt><trkpt lat="42.85854650975804" lon="12.88995198280601"><ele>688.0</ele><time>2026-04-10T15:01:37Z</time></trkpt><trkpt lat="42.85860188473206" lon="12.890018279387842"><ele>687.6666666666667</ele><time>2026-04-10T15:01:39Z</time></trkpt><trkpt lat="42.85867616533404" lon="12.889962385583026"><ele>687.3333333333334</ele><time>2026-04-10T15:01:50Z</time></trkpt><trkpt lat="42.85864247595154" lon="12.889882217467157"><ele>687.0</ele><time>2026-04-10T15:01:59Z</time></trkpt><trkpt lat="42.858636930116205" lon="12.889789954648673"><ele>686.6666666666666</ele><time>2026-04-10T15:02:03Z</time></trkpt><trkpt lat="42.85869715614966" lon="12.889705061063442"><ele>686.3333333333333</ele><time>2026-04-10T15:02:07Z</time></trkpt><trkpt lat="42.858682148383075" lon="12.8896090334675"><ele>686.0</ele><time>2026-04-10T15:02:09Z</time></trkpt><trkpt lat="42.858648796066056" lon="12.889500066151406"><ele>686.0</ele><time>2026-04-10T15:02:11Z</time></trkpt><trkpt lat="42.85868362021532" lon="12.889407257492314"><ele>686.0</ele><time>2026-04-10T15:02:21Z</time></trkpt><trkpt lat="42.858740017170184" lon="12.889360109086994"><ele>686.0</ele><time>2026-04-10T15:02:23Z</time></trkpt><trkpt lat="42.85880460994036" lon="12.889309716123893"><ele>686.0</ele><time>2026-04-10T15:02:26Z</time></trkpt><trkpt lat="42.85880452762582" lon="12.889206218023503"><ele>686.0</ele><time>2026-04-10T15:02:37Z</time></trkpt><trkpt lat="42.85878818356417" lon="12.889121676545264"><ele>686.0</ele><time>2026-04-10T15:02:39Z</time></trkpt><trkpt lat="42.85875461081968" lon="12.889028671515444"><ele>686.0</ele><time>2026-04-10T15:02:41Z</time></trkpt><trkpt lat="42.8587576594404" lon="12.888926742962877"><ele>686.8333333333333</ele><time>2026-04-10T15:02:43Z</time></trkpt><trkpt lat="42.85875084871668" lon="12.888827161656398"><ele>687.6666666666666</ele><time>2026-04-10T15:02:45Z</time></trkpt><trkpt lat="42.858719034513705" lon="12.888712053160901"><ele>688.5</ele><time>2026-04-10T15:02:47Z</time></trkpt><trkpt lat="42.858696634694546" lon="12.888596494782307"><ele>689.3333333333334</ele><time>2026-04-10T15:02:50Z</time></trkpt><trkpt lat="42.85865926605788" lon="12.888524774756549"><ele>690.1666666666667</ele><time>2026-04-10T15:02:52Z</time></trkpt><trkpt lat="42.85858465752322" lon="12.888476691103401"><ele>691.0</ele><time>2026-04-10T15:02:55Z</time></trkpt><trkpt lat="42.85859101249226" lon="12.888389451517666"><ele>690.9999999999999</ele><time>2026-04-10T15:02:58Z</time></trkpt><trkpt lat="42.85861033790629" lon="12.8883068435338"><ele>691.0</ele><time>2026-04-10T15:03:18Z</time></trkpt><trkpt lat="42.858622687668216" lon="12.888217010526166"><ele>691.0</ele><time>2026-04-10T15:03:59Z</time></trkpt><trkpt lat="42.858684061972305" lon="12.888179287445874"><ele>691.0</ele><time>2026-04-10T15:04:31Z</time></trkpt><trkpt lat="42.8586533292859" lon="12.888272280230511"><ele>691.0</ele><time>2026-04-10T15:06:32Z</time></trkpt><trkpt lat="42.858618081816246" lon="12.888388578654661"><ele>690.9999999999999</ele><time>2026-04-10T15:06:49Z</time></trkpt><trkpt lat="42.85861785327019" lon="12.88848394675545"><ele>691.0</ele><time>2026-04-10T15:06:52Z</time></trkpt><trkpt lat="42.8586927582629" lon="12.888530492646261"><ele>691.0</ele><time>2026-04-10T15:06:55Z</time></trkpt><trkpt lat="42.85874417091743" lon="12.888631697904259"><ele>691.0</ele><time>2026-04-10T15:06:58Z</time></trkpt><trkpt lat="42.858764396096376" lon="12.888747475550915"><ele>691.0</ele><time>2026-04-10T15:07:01Z</time></trkpt><trkpt lat="42.8587715888956" lon="12.888878195031584"><ele>691.0</ele><time>2026-04-10T15:07:04Z</time></trkpt><trkpt lat="42.8588008623797" lon="12.888958827006396"><ele>691.0</ele><time>2026-04-10T15:07:06Z</time></trkpt><trkpt lat="42.85879792936485" lon="12.889050424521098"><ele>691.0</ele><time>2026-04-10T15:07:08Z</time></trkpt><trkpt lat="42.85880324565206" lon="12.889177232682172"><ele>690.1666666666667</ele><time>2026-04-10T15:07:11Z</time></trkpt><trkpt lat="42.85884464295234" lon="12.889274562199915"><ele>689.3333333333334</ele><time>2026-04-10T15:07:14Z</time></trkpt><trkpt lat="42.8588598500483" lon="12.889378076799602"><ele>688.5</ele><time>2026-04-10T15:07:17Z</time></trkpt><trkpt lat="42.85882353839159" lon="12.889481028891453"><ele>687.6666666666666</ele><time>2026-04-10T15:07:20Z</time></trkpt><trkpt lat="42.85878762934272" lon="12.889556888168984"><ele>686.8333333333333</ele><time>2026-04-10T15:07:29Z</time></trkpt><trkpt lat="42.858831755976816" lon="12.889661134867032"><ele>686.0</ele><time>2026-04-10T15:07:32Z</time></trkpt><trkpt lat="42.858778265596115" lon="12.889741436504412"><ele>686.0</ele><time>2026-04-10T15:07:38Z</time></trkpt><trkpt lat="42.85873907648945" lon="12.88981074377134"><ele>686.0</ele><time>2026-04-10T15:07:41Z</time></trkpt><trkpt lat="42.85875398942054" lon="12.889921728030304"><ele>686.0</ele><time>2026-04-10T15:07:54Z</time></trkpt><trkpt lat="42.85876971034336" lon="12.890015642204311"><ele>686.0</ele><time>2026-04-10T15:08:00Z</time></trkpt><trkpt lat="42.858835117186125" lon="12.89006651196377"><ele>686.0</ele><time>2026-04-10T15:08:06Z</time></trkpt><trkpt lat="42.85887314813762" lon="12.890159784509233"><ele>686.0</ele><time>2026-04-10T15:08:09Z</time></trkpt><trkpt lat="42.8589031133606" lon="12.890236172016701"><ele>686.0</ele><time>2026-04-10T15:08:11Z</time></trkpt><trkpt lat="42.85892271944842" lon="12.890369851117738"><ele>684.8571428571429</ele><time>2026-04-10T15:08:30Z</time></trkpt><trkpt lat="42.8589267273933" lon="12.890491797313315"><ele>683.7142857142858</ele><time>2026-04-10T15:08:32Z</time></trkpt><trkpt lat="42.85892572934832" lon="12.890590094584454"><ele>682.5714285714286</ele><time>2026-04-10T15:08:34Z</time></trkpt><trkpt lat="42.85892583196111" lon="12.890691547530302"><ele>681.4285714285714</ele><time>2026-04-10T15:08:39Z</time></trkpt><trkpt lat="42.85890285645853" lon="12.890779086062802"><ele>680.2857142857143</ele><time>2026-04-10T15:08:42Z</time></trkpt><trkpt lat="42.85890141603466" lon="12.890868590012248"><ele>679.1428571428571</ele><time>2026-04-10T15:08:46Z</time></trkpt><trkpt lat="42.85897846818101" lon="12.890844079910053"><ele>678.0</ele><time>2026-04-10T15:08:50Z</time></trkpt><trkpt lat="42.85902894606361" lon="12.8907599267727"><ele>678.0</ele><time>2026-04-10T15:09:23Z</time></trkpt><trkpt lat="42.859045273688395" lon="12.890626697813111"><ele>678.0</ele><time>2026-04-10T15:09:24Z</time></trkpt><trkpt lat="42.859063082549895" lon="12.890470651268432"><ele>678.0</ele><time>2026-04-10T15:09:25Z</time></trkpt><trkpt lat="42.859073110333014" lon="12.89034678325638"><ele>678.0</ele><time>2026-04-10T15:09:26Z</time></trkpt><trkpt lat="42.85909661859067" lon="12.890261520874612"><ele>678.0</ele><time>2026-04-10T15:09:27Z</time></trkpt><trkpt lat="42.859131921364096" lon="12.8901823270773"><ele>678.0</ele><time>2026-04-10T15:09:28Z</time></trkpt><trkpt lat="42.85916192922602" lon="12.890068438092555"><ele>679.5999999999999</ele><time>2026-04-10T15:09:29Z</time></trkpt><trkpt lat="42.859175288278664" lon="12.88993269507782"><ele>681.1999999999999</ele><time>2026-04-10T15:09:30Z</time></trkpt><trkpt lat="42.85917443670787" lon="12.889764941996704"><ele>682.8</ele><time>2026-04-10T15:09:31Z</time></trkpt><trkpt lat="42.85918181729517" lon="12.889629044889336"><ele>684.4</ele><time>2026-04-10T15:09:32Z</time></trkpt><trkpt lat="42.85920620461366" lon="12.889496865460421"><ele>686.0</ele><time>2026-04-10T15:09:33Z</time></trkpt><trkpt lat="42.8592274809758" lon="12.889351468196113"><ele>687.25</ele><time>2026-04-10T15:09:34Z</time></trkpt><trkpt lat="42.85925839655195" lon="12.889177721729652"><ele>688.5</ele><time>2026-04-10T15:09:35Z</time></trkpt><trkpt lat="42.85928596184527" lon="12.889017633707152"><ele>689.75</ele><time>2026-04-10T15:09:36Z</time></trkpt><trkpt lat="42.85931015346933" lon="12.888857683861714"><ele>691.0</ele><time>2026-04-10T15:09:37Z</time></trkpt><trkpt lat="42.859326943691606" lon="12.88871126134628"><ele>699.25</ele><time>2026-04-10T15:09:38Z</time></trkpt><trkpt lat="42.85934312733302" lon="12.88856046547525"><ele>707.5</ele><time>2026-04-10T15:09:39Z</time></trkpt><trkpt lat="42.85936303261071" lon="12.888406616764703"><ele>715.75</ele><time>2026-04-10T15:09:40Z</time></trkpt><trkpt lat="42.85939745643262" lon="12.88824307177354"><ele>724.0</ele><time>2026-04-10T15:09:41Z</time></trkpt><trkpt lat="42.85942818338648" lon="12.888101493380576"><ele>724.0</ele><time>2026-04-10T15:09:42Z</time></trkpt><trkpt lat="42.85945520240917" lon="12.887963701047317"><ele>724.0</ele><time>2026-04-10T15:09:43Z</time></trkpt><trkpt lat="42.85947392669884" lon="12.887837060695313"><ele>724.0</ele><time>2026-04-10T15:09:44Z</time></trkpt><trkpt lat="42.85947795998037" lon="12.887722562721748"><ele>724.0</ele><time>2026-04-10T15:09:45Z</time></trkpt><trkpt lat="42.859484904642" lon="12.887624556093527"><ele>724.0</ele><time>2026-04-10T15:09:46Z</time></trkpt><trkpt lat="42.85950128284423" lon="12.887495313267365"><ele>723.6666666666667</ele><time>2026-04-10T15:09:47Z</time></trkpt><trkpt lat="42.85952428828921" lon="12.887383989591829"><ele>723.3333333333334</ele><time>2026-04-10T15:09:48Z</time></trkpt><trkpt lat="42.85953309482564" lon="12.88725415105963"><ele>723.0</ele><time>2026-04-10T15:09:49Z</time></trkpt><trkpt lat="42.859543043682635" lon="12.887131927155655"><ele>722.6666666666666</ele><time>2026-04-10T15:09:50Z</time></trkpt><trkpt lat="42.859563405104474" lon="12.887007816652956"><ele>722.3333333333333</ele><time>2026-04-10T15:09:51Z</time></trkpt><trkpt lat="42.85959260556154" lon="12.88691301212373"><ele>722.0</ele><time>2026-04-10T15:09:52Z</time></trkpt><trkpt lat="42.859629895253775" lon="12.886739828775031"><ele>721.8333333333333</ele><time>2026-04-10T15:09:54Z</time></trkpt><trkpt lat="42.85963783708162" lon="12.886585006354263"><ele>721.6666666666666</ele><time>2026-04-10T15:09:55Z</time></trkpt><trkpt lat="42.85966982255886" lon="12.886459002313693"><ele>721.5</ele><time>2026-04-10T15:09:56Z</time></trkpt><trkpt lat="42.85969833254951" lon="12.886352211137753"><ele>721.3333333333334</ele><time>2026-04-10T15:09:57Z</time></trkpt><trkpt lat="42.85972665235881" lon="12.886273873960691"><ele>721.1666666666667</ele><time>2026-04-10T15:09:58Z</time></trkpt><trkpt lat="42.85976776539878" lon="12.886184107887717"><ele>721.0</ele><time>2026-04-10T15:09:59Z</time></trkpt><trkpt lat="42.85979922289293" lon="12.886079372414695"><ele>721.0</ele><time>2026-04-10T15:10:00Z</time></trkpt><trkpt lat="42.859821856824205" lon="12.885976567716243"><ele>721.0</ele><time>2026-04-10T15:10:01Z</time></trkpt><trkpt lat="42.859859654028114" lon="12.885852504817704"><ele>721.0</ele><time>2026-04-10T15:10:02Z</time></trkpt><trkpt lat="42.859892242209305" lon="12.885747915753633"><ele>721.0</ele><time>2026-04-10T15:10:03Z</time></trkpt><trkpt lat="42.85990618354353" lon="12.885610175573555"><ele>721.0</ele><time>2026-04-10T15:10:05Z</time></trkpt><trkpt lat="42.859995572551924" lon="12.885441783215958"><ele>719.8333333333334</ele><time>2026-04-10T15:10:07Z</time></trkpt><trkpt lat="42.86006115402361" lon="12.885308921208003"><ele>718.6666666666667</ele><time>2026-04-10T15:10:08Z</time></trkpt><trkpt lat="42.86011488607728" lon="12.885186158612523"><ele>717.5</ele><time>2026-04-10T15:10:09Z</time></trkpt><trkpt lat="42.860161858547315" lon="12.885111511135854"><ele>716.3333333333334</ele><time>2026-04-10T15:10:11Z</time></trkpt><trkpt lat="42.86021755262414" lon="12.885052309354421"><ele>715.1666666666666</ele><time>2026-04-10T15:10:31Z</time></trkpt><trkpt lat="42.86015623350358" lon="12.88512572913752"><ele>714.0</ele><time>2026-04-10T15:13:07Z</time></trkpt><trkpt lat="42.86011059470431" lon="12.885217606055722"><ele>714.0</ele><time>2026-04-10T15:13:09Z</time></trkpt><trkpt lat="42.86005405829733" lon="12.885349151806002"><ele>714.0</ele><time>2026-04-10T15:13:11Z</time></trkpt><trkpt lat="42.860002658564184" lon="12.885448509850525"><ele>714.0</ele><time>2026-04-10T15:13:13Z</time></trkpt><trkpt lat="42.859948870351325" lon="12.885557734671917"><ele>714.0</ele><time>2026-04-10T15:13:16Z</time></trkpt><trkpt lat="42.85989785308711" lon="12.885668931023448"><ele>714.0</ele><time>2026-04-10T15:13:18Z</time></trkpt><trkpt lat="42.85988003003019" lon="12.885760462308593"><ele>714.0</ele><time>2026-04-10T15:13:21Z</time></trkpt><trkpt lat="42.85987358647959" lon="12.885861617501236"><ele>714.0</ele><time>2026-04-10T15:13:22Z</time></trkpt><trkpt lat="42.85984247788642" lon="12.885984339501448"><ele>714.0</ele><time>2026-04-10T15:13:24Z</time></trkpt><trkpt lat="42.859819477914954" lon="12.88606458757837"><ele>714.0</ele><time>2026-04-10T15:13:26Z</time></trkpt><trkpt lat="42.85978301338774" lon="12.88616331331455"><ele>714.0</ele><time>2026-04-10T15:13:30Z</time></trkpt><trkpt lat="42.859764944899396" lon="12.886260634890336"><ele>714.0</ele><time>2026-04-10T15:13:33Z</time></trkpt><trkpt lat="42.85970594138804" lon="12.886217639139767"><ele>715.1666666666666</ele><time>2026-04-10T15:13:36Z</time></trkpt><trkpt lat="42.85968059082303" lon="12.886113213439105"><ele>716.3333333333334</ele><time>2026-04-10T15:13:38Z</time></trkpt><trkpt lat="42.859617096773235" lon="12.886088517699868"><ele>717.5</ele><time>2026-04-10T15:13:41Z</time></trkpt><trkpt lat="42.859534674574235" lon="12.886122593859692"><ele>718.6666666666667</ele><time>2026-04-10T15:13:45Z</time></trkpt><trkpt lat="42.85948551264066" lon="12.886197101787571"><ele>719.8333333333334</ele><time>2026-04-10T15:13:47Z</time></trkpt><trkpt lat="42.859411797637435" lon="12.88625157552921"><ele>721.0</ele><time>2026-04-10T15:13:51Z</time></trkpt><trkpt lat="42.85937766600456" lon="12.886338488763524"><ele>721.0</ele><time>2026-04-10T15:13:54Z</time></trkpt><trkpt lat="42.859323156858736" lon="12.886420237576209"><ele>721.0</ele><time>2026-04-10T15:13:56Z</time></trkpt><trkpt lat="42.859254981065845" lon="12.886506151925603"><ele>721.0</ele><time>2026-04-10T15:14:00Z</time></trkpt><trkpt lat="42.85918849347898" lon="12.88653914090468"><ele>721.0</ele><time>2026-04-10T15:14:09Z</time></trkpt><trkpt lat="42.859186969141355" lon="12.886633559079716"><ele>721.0</ele><time>2026-04-10T15:14:47Z</time></trkpt><trkpt lat="42.85913460292989" lon="12.886705769666419"><ele>721.0</ele><time>2026-04-10T15:14:51Z</time></trkpt><trkpt lat="42.8590744058688" lon="12.886789767836817"><ele>716.8333333333334</ele><time>2026-04-10T15:14:56Z</time></trkpt><trkpt lat="42.859072723084246" lon="12.886877100306968"><ele>712.6666666666667</ele><time>2026-04-10T15:15:00Z</time></trkpt><trkpt lat="42.859060535897854" lon="12.886986277212344"><ele>708.5</ele><time>2026-04-10T15:15:03Z</time></trkpt><trkpt lat="42.859034824034566" lon="12.887074425767"><ele>704.3333333333334</ele><time>2026-04-10T15:15:08Z</time></trkpt><trkpt lat="42.859021564070055" lon="12.887176629436437"><ele>700.1666666666666</ele><time>2026-04-10T15:15:11Z</time></trkpt><trkpt lat="42.858979221230655" lon="12.887318289600852"><ele>696.0</ele><time>2026-04-10T15:15:13Z</time></trkpt><trkpt lat="42.85896340063314" lon="12.887416237539352"><ele>696.0</ele><time>2026-04-10T15:15:17Z</time></trkpt><trkpt lat="42.85894249041325" lon="12.88749756116253"><ele>696.0</ele><time>2026-04-10T15:15:23Z</time></trkpt><trkpt lat="42.85891567651088" lon="12.887603897886681"><ele>696.0</ele><time>2026-04-10T15:15:27Z</time></trkpt><trkpt lat="42.858925874255576" lon="12.887699555420324"><ele>696.0</ele><time>2026-04-10T15:15:37Z</time></trkpt><trkpt lat="42.85890379118992" lon="12.887812194043374"><ele>696.0</ele><time>2026-04-10T15:15:42Z</time></trkpt><trkpt lat="42.858862754501416" lon="12.887891981680632"><ele>696.0</ele><time>2026-04-10T15:15:45Z</time></trkpt><trkpt lat="42.85883943916537" lon="12.887988814834507"><ele>696.0</ele><time>2026-04-10T15:15:49Z</time></trkpt><trkpt lat="42.85882098005423" lon="12.88809423921362"><ele>695.4285714285714</ele><time>2026-04-10T15:15:52Z</time></trkpt><trkpt lat="42.85877688609359" lon="12.888156158290641"><ele>694.8571428571429</ele><time>2026-04-10T15:15:56Z</time></trkpt><trkpt lat="42.85880476452195" lon="12.888237211431568"><ele>694.2857142857142</ele><time>2026-04-10T15:16:02Z</time></trkpt><trkpt lat="42.85886755960529" lon="12.888222161318078"><ele>693.7142857142858</ele><time>2026-04-10T15:16:16Z</time></trkpt><trkpt lat="42.858922001027956" lon="12.888129473793645"><ele>693.1428571428572</ele><time>2026-04-10T15:16:22Z</time></trkpt><trkpt lat="42.85898271658531" lon="12.888071600490642"><ele>692.5714285714286</ele><time>2026-04-10T15:16:25Z</time></trkpt><trkpt lat="42.85905615964309" lon="12.888112632658085"><ele>692.0</ele><time>2026-04-10T15:16:29Z</time></trkpt><trkpt lat="42.859111438651546" lon="12.888168462890091"><ele>692.0</ele><time>2026-04-10T15:16:34Z</time></trkpt><trkpt lat="42.85917764554028" lon="12.888197252495775"><ele>692.0</ele><time>2026-04-10T15:16:36Z</time></trkpt><trkpt lat="42.85920132956833" lon="12.888293247775449"><ele>692.0</ele><time>2026-04-10T15:16:45Z</time></trkpt><trkpt lat="42.859210337371096" lon="12.888397462430198"><ele>692.0</ele><time>2026-04-10T15:16:56Z</time></trkpt><trkpt lat="42.85919464519096" lon="12.888488449387106"><ele>692.0</ele><time>2026-04-10T15:17:15Z</time></trkpt><trkpt lat="42.85918831060179" lon="12.88858379186342"><ele>692.0</ele><time>2026-04-10T15:17:20Z</time></trkpt><trkpt lat="42.859237244794656" lon="12.888649103737153"><ele>692.0</ele><time>2026-04-10T15:17:27Z</time></trkpt><trkpt lat="42.85927648724003" lon="12.8887290122939"><ele>691.8</ele><time>2026-04-10T15:17:39Z</time></trkpt><trkpt lat="42.85933878506134" lon="12.888748194465789"><ele>691.6</ele><time>2026-04-10T15:17:43Z</time></trkpt><trkpt lat="42.85932805676405" lon="12.888899936682154"><ele>691.4</ele><time>2026-04-10T15:17:46Z</time></trkpt><trkpt lat="42.85928965600008" lon="12.889059201967472"><ele>691.1999999999999</ele><time>2026-04-10T15:17:48Z</time></trkpt><trkpt lat="42.85926451524964" lon="12.8892070192674"><ele>691.0</ele><time>2026-04-10T15:17:49Z</time></trkpt><trkpt lat="42.859239435262346" lon="12.889368345432393"><ele>690.0</ele><time>2026-04-10T15:17:50Z</time></trkpt><trkpt lat="42.859214164089956" lon="12.889501741253717"><ele>689.0</ele><time>2026-04-10T15:17:51Z</time></trkpt><trkpt lat="42.85920524655686" lon="12.889609533386944"><ele>688.0</ele><time>2026-04-10T15:17:52Z</time></trkpt><trkpt lat="42.85919336800009" lon="12.889699972425266"><ele>687.0</ele><time>2026-04-10T15:17:53Z</time></trkpt><trkpt lat="42.85917051618939" lon="12.889888591226535"><ele>686.0</ele><time>2026-04-10T15:17:55Z</time></trkpt><trkpt lat="42.859165095373726" lon="12.889985447644273"><ele>684.6666666666666</ele><time>2026-04-10T15:17:56Z</time></trkpt><trkpt lat="42.85915579514202" lon="12.890093501321559"><ele>683.3333333333333</ele><time>2026-04-10T15:17:57Z</time></trkpt><trkpt lat="42.85914300121236" lon="12.890237946852663"><ele>682.0</ele><time>2026-04-10T15:17:59Z</time></trkpt><trkpt lat="42.85910487444192" lon="12.890329027846857"><ele>680.6666666666666</ele><time>2026-04-10T15:18:02Z</time></trkpt><trkpt lat="42.85908215118308" lon="12.890425103468733"><ele>679.3333333333334</ele><time>2026-04-10T15:18:05Z</time></trkpt><trkpt lat="42.859072330030045" lon="12.89051634193187"><ele>678.0</ele><time>2026-04-10T15:18:07Z</time></trkpt><trkpt lat="42.85906711683718" lon="12.890637289870282"><ele>678.0</ele><time>2026-04-10T15:18:18Z</time></trkpt><trkpt lat="42.85905577991251" lon="12.89073678754436"><ele>678.0</ele><time>2026-04-10T15:18:19Z</time></trkpt><trkpt lat="42.85904134572079" lon="12.890829477182274"><ele>678.0</ele><time>2026-04-10T15:18:20Z</time></trkpt><trkpt lat="42.85903973422524" lon="12.890916061690811"><ele>678.0</ele><time>2026-04-10T15:18:21Z</time></trkpt><trkpt lat="42.859047952041756" lon="12.891004153345618"><ele>678.0</ele><time>2026-04-10T15:18:22Z</time></trkpt><trkpt lat="42.859075776751354" lon="12.891134501705524"><ele>678.0</ele><time>2026-04-10T15:18:24Z</time></trkpt><trkpt lat="42.85910940865586" lon="12.891236865871711"><ele>678.5</ele><time>2026-04-10T15:18:26Z</time></trkpt><trkpt lat="42.859088217638835" lon="12.891330364702878"><ele>679.0</ele><time>2026-04-10T15:18:28Z</time></trkpt><trkpt lat="42.85905477045093" lon="12.891412489313819"><ele>679.5</ele><time>2026-04-10T15:18:39Z</time></trkpt><trkpt lat="42.85905304713681" lon="12.891506329382024"><ele>680.0</ele><time>2026-04-10T15:18:40Z</time></trkpt><trkpt lat="42.85907208710634" lon="12.891618359053746"><ele>680.5</ele><time>2026-04-10T15:18:41Z</time></trkpt><trkpt lat="42.8591002686292" lon="12.89169788661254"><ele>681.0</ele><time>2026-04-10T15:18:42Z</time></trkpt><trkpt lat="42.8591391343597" lon="12.891859359363217"><ele>681.0</ele><time>2026-04-10T15:18:44Z</time></trkpt><trkpt lat="42.85921082788739" lon="12.891957234122701"><ele>681.0</ele><time>2026-04-10T15:18:45Z</time></trkpt><trkpt lat="42.859272553109584" lon="12.892034790501938"><ele>681.0</ele><time>2026-04-10T15:18:46Z</time></trkpt><trkpt lat="42.85935312403858" lon="12.892125998417425"><ele>681.0</ele><time>2026-04-10T15:18:48Z</time></trkpt><trkpt lat="42.85942420454635" lon="12.892213038847597"><ele>681.0</ele><time>2026-04-10T15:18:50Z</time></trkpt><trkpt lat="42.859457283226156" lon="12.89228766816132"><ele>681.0</ele><time>2026-04-10T15:18:51Z</time></trkpt><trkpt lat="42.859493071842294" lon="12.892417920763704"><ele>679.6666666666666</ele><time>2026-04-10T15:18:53Z</time></trkpt><trkpt lat="42.85951777744672" lon="12.892535293967802"><ele>678.3333333333334</ele><time>2026-04-10T15:18:55Z</time></trkpt><trkpt lat="42.85954360524654" lon="12.892658802155898"><ele>677.0</ele><time>2026-04-10T15:18:57Z</time></trkpt><trkpt lat="42.85955522242079" lon="12.892746964289941"><ele>675.6666666666667</ele><time>2026-04-10T15:18:58Z</time></trkpt><trkpt lat="42.85958430234591" lon="12.89283295152724"><ele>674.3333333333334</ele><time>2026-04-10T15:18:59Z</time></trkpt><trkpt lat="42.8596221746646" lon="12.892930037196763"><ele>673.0</ele><time>2026-04-10T15:19:00Z</time></trkpt><trkpt lat="42.859669840706445" lon="12.892995557636386"><ele>673.5</ele><time>2026-04-10T15:19:01Z</time></trkpt><trkpt lat="42.85972542352779" lon="12.893043525483458"><ele>674.0</ele><time>2026-04-10T15:19:02Z</time></trkpt><trkpt lat="42.859788974531995" lon="12.893113833258372"><ele>674.5</ele><time>2026-04-10T15:19:03Z</time></trkpt><trkpt lat="42.85985910203593" lon="12.89319389156156"><ele>675.0</ele><time>2026-04-10T15:19:04Z</time></trkpt><trkpt lat="42.85992098621408" lon="12.893288020593605"><ele>675.5</ele><time>2026-04-10T15:19:05Z</time></trkpt><trkpt lat="42.859988514203394" lon="12.893382404835407"><ele>676.0</ele><time>2026-04-10T15:19:06Z</time></trkpt><trkpt lat="42.86006796216597" lon="12.893504388848772"><ele>671.8333333333334</ele><time>2026-04-10T15:19:07Z</time></trkpt><trkpt lat="42.86013146227111" lon="12.89359857005612"><ele>667.6666666666667</ele><time>2026-04-10T15:19:08Z</time></trkpt><trkpt lat="42.860184123374665" lon="12.893660824444737"><ele>663.5</ele><time>2026-04-10T15:19:09Z</time></trkpt><trkpt lat="42.86025151883086" lon="12.8936875459764"><ele>659.3333333333334</ele><time>2026-04-10T15:19:10Z</time></trkpt><trkpt lat="42.86033997559975" lon="12.893715735334405"><ele>655.1666666666666</ele><time>2026-04-10T15:19:11Z</time></trkpt><trkpt lat="42.860425736228464" lon="12.89376186161087"><ele>651.0</ele><time>2026-04-10T15:19:12Z</time></trkpt><trkpt lat="42.860496990173324" lon="12.893809570265011"><ele>651.0</ele><time>2026-04-10T15:19:13Z</time></trkpt><trkpt lat="42.86058086597364" lon="12.893788865117138"><ele>651.0</ele><time>2026-04-10T15:19:15Z</time></trkpt><trkpt lat="42.86063471980767" lon="12.893719198060857"><ele>651.0</ele><time>2026-04-10T15:19:17Z</time></trkpt><trkpt lat="42.860700219919" lon="12.8937421245522"><ele>651.0</ele><time>2026-04-10T15:19:19Z</time></trkpt><trkpt lat="42.86078110621706" lon="12.893818445472391"><ele>651.0</ele><time>2026-04-10T15:19:21Z</time></trkpt><trkpt lat="42.86085776109198" lon="12.893887712404696"><ele>651.0</ele><time>2026-04-10T15:19:24Z</time></trkpt><trkpt lat="42.86091012039639" lon="12.893950982070368"><ele>652.0</ele><time>2026-04-10T15:19:26Z</time></trkpt><trkpt lat="42.86096719087445" lon="12.89402440951388"><ele>653.0</ele><time>2026-04-10T15:19:29Z</time></trkpt><trkpt lat="42.861030751474985" lon="12.893976151473929"><ele>654.0</ele><time>2026-04-10T15:19:32Z</time></trkpt><trkpt lat="42.86112940747203" lon="12.89405441060885"><ele>655.0</ele><time>2026-04-10T15:19:35Z</time></trkpt><trkpt lat="42.8612007514223" lon="12.89409668908376"><ele>656.0</ele><time>2026-04-10T15:19:37Z</time></trkpt><trkpt lat="42.86127990729436" lon="12.894164300270647"><ele>657.0</ele><time>2026-04-10T15:19:39Z</time></trkpt><trkpt lat="42.861377557618994" lon="12.894247925002515"><ele>652.6666666666666</ele><time>2026-04-10T15:19:40Z</time></trkpt><trkpt lat="42.86156451288024" lon="12.894379972193182"><ele>648.3333333333333</ele><time>2026-04-10T15:19:41Z</time></trkpt><trkpt lat="42.861673048717115" lon="12.89449439225066"><ele>644.0</ele><time>2026-04-10T15:19:42Z</time></trkpt><trkpt lat="42.86180247884129" lon="12.894600398783293"><ele>643.75</ele><time>2026-04-10T15:19:43Z</time></trkpt><trkpt lat="42.861903776611314" lon="12.894681862749213"><ele>643.5</ele><time>2026-04-10T15:19:44Z</time></trkpt><trkpt lat="42.86201857631526" lon="12.894848248708279"><ele>643.25</ele><time>2026-04-10T15:19:46Z</time></trkpt><trkpt lat="42.8620818205303" lon="12.894911810951509"><ele>643.0</ele><time>2026-04-10T15:19:47Z</time></trkpt><trkpt lat="42.86217102300352" lon="12.895007001479744"><ele>643.0</ele><time>2026-04-10T15:19:49Z</time></trkpt><trkpt lat="42.86223635703202" lon="12.895043776919694"><ele>643.0</ele><time>2026-04-10T15:19:50Z</time></trkpt><trkpt lat="42.86230528547701" lon="12.895105172862667"><ele>643.0</ele><time>2026-04-10T15:19:52Z</time></trkpt><trkpt lat="42.86236696573544" lon="12.895086536484094"><ele>643.0</ele><time>2026-04-10T15:19:53Z</time></trkpt><trkpt lat="42.86245229047774" lon="12.895104402696973"><ele>643.0</ele><time>2026-04-10T15:19:54Z</time></trkpt><trkpt lat="42.86251780665432" lon="12.89518692626056"><ele>643.0</ele><time>2026-04-10T15:19:56Z</time></trkpt><trkpt lat="42.86260123476509" lon="12.895148027858164"><ele>642.3333333333334</ele><time>2026-04-10T15:19:58Z</time></trkpt><trkpt lat="42.86272172316777" lon="12.895217899173467"><ele>641.6666666666667</ele><time>2026-04-10T15:20:00Z</time></trkpt><trkpt lat="42.86278145005606" lon="12.895267834221322"><ele>641.0</ele><time>2026-04-10T15:20:01Z</time></trkpt><trkpt lat="42.862845872033574" lon="12.895305147166244"><ele>640.3333333333334</ele><time>2026-04-10T15:20:02Z</time></trkpt><trkpt lat="42.86290147798108" lon="12.89535697962975"><ele>639.6666666666666</ele><time>2026-04-10T15:20:03Z</time></trkpt><trkpt lat="42.862985797627296" lon="12.895444616432163"><ele>639.0</ele><time>2026-04-10T15:20:05Z</time></trkpt><trkpt lat="42.86302040205585" lon="12.895618628763826"><ele>639.0</ele><time>2026-04-10T15:20:07Z</time></trkpt><trkpt lat="42.86305010931779" lon="12.895717117958768"><ele>639.0</ele><time>2026-04-10T15:20:08Z</time></trkpt><trkpt lat="42.8630936740591" lon="12.895823428695696"><ele>639.0</ele><time>2026-04-10T15:20:09Z</time></trkpt><trkpt lat="42.8631448191818" lon="12.895934798786664"><ele>639.0</ele><time>2026-04-10T15:20:10Z</time></trkpt><trkpt lat="42.863171649066174" lon="12.896026703967356"><ele>639.0</ele><time>2026-04-10T15:20:11Z</time></trkpt><trkpt lat="42.86320619903567" lon="12.89612606824068"><ele>639.0</ele><time>2026-04-10T15:20:12Z</time></trkpt><trkpt lat="42.863229292818616" lon="12.896284637517269"><ele>637.1666666666666</ele><time>2026-04-10T15:20:14Z</time></trkpt><trkpt lat="42.86325267116226" lon="12.896386147345204"><ele>635.3333333333334</ele><time>2026-04-10T15:20:15Z</time></trkpt><trkpt lat="42.863255777834574" lon="12.896511794989367"><ele>633.5</ele><time>2026-04-10T15:20:16Z</time></trkpt><trkpt lat="42.86326405404529" lon="12.896670060494534"><ele>631.6666666666667</ele><time>2026-04-10T15:20:18Z</time></trkpt><trkpt lat="42.863281221188586" lon="12.896781138972006"><ele>629.8333333333334</ele><time>2026-04-10T15:20:20Z</time></trkpt><trkpt lat="42.863310983277636" lon="12.896857696228714"><ele>628.0</ele><time>2026-04-10T15:20:22Z</time></trkpt><trkpt lat="42.86335633459513" lon="12.897029948641517"><ele>626.4</ele><time>2026-04-10T15:20:24Z</time></trkpt><trkpt lat="42.86335337027462" lon="12.897156334549415"><ele>624.8</ele><time>2026-04-10T15:20:26Z</time></trkpt><trkpt lat="42.863319924320656" lon="12.897291107031057"><ele>623.2</ele><time>2026-04-10T15:20:28Z</time></trkpt><trkpt lat="42.863285837841474" lon="12.89749109432909"><ele>621.6</ele><time>2026-04-10T15:20:30Z</time></trkpt><trkpt lat="42.863265543797475" lon="12.89757568881527"><ele>620.0</ele><time>2026-04-10T15:20:31Z</time></trkpt><trkpt lat="42.863202638180574" lon="12.897661500801174"><ele>619.4</ele><time>2026-04-10T15:20:34Z</time></trkpt><trkpt lat="42.863142191914285" lon="12.897728868224547"><ele>618.8</ele><time>2026-04-10T15:20:36Z</time></trkpt><trkpt lat="42.86309767412963" lon="12.897865351853484"><ele>618.2</ele><time>2026-04-10T15:20:38Z</time></trkpt><trkpt lat="42.86306048486671" lon="12.897989472364628"><ele>617.6</ele><time>2026-04-10T15:20:39Z</time></trkpt><trkpt lat="42.863040781837825" lon="12.898147166521719"><ele>617.0</ele><time>2026-04-10T15:20:40Z</time></trkpt><trkpt lat="42.86301695640217" lon="12.898294906970671"><ele>617.0</ele><time>2026-04-10T15:20:41Z</time></trkpt><trkpt lat="42.862998177444915" lon="12.89840534850989"><ele>617.0</ele><time>2026-04-10T15:20:42Z</time></trkpt><trkpt lat="42.86297503792184" lon="12.898497282989092"><ele>617.0</ele><time>2026-04-10T15:20:43Z</time></trkpt><trkpt lat="42.86295458051967" lon="12.898603504213646"><ele>617.0</ele><time>2026-04-10T15:20:44Z</time></trkpt><trkpt lat="42.862959021360616" lon="12.898739761787985"><ele>617.0</ele><time>2026-04-10T15:20:45Z</time></trkpt><trkpt lat="42.8629607590494" lon="12.898853417202922"><ele>617.0</ele><time>2026-04-10T15:20:46Z</time></trkpt><trkpt lat="42.86295236110742" lon="12.899001811987027"><ele>617.1666666666666</ele><time>2026-04-10T15:20:47Z</time></trkpt><trkpt lat="42.862934082135325" lon="12.8991224173216"><ele>617.3333333333333</ele><time>2026-04-10T15:20:48Z</time></trkpt><trkpt lat="42.86291488450693" lon="12.899238164040499"><ele>617.5</ele><time>2026-04-10T15:20:49Z</time></trkpt><trkpt lat="42.862901003931206" lon="12.899363370230965"><ele>617.6666666666666</ele><time>2026-04-10T15:20:50Z</time></trkpt><trkpt lat="42.86289577859229" lon="12.899452823672286"><ele>617.8333333333334</ele><time>2026-04-10T15:20:51Z</time></trkpt><trkpt lat="42.86287203205949" lon="12.899537192368339"><ele>618.0</ele><time>2026-04-10T15:20:52Z</time></trkpt><trkpt lat="42.86283606702949" lon="12.89963577072353"><ele>619.0</ele><time>2026-04-10T15:20:53Z</time></trkpt><trkpt lat="42.86279768612767" lon="12.899734936962522"><ele>620.0</ele><time>2026-04-10T15:20:54Z</time></trkpt><trkpt lat="42.86274534491441" lon="12.899860814746566"><ele>621.0</ele><time>2026-04-10T15:20:55Z</time></trkpt><trkpt lat="42.86269961414912" lon="12.899943173642447"><ele>622.0</ele><time>2026-04-10T15:20:56Z</time></trkpt><trkpt lat="42.862653400435626" lon="12.900078329735845"><ele>623.0</ele><time>2026-04-10T15:20:58Z</time></trkpt><trkpt lat="42.862629264928465" lon="12.900188710768921"><ele>618.8</ele><time>2026-04-10T15:20:59Z</time></trkpt><trkpt lat="42.86260452300765" lon="12.900336946737614"><ele>614.5999999999999</ele><time>2026-04-10T15:21:00Z</time></trkpt><trkpt lat="42.86256549490142" lon="12.900498030319886"><ele>610.4000000000001</ele><time>2026-04-10T15:21:01Z</time></trkpt><trkpt lat="42.86253534328922" lon="12.900655203103973"><ele>606.2</ele><time>2026-04-10T15:21:02Z</time></trkpt><trkpt lat="42.86250972858309" lon="12.900776882161955"><ele>602.0</ele><time>2026-04-10T15:21:03Z</time></trkpt><trkpt lat="42.8624952123116" lon="12.900904980213667"><ele>601.1666666666666</ele><time>2026-04-10T15:21:04Z</time></trkpt><trkpt lat="42.862489747862696" lon="12.901016345297737"><ele>600.3333333333333</ele><time>2026-04-10T15:21:05Z</time></trkpt><trkpt lat="42.86250894342153" lon="12.901123690320427"><ele>599.5</ele><time>2026-04-10T15:21:06Z</time></trkpt><trkpt lat="42.862524817415995" lon="12.901214143004665"><ele>598.6666666666666</ele><time>2026-04-10T15:21:07Z</time></trkpt><trkpt lat="42.86252982900078" lon="12.901302015262303"><ele>597.8333333333334</ele><time>2026-04-10T15:21:11Z</time></trkpt><trkpt lat="42.862599043747544" lon="12.901417247109661"><ele>597.0</ele><time>2026-04-10T15:24:19Z</time></trkpt><trkpt lat="42.86262780110747" lon="12.90153725510435"><ele>598.8333333333334</ele><time>2026-04-10T15:24:22Z</time></trkpt><trkpt lat="42.86269011538897" lon="12.901609565948242"><ele>600.6666666666666</ele><time>2026-04-10T15:24:24Z</time></trkpt><trkpt lat="42.86268339983495" lon="12.901725015007164"><ele>602.5</ele><time>2026-04-10T15:24:35Z</time></trkpt><trkpt lat="42.86265644809329" lon="12.901825334728766"><ele>604.3333333333333</ele><time>2026-04-10T15:24:37Z</time></trkpt><trkpt lat="42.86263410229719" lon="12.901940790347222"><ele>606.1666666666666</ele><time>2026-04-10T15:24:39Z</time></trkpt><trkpt lat="42.862635687388625" lon="12.902087338990645"><ele>608.0</ele><time>2026-04-10T15:24:41Z</time></trkpt><trkpt lat="42.86264059617941" lon="12.902174217303093"><ele>608.0</ele><time>2026-04-10T15:24:42Z</time></trkpt><trkpt lat="42.86264816063746" lon="12.902273205781865"><ele>608.0</ele><time>2026-04-10T15:24:43Z</time></trkpt><trkpt lat="42.862650778921086" lon="12.902364971005426"><ele>608.0</ele><time>2026-04-10T15:24:44Z</time></trkpt><trkpt lat="42.86270081129952" lon="12.902516980124851"><ele>608.0</ele><time>2026-04-10T15:24:46Z</time></trkpt><trkpt lat="42.86273512265787" lon="12.90259891125472"><ele>608.0</ele><time>2026-04-10T15:24:47Z</time></trkpt><trkpt lat="42.86277441362304" lon="12.902743086693858"><ele>608.0</ele><time>2026-04-10T15:24:49Z</time></trkpt><trkpt lat="42.86281731369974" lon="12.902863321652681"><ele>604.3333333333333</ele><time>2026-04-10T15:24:51Z</time></trkpt><trkpt lat="42.86283259948116" lon="12.902958523900212"><ele>600.6666666666666</ele><time>2026-04-10T15:24:53Z</time></trkpt><trkpt lat="42.86282390855072" lon="12.903102540332329"><ele>597.0</ele><time>2026-04-10T15:24:55Z</time></trkpt><trkpt lat="42.862841867261885" lon="12.903199803762067"><ele>593.3333333333334</ele><time>2026-04-10T15:24:57Z</time></trkpt><trkpt lat="42.862903108923135" lon="12.903291328426267"><ele>589.6666666666667</ele><time>2026-04-10T15:25:07Z</time></trkpt><trkpt lat="42.86295961299839" lon="12.903361152365173"><ele>586.0</ele><time>2026-04-10T15:25:09Z</time></trkpt><trkpt lat="42.86301509731657" lon="12.903471840022497"><ele>584.3333333333334</ele><time>2026-04-10T15:25:11Z</time></trkpt><trkpt lat="42.8630743376404" lon="12.903613111784491"><ele>582.6666666666667</ele><time>2026-04-10T15:25:13Z</time></trkpt><trkpt lat="42.86313022631168" lon="12.903670045877337"><ele>581.0</ele><time>2026-04-10T15:25:15Z</time></trkpt><trkpt lat="42.863195898597915" lon="12.903634787580627"><ele>579.3333333333334</ele><time>2026-04-10T15:25:19Z</time></trkpt><trkpt lat="42.86325572472757" lon="12.903721861629306"><ele>577.6666666666666</ele><time>2026-04-10T15:25:22Z</time></trkpt><trkpt lat="42.863290520165194" lon="12.903796954404491"><ele>576.0</ele><time>2026-04-10T15:25:23Z</time></trkpt><trkpt lat="42.863346306315584" lon="12.903836949080368"><ele>576.0</ele><time>2026-04-10T15:25:25Z</time></trkpt><trkpt lat="42.86342632904645" lon="12.903781200938024"><ele>576.0</ele><time>2026-04-10T15:25:27Z</time></trkpt><trkpt lat="42.863484442966055" lon="12.903732128545332"><ele>576.0</ele><time>2026-04-10T15:25:28Z</time></trkpt><trkpt lat="42.86359754066958" lon="12.903679099349374"><ele>576.0</ele><time>2026-04-10T15:25:30Z</time></trkpt><trkpt lat="42.86368898810581" lon="12.903617280591497"><ele>576.0</ele><time>2026-04-10T15:25:31Z</time></trkpt><trkpt lat="42.86381178645488" lon="12.903584694824046"><ele>577.5</ele><time>2026-04-10T15:25:33Z</time></trkpt><trkpt lat="42.86388097502084" lon="12.903544979777836"><ele>579.0</ele><time>2026-04-10T15:25:34Z</time></trkpt><trkpt lat="42.86395958050187" lon="12.903480476073568"><ele>580.5</ele><time>2026-04-10T15:25:35Z</time></trkpt><trkpt lat="42.864032030748255" lon="12.903413395004625"><ele>582.0</ele><time>2026-04-10T15:25:36Z</time></trkpt><trkpt lat="42.8640811823788" lon="12.903355195703144"><ele>583.5</ele><time>2026-04-10T15:25:37Z</time></trkpt><trkpt lat="42.86411623635127" lon="12.90325241195915"><ele>585.0</ele><time>2026-04-10T15:25:39Z</time></trkpt><trkpt lat="42.86415569925476" lon="12.903141826315911"><ele>585.0</ele><time>2026-04-10T15:25:41Z</time></trkpt><trkpt lat="42.86418421383318" lon="12.903059682258059"><ele>585.0</ele><time>2026-04-10T15:25:42Z</time></trkpt><trkpt lat="42.864215965343774" lon="12.902956137268683"><ele>585.0</ele><time>2026-04-10T15:25:43Z</time></trkpt><trkpt lat="42.86428384101402" lon="12.902842718768271"><ele>585.0</ele><time>2026-04-10T15:25:45Z</time></trkpt><trkpt lat="42.864355531684595" lon="12.902784935843071"><ele>585.0</ele><time>2026-04-10T15:25:48Z</time></trkpt><trkpt lat="42.864388622984876" lon="12.902686054472873"><ele>585.0</ele><time>2026-04-10T15:25:50Z</time></trkpt><trkpt lat="42.864406927341385" lon="12.902585083407773"><ele>585.0</ele><time>2026-04-10T15:25:52Z</time></trkpt><trkpt lat="42.86434411244097" lon="12.902647170754356"><ele>585.0</ele><time>2026-04-10T15:25:57Z</time></trkpt><trkpt lat="42.86434698037554" lon="12.902751061453865"><ele>585.0</ele><time>2026-04-10T15:25:58Z</time></trkpt><trkpt lat="42.86430683220611" lon="12.902849394476243"><ele>585.0</ele><time>2026-04-10T15:26:00Z</time></trkpt><trkpt lat="42.86423997715308" lon="12.902788315369722"><ele>585.0</ele><time>2026-04-10T15:26:02Z</time></trkpt><trkpt lat="42.86417348181323" lon="12.902795000244305"><ele>585.0</ele><time>2026-04-10T15:26:05Z</time></trkpt><trkpt lat="42.86410130162769" lon="12.902899617845398"><ele>585.0</ele><time>2026-04-10T15:26:09Z</time></trkpt><trkpt lat="42.86403254229585" lon="12.903006021077534"><ele>585.0</ele><time>2026-04-10T15:26:11Z</time></trkpt><trkpt lat="42.86397172851599" lon="12.903077500386724"><ele>585.0</ele><time>2026-04-10T15:26:13Z</time></trkpt><trkpt lat="42.863974478679644" lon="12.90298467935403"><ele>585.0</ele><time>2026-04-10T15:26:49Z</time></trkpt><trkpt lat="42.86401535096883" lon="12.902890625172894"><ele>585.0</ele><time>2026-04-10T15:27:00Z</time></trkpt><trkpt lat="42.86405414078968" lon="12.902761154515684"><ele>585.0</ele><time>2026-04-10T15:27:02Z</time></trkpt><trkpt lat="42.86409494308722" lon="12.90264033909287"><ele>586.8333333333334</ele><time>2026-04-10T15:27:04Z</time></trkpt><trkpt lat="42.86410085073078" lon="12.902504394681793"><ele>588.6666666666666</ele><time>2026-04-10T15:27:06Z</time></trkpt><trkpt lat="42.864103456205186" lon="12.902392454077805"><ele>590.5</ele><time>2026-04-10T15:27:08Z</time></trkpt><trkpt lat="42.864106439328516" lon="12.90227485137181"><ele>592.3333333333333</ele><time>2026-04-10T15:27:10Z</time></trkpt><trkpt lat="42.8640457798138" lon="12.902329099319552"><ele>594.1666666666666</ele><time>2026-04-10T15:27:14Z</time></trkpt><trkpt lat="42.86399612792163" lon="12.902436304696288"><ele>596.0</ele><time>2026-04-10T15:27:16Z</time></trkpt><trkpt lat="42.863956218446624" lon="12.902519236623075"><ele>596.0</ele><time>2026-04-10T15:27:18Z</time></trkpt><trkpt lat="42.863992058556796" lon="12.90241176471489"><ele>596.0</ele><time>2026-04-10T15:35:32Z</time></trkpt><trkpt lat="42.864040456916264" lon="12.902317391024882"><ele>596.0</ele><time>2026-04-10T15:35:35Z</time></trkpt><trkpt lat="42.86408172123858" lon="12.902218065041215"><ele>596.0</ele><time>2026-04-10T15:35:40Z</time></trkpt><trkpt lat="42.8641403555918" lon="12.902290238091567"><ele>596.0</ele><time>2026-04-10T15:35:52Z</time></trkpt><trkpt lat="42.86413943579961" lon="12.902381604868415"><ele>596.0</ele><time>2026-04-10T15:35:57Z</time></trkpt><trkpt lat="42.86413140522341" lon="12.902511232327658"><ele>594.1666666666666</ele><time>2026-04-10T15:36:03Z</time></trkpt><trkpt lat="42.86412985882864" lon="12.902652254741882"><ele>592.3333333333333</ele><time>2026-04-10T15:36:06Z</time></trkpt><trkpt lat="42.86410018222305" lon="12.90273494125528"><ele>590.5</ele><time>2026-04-10T15:36:08Z</time></trkpt><trkpt lat="42.864058305455615" lon="12.902824352953429"><ele>588.6666666666666</ele><time>2026-04-10T15:36:10Z</time></trkpt><trkpt lat="42.86401288556145" lon="12.902943567065428"><ele>586.8333333333334</ele><time>2026-04-10T15:36:13Z</time></trkpt><trkpt lat="42.863960737367634" lon="12.903017185131528"><ele>585.0</ele><time>2026-04-10T15:37:06Z</time></trkpt><trkpt lat="42.86397604054067" lon="12.903122177347948"><ele>585.0</ele><time>2026-04-10T15:38:28Z</time></trkpt><trkpt lat="42.86405688231339" lon="12.903219619208162"><ele>585.0</ele><time>2026-04-10T15:38:30Z</time></trkpt><trkpt lat="42.8641220797668" lon="12.903317929721293"><ele>585.0</ele><time>2026-04-10T15:38:32Z</time></trkpt><trkpt lat="42.86406644297099" lon="12.903402639797271"><ele>585.0</ele><time>2026-04-10T15:39:32Z</time></trkpt><trkpt lat="42.86398807737356" lon="12.90348014158954"><ele>585.0</ele><time>2026-04-10T15:39:34Z</time></trkpt><trkpt lat="42.86387895033253" lon="12.903545701291321"><ele>583.2</ele><time>2026-04-10T15:39:36Z</time></trkpt><trkpt lat="42.863752181031735" lon="12.903619196158655"><ele>581.4</ele><time>2026-04-10T15:39:37Z</time></trkpt><trkpt lat="42.86365472975374" lon="12.903685358256825"><ele>579.6</ele><time>2026-04-10T15:39:38Z</time></trkpt><trkpt lat="42.8635730283282" lon="12.90374520701574"><ele>577.8</ele><time>2026-04-10T15:39:39Z</time></trkpt><trkpt lat="42.86347402953994" lon="12.903805514932172"><ele>576.0</ele><time>2026-04-10T15:39:41Z</time></trkpt><trkpt lat="42.86342192282644" lon="12.903860488820776"><ele>576.0</ele><time>2026-04-10T15:39:42Z</time></trkpt><trkpt lat="42.86334422079686" lon="12.903989029947802"><ele>576.0</ele><time>2026-04-10T15:39:44Z</time></trkpt><trkpt lat="42.86329849892419" lon="12.904048531780631"><ele>576.0</ele><time>2026-04-10T15:39:45Z</time></trkpt><trkpt lat="42.86320925675301" lon="12.904157903277953"><ele>576.0</ele><time>2026-04-10T15:39:47Z</time></trkpt><trkpt lat="42.863125514111836" lon="12.904269887324576"><ele>576.0</ele><time>2026-04-10T15:39:49Z</time></trkpt><trkpt lat="42.86311553185713" lon="12.904367583052187"><ele>576.1666666666666</ele><time>2026-04-10T15:39:51Z</time></trkpt><trkpt lat="42.863133142943056" lon="12.904468761953407"><ele>576.3333333333334</ele><time>2026-04-10T15:39:53Z</time></trkpt><trkpt lat="42.86315831263726" lon="12.904567777424157"><ele>576.5</ele><time>2026-04-10T15:39:55Z</time></trkpt><trkpt lat="42.86320871736135" lon="12.904682170137828"><ele>576.6666666666667</ele><time>2026-04-10T15:39:57Z</time></trkpt><trkpt lat="42.86326891468709" lon="12.904756696666086"><ele>576.8333333333334</ele><time>2026-04-10T15:39:58Z</time></trkpt><trkpt lat="42.86335378243129" lon="12.904837757059306"><ele>577.0</ele><time>2026-04-10T15:39:59Z</time></trkpt><trkpt lat="42.8634502144753" lon="12.904943623804197"><ele>578.0</ele><time>2026-04-10T15:40:00Z</time></trkpt><trkpt lat="42.86354464507918" lon="12.90506089837425"><ele>579.0</ele><time>2026-04-10T15:40:01Z</time></trkpt><trkpt lat="42.863622015596775" lon="12.905207737779943"><ele>580.0</ele><time>2026-04-10T15:40:02Z</time></trkpt><trkpt lat="42.863713854487166" lon="12.905349792330696"><ele>581.0</ele><time>2026-04-10T15:40:03Z</time></trkpt><trkpt lat="42.86382035384086" lon="12.905495603979274"><ele>581.0</ele><time>2026-04-10T15:40:04Z</time></trkpt><trkpt lat="42.863926449716" lon="12.905692455036972"><ele>581.0</ele><time>2026-04-10T15:40:05Z</time></trkpt><trkpt lat="42.86401523425323" lon="12.905930821909143"><ele>581.0</ele><time>2026-04-10T15:40:06Z</time></trkpt><trkpt lat="42.864088750007795" lon="12.906127230786097"><ele>579.3333333333333</ele><time>2026-04-10T15:40:07Z</time></trkpt><trkpt lat="42.864160426678595" lon="12.90634548369777"><ele>577.6666666666666</ele><time>2026-04-10T15:40:08Z</time></trkpt><trkpt lat="42.86421546068852" lon="12.906549405460373"><ele>576.0</ele><time>2026-04-10T15:40:09Z</time></trkpt><trkpt lat="42.86427073564989" lon="12.906774762768324"><ele>589.0</ele><time>2026-04-10T15:40:10Z</time></trkpt><trkpt lat="42.864316840266994" lon="12.906985849626478"><ele>602.0</ele><time>2026-04-10T15:40:11Z</time></trkpt><trkpt lat="42.86438183705731" lon="12.907165074058723"><ele>615.0</ele><time>2026-04-10T15:40:12Z</time></trkpt><trkpt lat="42.864400653055654" lon="12.907395690379717"><ele>609.0</ele><time>2026-04-10T15:40:13Z</time></trkpt><trkpt lat="42.86441204862508" lon="12.907613213375772"><ele>603.0</ele><time>2026-04-10T15:40:14Z</time></trkpt><trkpt lat="42.8644288938905" lon="12.907844732455306"><ele>597.0</ele><time>2026-04-10T15:40:15Z</time></trkpt><trkpt lat="42.86446386725287" lon="12.908078876069778"><ele>597.0</ele><time>2026-04-10T15:40:16Z</time></trkpt><trkpt lat="42.864493675129715" lon="12.908322029530437"><ele>597.0</ele><time>2026-04-10T15:40:17Z</time></trkpt><trkpt lat="42.864493448326954" lon="12.908508832366042"><ele>597.0</ele><time>2026-04-10T15:40:18Z</time></trkpt><trkpt lat="42.86447579835589" lon="12.908685420571612"><ele>597.0</ele><time>2026-04-10T15:40:19Z</time></trkpt><trkpt lat="42.86443629048929" lon="12.908855267509628"><ele>599.25</ele><time>2026-04-10T15:40:20Z</time></trkpt><trkpt lat="42.864393425502804" lon="12.909044059872157"><ele>601.5</ele><time>2026-04-10T15:40:21Z</time></trkpt><trkpt lat="42.864384009679874" lon="12.909215836873924"><ele>603.75</ele><time>2026-04-10T15:40:22Z</time></trkpt><trkpt lat="42.864382070609864" lon="12.909357362386459"><ele>606.0</ele><time>2026-04-10T15:40:23Z</time></trkpt><trkpt lat="42.86440927038087" lon="12.909499481276425"><ele>606.25</ele><time>2026-04-10T15:40:24Z</time></trkpt><trkpt lat="42.86445978220001" lon="12.909653349982225"><ele>606.5</ele><time>2026-04-10T15:40:25Z</time></trkpt><trkpt lat="42.86448179607046" lon="12.90985452635283"><ele>606.75</ele><time>2026-04-10T15:40:26Z</time></trkpt><trkpt lat="42.86451903405791" lon="12.910082706104982"><ele>607.0</ele><time>2026-04-10T15:40:27Z</time></trkpt><trkpt lat="42.864554802908266" lon="12.910322191372291"><ele>605.0</ele><time>2026-04-10T15:40:28Z</time></trkpt><trkpt lat="42.8645838401026" lon="12.91054802101625"><ele>603.0</ele><time>2026-04-10T15:40:29Z</time></trkpt><trkpt lat="42.86460104771033" lon="12.910742234277528"><ele>601.0</ele><time>2026-04-10T15:40:30Z</time></trkpt><trkpt lat="42.864607448325856" lon="12.910943931212314"><ele>600.0</ele><time>2026-04-10T15:40:31Z</time></trkpt><trkpt lat="42.8646044346321" lon="12.9111442497196"><ele>599.0</ele><time>2026-04-10T15:40:32Z</time></trkpt><trkpt lat="42.86457658699162" lon="12.911344658812277"><ele>598.0</ele><time>2026-04-10T15:40:33Z</time></trkpt><trkpt lat="42.864541781728434" lon="12.911515995162532"><ele>597.0</ele><time>2026-04-10T15:40:34Z</time></trkpt><trkpt lat="42.86451051436444" lon="12.911672849077512"><ele>593.4</ele><time>2026-04-10T15:40:35Z</time></trkpt><trkpt lat="42.864487619358364" lon="12.911838532273977"><ele>589.8000000000001</ele><time>2026-04-10T15:40:36Z</time></trkpt><trkpt lat="42.864500457336895" lon="12.91199762676108"><ele>586.2</ele><time>2026-04-10T15:40:37Z</time></trkpt><trkpt lat="42.8645209564358" lon="12.91213087983274"><ele>582.6</ele><time>2026-04-10T15:40:38Z</time></trkpt><trkpt lat="42.864554790362845" lon="12.912244753963106"><ele>579.0</ele><time>2026-04-10T15:40:39Z</time></trkpt><trkpt lat="42.864602176236424" lon="12.912374257641364"><ele>579.0</ele><time>2026-04-10T15:40:40Z</time></trkpt><trkpt lat="42.86467374924437" lon="12.912512118852911"><ele>579.0</ele><time>2026-04-10T15:40:41Z</time></trkpt><trkpt lat="42.864719517201124" lon="12.912645697516178"><ele>579.0</ele><time>2026-04-10T15:40:42Z</time></trkpt><trkpt lat="42.86475606194979" lon="12.91277524706025"><ele>579.0</ele><time>2026-04-10T15:40:43Z</time></trkpt><trkpt lat="42.86479450238357" lon="12.912876677193944"><ele>579.0</ele><time>2026-04-10T15:40:44Z</time></trkpt><trkpt lat="42.86487906093766" lon="12.912973008145778"><ele>576.5</ele><time>2026-04-10T15:40:45Z</time></trkpt><trkpt lat="42.86498639975284" lon="12.913074196481187"><ele>574.0</ele><time>2026-04-10T15:40:46Z</time></trkpt><trkpt lat="42.865112977786424" lon="12.913207238667678"><ele>571.5</ele><time>2026-04-10T15:40:47Z</time></trkpt><trkpt lat="42.86521374706622" lon="12.913327992322827"><ele>569.0</ele><time>2026-04-10T15:40:48Z</time></trkpt><trkpt lat="42.86531994534455" lon="12.913456531235846"><ele>569.0</ele><time>2026-04-10T15:40:49Z</time></trkpt><trkpt lat="42.865460767559604" lon="12.913629930289769"><ele>569.0</ele><time>2026-04-10T15:40:50Z</time></trkpt><trkpt lat="42.86555561128731" lon="12.913845036292518"><ele>569.0</ele><time>2026-04-10T15:40:51Z</time></trkpt><trkpt lat="42.865656007962485" lon="12.913994593070045"><ele>569.0</ele><time>2026-04-10T15:40:52Z</time></trkpt><trkpt lat="42.865767225294" lon="12.914109292539884"><ele>569.0</ele><time>2026-04-10T15:40:53Z</time></trkpt><trkpt lat="42.86586407593393" lon="12.91420400312524"><ele>569.0</ele><time>2026-04-10T15:40:54Z</time></trkpt><trkpt lat="42.86596231333756" lon="12.914303759826975"><ele>569.0</ele><time>2026-04-10T15:40:55Z</time></trkpt><trkpt lat="42.86605380467254" lon="12.914396800801345"><ele>572.0</ele><time>2026-04-10T15:40:56Z</time></trkpt><trkpt lat="42.866148891177836" lon="12.914501806219171"><ele>575.0</ele><time>2026-04-10T15:40:57Z</time></trkpt><trkpt lat="42.866231158304046" lon="12.914588500251865"><ele>578.0</ele><time>2026-04-10T15:40:58Z</time></trkpt><trkpt lat="42.866289966220876" lon="12.914686878886759"><ele>581.0</ele><time>2026-04-10T15:40:59Z</time></trkpt><trkpt lat="42.86634804469619" lon="12.91478397933551"><ele>584.0</ele><time>2026-04-10T15:41:00Z</time></trkpt><trkpt lat="42.866418793206236" lon="12.914858402698721"><ele>584.0</ele><time>2026-04-10T15:41:01Z</time></trkpt><trkpt lat="42.86645548484215" lon="12.914964674138032"><ele>584.0</ele><time>2026-04-10T15:41:02Z</time></trkpt><trkpt lat="42.86649389200753" lon="12.915108499245706"><ele>584.0</ele><time>2026-04-10T15:41:03Z</time></trkpt><trkpt lat="42.86653212307687" lon="12.91525982447886"><ele>584.0</ele><time>2026-04-10T15:41:04Z</time></trkpt><trkpt lat="42.86653761149806" lon="12.91539388099435"><ele>584.0</ele><time>2026-04-10T15:41:05Z</time></trkpt><trkpt lat="42.866615004925805" lon="12.915463810849277"><ele>586.0</ele><time>2026-04-10T15:41:06Z</time></trkpt><trkpt lat="42.86667300966131" lon="12.91553277322573"><ele>588.0</ele><time>2026-04-10T15:41:07Z</time></trkpt><trkpt lat="42.866730953989006" lon="12.91561082017332"><ele>590.0</ele><time>2026-04-10T15:41:08Z</time></trkpt><trkpt lat="42.86681158383631" lon="12.915690654064786"><ele>592.0</ele><time>2026-04-10T15:41:09Z</time></trkpt><trkpt lat="42.866882336428624" lon="12.915759796219039"><ele>594.0</ele><time>2026-04-10T15:41:10Z</time></trkpt><trkpt lat="42.86696698232959" lon="12.915818955300326"><ele>596.0</ele><time>2026-04-10T15:41:12Z</time></trkpt><trkpt lat="42.86699902140045" lon="12.915901799119636"><ele>591.5</ele><time>2026-04-10T15:41:15Z</time></trkpt><trkpt lat="42.86707547843857" lon="12.915962386905584"><ele>587.0</ele><time>2026-04-10T15:41:19Z</time></trkpt><trkpt lat="42.86712581282691" lon="12.916020245942967"><ele>582.5</ele><time>2026-04-10T15:41:20Z</time></trkpt><trkpt lat="42.86717610473089" lon="12.9160780600219"><ele>578.0</ele><time>2026-04-10T15:41:21Z</time></trkpt><trkpt lat="42.86727521719065" lon="12.916193985836772"><ele>573.5</ele><time>2026-04-10T15:41:23Z</time></trkpt><trkpt lat="42.867325931695916" lon="12.916256519105314"><ele>569.0</ele><time>2026-04-10T15:41:24Z</time></trkpt><trkpt lat="42.86715352562539" lon="12.916613304396952"><ele>568.0</ele><time>2026-04-10T15:41:25Z</time></trkpt><trkpt lat="42.86720607685608" lon="12.916740678385445"><ele>567.0</ele><time>2026-04-10T15:41:27Z</time></trkpt><trkpt lat="42.86720697629709" lon="12.916827301967233"><ele>566.0</ele><time>2026-04-10T15:41:29Z</time></trkpt><trkpt lat="42.867116135569766" lon="12.916874308076142"><ele>565.0</ele><time>2026-04-10T15:41:31Z</time></trkpt><trkpt lat="42.86704057015111" lon="12.916896684517909"><ele>564.0</ele><time>2026-04-10T15:41:32Z</time></trkpt><trkpt lat="42.866958927902786" lon="12.916913518749672"><ele>563.0</ele><time>2026-04-10T15:41:33Z</time></trkpt><trkpt lat="42.86688016414088" lon="12.916934209137128"><ele>563.0</ele><time>2026-04-10T15:41:34Z</time></trkpt><trkpt lat="42.86679818641274" lon="12.916957924185935"><ele>563.0</ele><time>2026-04-10T15:41:35Z</time></trkpt><trkpt lat="42.86672201147411" lon="12.916970038138615"><ele>563.0</ele><time>2026-04-10T15:41:36Z</time></trkpt><trkpt lat="42.86665039781235" lon="12.916976230312587"><ele>563.0</ele><time>2026-04-10T15:41:37Z</time></trkpt><trkpt lat="42.866573630010635" lon="12.916985858353181"><ele>563.0</ele><time>2026-04-10T15:41:38Z</time></trkpt><trkpt lat="42.866481289597665" lon="12.917000422549153"><ele>563.0</ele><time>2026-04-10T15:41:39Z</time></trkpt><trkpt lat="42.86641484119886" lon="12.917021547075503"><ele>558.1999999999999</ele><time>2026-04-10T15:41:40Z</time></trkpt><trkpt lat="42.86634779143748" lon="12.917027694521284"><ele>553.4</ele><time>2026-04-10T15:41:42Z</time></trkpt><trkpt lat="42.86626790830583" lon="12.917028117823719"><ele>548.5999999999999</ele><time>2026-04-10T15:41:45Z</time></trkpt><trkpt lat="42.86629011203827" lon="12.917226106520594"><ele>543.8</ele><time>2026-04-10T15:41:47Z</time></trkpt><trkpt lat="42.86633328863642" lon="12.91732942000239"><ele>539.0</ele><time>2026-04-10T15:41:48Z</time></trkpt><trkpt lat="42.86637889944904" lon="12.91743405008702"><ele>539.0</ele><time>2026-04-10T15:41:49Z</time></trkpt><trkpt lat="42.86642696902294" lon="12.917544835469831"><ele>539.0</ele><time>2026-04-10T15:41:50Z</time></trkpt><trkpt lat="42.86646594555867" lon="12.917642702528825"><ele>539.0</ele><time>2026-04-10T15:41:51Z</time></trkpt><trkpt lat="42.866495190313294" lon="12.917724478790202"><ele>539.0</ele><time>2026-04-10T15:41:52Z</time></trkpt><trkpt lat="42.86650191772235" lon="12.917832796977436"><ele>539.0</ele><time>2026-04-10T15:41:53Z</time></trkpt><trkpt lat="42.86651325482485" lon="12.9179327941325"><ele>539.0</ele><time>2026-04-10T15:41:54Z</time></trkpt><trkpt lat="42.866546881350885" lon="12.918027731768053"><ele>537.7142857142857</ele><time>2026-04-10T15:41:55Z</time></trkpt><trkpt lat="42.8665504072144" lon="12.91814099228471"><ele>536.4285714285714</ele><time>2026-04-10T15:41:56Z</time></trkpt><trkpt lat="42.86656598353003" lon="12.918228280362483"><ele>535.1428571428571</ele><time>2026-04-10T15:41:57Z</time></trkpt><trkpt lat="42.86659212724412" lon="12.918310324207495"><ele>533.8571428571429</ele><time>2026-04-10T15:41:58Z</time></trkpt><trkpt lat="42.86660036130186" lon="12.918402012604218"><ele>532.5714285714286</ele><time>2026-04-10T15:41:59Z</time></trkpt><trkpt lat="42.866612672404514" lon="12.918486952710069"><ele>531.2857142857142</ele><time>2026-04-10T15:42:00Z</time></trkpt><trkpt lat="42.86662428451349" lon="12.918578651783797"><ele>530.0</ele><time>2026-04-10T15:42:01Z</time></trkpt><trkpt lat="42.866589807012694" lon="12.918675081119634"><ele>528.3333333333333</ele><time>2026-04-10T15:42:03Z</time></trkpt><trkpt lat="42.866506360734846" lon="12.918658476186602"><ele>526.6666666666666</ele><time>2026-04-10T15:42:04Z</time></trkpt><trkpt lat="42.866434826006234" lon="12.918717910522863"><ele>525.0</ele><time>2026-04-10T15:42:05Z</time></trkpt><trkpt lat="42.86634457439431" lon="12.918792895690041"><ele>523.3333333333334</ele><time>2026-04-10T15:42:06Z</time></trkpt><trkpt lat="42.866284630604156" lon="12.918842699741628"><ele>521.6666666666667</ele><time>2026-04-10T15:42:07Z</time></trkpt><trkpt lat="42.866213890824035" lon="12.918908244121274"><ele>520.0</ele><time>2026-04-10T15:42:08Z</time></trkpt><trkpt lat="42.86614233876898" lon="12.918973310628095"><ele>520.0</ele><time>2026-04-10T15:42:09Z</time></trkpt><trkpt lat="42.866088294550615" lon="12.919037781269791"><ele>520.0</ele><time>2026-04-10T15:42:10Z</time></trkpt><trkpt lat="42.86602648152761" lon="12.919148443763689"><ele>520.0</ele><time>2026-04-10T15:42:12Z</time></trkpt><trkpt lat="42.86607401020647" lon="12.919252499209858"><ele>520.0</ele><time>2026-04-10T15:42:14Z</time></trkpt><trkpt lat="42.8661372210261" lon="12.919265173320538"><ele>520.0</ele><time>2026-04-10T15:42:16Z</time></trkpt><trkpt lat="42.866180914427666" lon="12.919339236057352"><ele>520.0</ele><time>2026-04-10T15:42:17Z</time></trkpt><trkpt lat="42.86622478647152" lon="12.919413601632732"><ele>515.8</ele><time>2026-04-10T15:42:18Z</time></trkpt><trkpt lat="42.86629662944305" lon="12.919535379510636"><ele>511.6</ele><time>2026-04-10T15:42:20Z</time></trkpt><trkpt lat="42.86636805940468" lon="12.91965645732625"><ele>507.4</ele><time>2026-04-10T15:42:22Z</time></trkpt><trkpt lat="42.86648642960209" lon="12.919588419410108"><ele>503.2</ele><time>2026-04-10T15:42:23Z</time></trkpt><trkpt lat="42.86653151937413" lon="12.919653306929199"><ele>499.0</ele><time>2026-04-10T15:42:24Z</time></trkpt><trkpt lat="42.86658428543438" lon="12.919711837414399"><ele>499.00000000000006</ele><time>2026-04-10T15:42:25Z</time></trkpt><trkpt lat="42.86663912836468" lon="12.919817085511614"><ele>499.0</ele><time>2026-04-10T15:42:27Z</time></trkpt><trkpt lat="42.86668014432198" lon="12.919898887310943"><ele>499.0</ele><time>2026-04-10T15:42:29Z</time></trkpt><trkpt lat="42.86674136009965" lon="12.919923754759482"><ele>499.0</ele><time>2026-04-10T15:42:31Z</time></trkpt><trkpt lat="42.86676821169727" lon="12.920007751763983"><ele>499.00000000000006</ele><time>2026-04-10T15:42:33Z</time></trkpt><trkpt lat="42.86671116441564" lon="12.92013933339106"><ele>499.0</ele><time>2026-04-10T15:42:36Z</time></trkpt><trkpt lat="42.866705789669574" lon="12.920225412309131"><ele>499.50000000000006</ele><time>2026-04-10T15:42:38Z</time></trkpt><trkpt lat="42.86678374646003" lon="12.920238867572055"><ele>500.0</ele><time>2026-04-10T15:42:41Z</time></trkpt><trkpt lat="42.866869528796414" lon="12.920192025015904"><ele>500.5</ele><time>2026-04-10T15:42:43Z</time></trkpt><trkpt lat="42.86693077118769" lon="12.920131650805667"><ele>501.0</ele><time>2026-04-10T15:42:44Z</time></trkpt><trkpt lat="42.86700976311958" lon="12.920052913239761"><ele>501.50000000000006</ele><time>2026-04-10T15:42:46Z</time></trkpt><trkpt lat="42.867091537746816" lon="12.920081624603487"><ele>502.0</ele><time>2026-04-10T15:42:48Z</time></trkpt><trkpt lat="42.86717674773086" lon="12.920156102400254"><ele>500.6</ele><time>2026-04-10T15:42:50Z</time></trkpt><trkpt lat="42.867192458299776" lon="12.920268615107963"><ele>499.20000000000005</ele><time>2026-04-10T15:42:52Z</time></trkpt><trkpt lat="42.86713626484615" lon="12.920396103165233"><ele>497.8</ele><time>2026-04-10T15:42:54Z</time></trkpt><trkpt lat="42.8670807500658" lon="12.920480474112269"><ele>496.4</ele><time>2026-04-10T15:42:55Z</time></trkpt><trkpt lat="42.86699789035653" lon="12.9205979624581"><ele>495.0</ele><time>2026-04-10T15:42:56Z</time></trkpt><trkpt lat="42.8669341287801" lon="12.920673145436602"><ele>495.0</ele><time>2026-04-10T15:42:57Z</time></trkpt><trkpt lat="42.86688340440437" lon="12.920734903031171"><ele>495.0</ele><time>2026-04-10T15:42:58Z</time></trkpt><trkpt lat="42.86686158354634" lon="12.920854385409957"><ele>495.0</ele><time>2026-04-10T15:42:59Z</time></trkpt><trkpt lat="42.86679410690105" lon="12.920963621561382"><ele>495.0</ele><time>2026-04-10T15:43:01Z</time></trkpt><trkpt lat="42.86676430970334" lon="12.921098906714889"><ele>495.0</ele><time>2026-04-10T15:43:03Z</time></trkpt><trkpt lat="42.86672419529197" lon="12.921194506499862"><ele>495.0</ele><time>2026-04-10T15:43:05Z</time></trkpt><trkpt lat="42.866613603076004" lon="12.921180244625214"><ele>490.25</ele><time>2026-04-10T15:43:06Z</time></trkpt><trkpt lat="42.86653645321341" lon="12.921194298709768"><ele>485.5</ele><time>2026-04-10T15:43:07Z</time></trkpt><trkpt lat="42.86643663086468" lon="12.921216782369296"><ele>480.75</ele><time>2026-04-10T15:43:08Z</time></trkpt><trkpt lat="42.866291496305514" lon="12.921240879463756"><ele>476.0</ele><time>2026-04-10T15:43:09Z</time></trkpt><trkpt lat="42.86610315657484" lon="12.92129219371545"><ele>476.0</ele><time>2026-04-10T15:43:10Z</time></trkpt><trkpt lat="42.86590994761746" lon="12.921357803153132"><ele>476.0</ele><time>2026-04-10T15:43:11Z</time></trkpt><trkpt lat="42.86569600811002" lon="12.921457254071141"><ele>476.0</ele><time>2026-04-10T15:43:12Z</time></trkpt><trkpt lat="42.865501908248916" lon="12.921530840918422"><ele>476.0</ele><time>2026-04-10T15:43:13Z</time></trkpt><trkpt lat="42.865337655003415" lon="12.921574232836312"><ele>476.0</ele><time>2026-04-10T15:43:14Z</time></trkpt><trkpt lat="42.86520832010841" lon="12.921648520092672"><ele>476.0</ele><time>2026-04-10T15:43:15Z</time></trkpt><trkpt lat="42.86506788251" lon="12.921711496152895"><ele>474.25</ele><time>2026-04-10T15:43:16Z</time></trkpt><trkpt lat="42.864927890591865" lon="12.921781461661334"><ele>472.5</ele><time>2026-04-10T15:43:17Z</time></trkpt><trkpt lat="42.864786684065685" lon="12.921856156972048"><ele>470.75</ele><time>2026-04-10T15:43:18Z</time></trkpt><trkpt lat="42.86468219176909" lon="12.921967998709816"><ele>469.0</ele><time>2026-04-10T15:43:19Z</time></trkpt><trkpt lat="42.86462606761489" lon="12.922131708810468"><ele>469.0</ele><time>2026-04-10T15:43:20Z</time></trkpt><trkpt lat="42.864595744487524" lon="12.922313510883539"><ele>469.0</ele><time>2026-04-10T15:43:21Z</time></trkpt><trkpt lat="42.864599260623116" lon="12.922514463227394"><ele>469.0</ele><time>2026-04-10T15:43:22Z</time></trkpt><trkpt lat="42.86462954065006" lon="12.922715325861379"><ele>469.0</ele><time>2026-04-10T15:43:23Z</time></trkpt><trkpt lat="42.864650405294405" lon="12.922896222125072"><ele>468.5</ele><time>2026-04-10T15:43:24Z</time></trkpt><trkpt lat="42.864626632272206" lon="12.923051656584672"><ele>468.0</ele><time>2026-04-10T15:43:25Z</time></trkpt><trkpt lat="42.864583757928244" lon="12.923203953241682"><ele>467.5</ele><time>2026-04-10T15:43:26Z</time></trkpt><trkpt lat="42.86450925121753" lon="12.923376585970047"><ele>467.0</ele><time>2026-04-10T15:43:27Z</time></trkpt><trkpt lat="42.86444143831356" lon="12.92352198753876"><ele>466.49999999999994</ele><time>2026-04-10T15:43:28Z</time></trkpt><trkpt lat="42.86439379167575" lon="12.92364530711718"><ele>466.0</ele><time>2026-04-10T15:43:29Z</time></trkpt><trkpt lat="42.86434437521571" lon="12.923743159516052"><ele>465.5</ele><time>2026-04-10T15:43:30Z</time></trkpt><trkpt lat="42.86430059159339" lon="12.9238175974975"><ele>465.0</ele><time>2026-04-10T15:43:31Z</time></trkpt><trkpt lat="42.864255395145754" lon="12.923900701084992"><ele>464.49999999999994</ele><time>2026-04-10T15:43:32Z</time></trkpt><trkpt lat="42.86421033548203" lon="12.923999887667287"><ele>464.0</ele><time>2026-04-10T15:43:33Z</time></trkpt><trkpt lat="42.86417464121418" lon="12.924096665345601"><ele>465.4</ele><time>2026-04-10T15:43:34Z</time></trkpt><trkpt lat="42.86415126652783" lon="12.924183878522047"><ele>466.79999999999995</ele><time>2026-04-10T15:43:35Z</time></trkpt><trkpt lat="42.86412737014697" lon="12.92428229157001"><ele>468.20000000000005</ele><time>2026-04-10T15:43:36Z</time></trkpt><trkpt lat="42.8640719718194" lon="12.924435814533897"><ele>469.6</ele><time>2026-04-10T15:43:37Z</time></trkpt><trkpt lat="42.86405351850075" lon="12.924645969028793"><ele>471.0</ele><time>2026-04-10T15:43:38Z</time></trkpt><trkpt lat="42.86404825321052" lon="12.924847246396961"><ele>471.0</ele><time>2026-04-10T15:43:39Z</time></trkpt><trkpt lat="42.8640819986871" lon="12.925044784281074"><ele>471.0</ele><time>2026-04-10T15:43:40Z</time></trkpt><trkpt lat="42.8641536157758" lon="12.925241030890021"><ele>471.0</ele><time>2026-04-10T15:43:41Z</time></trkpt><trkpt lat="42.864252918466015" lon="12.925409184406758"><ele>469.5</ele><time>2026-04-10T15:43:42Z</time></trkpt><trkpt lat="42.864362303597886" lon="12.92556842252097"><ele>468.0</ele><time>2026-04-10T15:43:43Z</time></trkpt><trkpt lat="42.86449260177228" lon="12.925694580797101"><ele>466.5</ele><time>2026-04-10T15:43:44Z</time></trkpt><trkpt lat="42.86460335926784" lon="12.925782799911108"><ele>465.0</ele><time>2026-04-10T15:43:45Z</time></trkpt><trkpt lat="42.864692707280064" lon="12.925856546870238"><ele>466.2</ele><time>2026-04-10T15:43:46Z</time></trkpt><trkpt lat="42.864770324340654" lon="12.925936283285264"><ele>467.4</ele><time>2026-04-10T15:43:47Z</time></trkpt><trkpt lat="42.86485140247542" lon="12.926021741986467"><ele>468.6</ele><time>2026-04-10T15:43:48Z</time></trkpt><trkpt lat="42.864951389112456" lon="12.926115511952123"><ele>469.8</ele><time>2026-04-10T15:43:49Z</time></trkpt><trkpt lat="42.86502902326845" lon="12.926252461467373"><ele>471.0</ele><time>2026-04-10T15:43:50Z</time></trkpt><trkpt lat="42.8650625153227" lon="12.926412296901011"><ele>471.0</ele><time>2026-04-10T15:43:51Z</time></trkpt><trkpt lat="42.86507274470063" lon="12.926552261526108"><ele>471.0</ele><time>2026-04-10T15:43:52Z</time></trkpt><trkpt lat="42.86509042943962" lon="12.926665761820315"><ele>471.0</ele><time>2026-04-10T15:43:53Z</time></trkpt><trkpt lat="42.865086930791996" lon="12.926772730221906"><ele>471.0</ele><time>2026-04-10T15:43:54Z</time></trkpt><trkpt lat="42.86508574226904" lon="12.926879009376325"><ele>471.0</ele><time>2026-04-10T15:43:56Z</time></trkpt><trkpt lat="42.8650652083222" lon="12.926968254408974"><ele>471.0</ele><time>2026-04-10T15:44:01Z</time></trkpt><trkpt lat="42.86504577381107" lon="12.927084030250313"><ele>470.1666666666667</ele><time>2026-04-10T15:44:10Z</time></trkpt><trkpt lat="42.865020170627645" lon="12.927196964472504"><ele>469.33333333333337</ele><time>2026-04-10T15:44:13Z</time></trkpt><trkpt lat="42.86498297423059" lon="12.927329003034739"><ele>468.5</ele><time>2026-04-10T15:44:16Z</time></trkpt><trkpt lat="42.86494822867629" lon="12.927408744084456"><ele>467.6666666666667</ele><time>2026-04-10T15:44:19Z</time></trkpt><trkpt lat="42.86490266280244" lon="12.92749090167534"><ele>466.83333333333337</ele><time>2026-04-10T15:44:23Z</time></trkpt><trkpt lat="42.86485997154095" lon="12.927567466742643"><ele>466.0</ele><time>2026-04-10T15:44:26Z</time></trkpt><trkpt lat="42.86481476017985" lon="12.927644782249162"><ele>461.33333333333337</ele><time>2026-04-10T15:44:29Z</time></trkpt><trkpt lat="42.86476370517365" lon="12.927724910726408"><ele>456.66666666666663</ele><time>2026-04-10T15:44:33Z</time></trkpt><trkpt lat="42.86494534589756" lon="12.928032374848948"><ele>452.0</ele><time>2026-04-10T15:44:41Z</time></trkpt><trkpt lat="42.86503221147387" lon="12.92810129526092"><ele>452.0</ele><time>2026-04-10T15:45:09Z</time></trkpt><trkpt lat="42.865100319202064" lon="12.928107604749599"><ele>452.0</ele><time>2026-04-10T15:45:10Z</time></trkpt><trkpt lat="42.865170940148374" lon="12.928080220846894"><ele>452.0</ele><time>2026-04-10T15:45:12Z</time></trkpt><trkpt lat="42.86524966300606" lon="12.928073167000685"><ele>452.0</ele><time>2026-04-10T15:45:14Z</time></trkpt><trkpt lat="42.86532413314336" lon="12.928073093065578"><ele>452.0</ele><time>2026-04-10T15:45:17Z</time></trkpt><trkpt lat="42.865392237460185" lon="12.928031899380976"><ele>452.0</ele><time>2026-04-10T15:45:31Z</time></trkpt><trkpt lat="42.86545811217269" lon="12.92805977388244"><ele>452.0</ele><time>2026-04-10T15:46:06Z</time></trkpt><trkpt lat="42.86546189388381" lon="12.928194771191796"><ele>451.99999999999994</ele><time>2026-04-10T15:47:15Z</time></trkpt><trkpt lat="42.86540716455461" lon="12.928255882132394"><ele>452.0</ele><time>2026-04-10T15:47:29Z</time></trkpt><trkpt lat="42.865344759737106" lon="12.92828211010117"><ele>452.0</ele><time>2026-04-10T15:47:31Z</time></trkpt><trkpt lat="42.86527812466279" lon="12.928318078739782"><ele>452.0</ele><time>2026-04-10T15:47:34Z</time></trkpt><trkpt lat="42.86518866378516" lon="12.928336042254427"><ele>451.99999999999994</ele><time>2026-04-10T15:47:58Z</time></trkpt><trkpt lat="42.86509082747694" lon="12.928319526459676"><ele>452.0</ele><time>2026-04-10T15:48:00Z</time></trkpt><trkpt lat="42.86499389205742" lon="12.928322297474423"><ele>451.99999999999994</ele><time>2026-04-10T15:48:02Z</time></trkpt><trkpt lat="42.86488767154297" lon="12.928353385790013"><ele>452.0</ele><time>2026-04-10T15:48:14Z</time></trkpt><trkpt lat="42.864821892600936" lon="12.928392442808734"><ele>452.0</ele><time>2026-04-10T15:48:17Z</time></trkpt><trkpt lat="42.864750986559024" lon="12.928454084514804"><ele>452.0</ele><time>2026-04-10T15:48:20Z</time></trkpt><trkpt lat="42.86468979171046" lon="12.928531613020574"><ele>451.99999999999994</ele><time>2026-04-10T15:48:23Z</time></trkpt><trkpt lat="42.86462017525796" lon="12.928552549506874"><ele>452.0</ele><time>2026-04-10T15:48:25Z</time></trkpt><trkpt lat="42.864562083232194" lon="12.928509522829659"><ele>450.16666666666663</ele><time>2026-04-10T15:48:27Z</time></trkpt><trkpt lat="42.86446971208031" lon="12.92847819825053"><ele>448.3333333333333</ele><time>2026-04-10T15:48:29Z</time></trkpt><trkpt lat="42.86438657185114" lon="12.928471227915013"><ele>446.5</ele><time>2026-04-10T15:48:31Z</time></trkpt><trkpt lat="42.86432283858924" lon="12.928464573275969"><ele>444.66666666666663</ele><time>2026-04-10T15:48:32Z</time></trkpt><trkpt lat="42.864256800716404" lon="12.928452423636204"><ele>442.8333333333333</ele><time>2026-04-10T15:48:33Z</time></trkpt><trkpt lat="42.86413783127216" lon="12.928459329149593"><ele>441.0</ele><time>2026-04-10T15:48:35Z</time></trkpt><trkpt lat="42.864070159865356" lon="12.928462037146003"><ele>440.5</ele><time>2026-04-10T15:48:37Z</time></trkpt><trkpt lat="42.86399008419727" lon="12.928465286328317"><ele>440.0</ele><time>2026-04-10T15:48:40Z</time></trkpt><trkpt lat="42.86390759817902" lon="12.928456757329675"><ele>439.5</ele><time>2026-04-10T15:48:43Z</time></trkpt><trkpt lat="42.863843772508815" lon="12.928458906775424"><ele>439.0</ele><time>2026-04-10T15:48:46Z</time></trkpt><trkpt lat="42.86380596765622" lon="12.9285352304947"><ele>438.5</ele><time>2026-04-10T15:48:51Z</time></trkpt><trkpt lat="42.863801332152995" lon="12.928647034792618"><ele>438.0</ele><time>2026-04-10T15:48:53Z</time></trkpt><trkpt lat="42.863726681239505" lon="12.928681060968946"><ele>438.0</ele><time>2026-04-10T15:48:55Z</time></trkpt><trkpt lat="42.86363478059509" lon="12.92868247245684"><ele>438.0</ele><time>2026-04-10T15:48:57Z</time></trkpt><trkpt lat="42.863513542735504" lon="12.928685431206564"><ele>438.0</ele><time>2026-04-10T15:48:59Z</time></trkpt><trkpt lat="42.86344225768748" lon="12.92871084146895"><ele>438.0</ele><time>2026-04-10T15:49:00Z</time></trkpt><trkpt lat="42.86337916957859" lon="12.928727991694448"><ele>438.0</ele><time>2026-04-10T15:49:01Z</time></trkpt><trkpt lat="42.863307739339696" lon="12.92874830313547"><ele>438.0</ele><time>2026-04-10T15:49:02Z</time></trkpt><trkpt lat="42.863238242604005" lon="12.928760873372962"><ele>438.0</ele><time>2026-04-10T15:49:03Z</time></trkpt><trkpt lat="42.863175094510574" lon="12.928770244381969"><ele>438.0</ele><time>2026-04-10T15:49:04Z</time></trkpt><trkpt lat="42.86310851999155" lon="12.928751676608925"><ele>438.0</ele><time>2026-04-10T15:49:05Z</time></trkpt><trkpt lat="42.86303563519307" lon="12.928721255704426"><ele>438.0</ele><time>2026-04-10T15:49:06Z</time></trkpt><trkpt lat="42.86295769928862" lon="12.928679816330218"><ele>438.0</ele><time>2026-04-10T15:49:07Z</time></trkpt><trkpt lat="42.86287857968375" lon="12.92862650281238"><ele>438.0</ele><time>2026-04-10T15:49:09Z</time></trkpt><trkpt lat="42.862825771791556" lon="12.928692419893762"><ele>438.0</ele><time>2026-04-10T15:49:14Z</time></trkpt><trkpt lat="42.86282190531262" lon="12.92880612683049"><ele>437.99999999999994</ele><time>2026-04-10T15:49:16Z</time></trkpt><trkpt lat="42.862762049066525" lon="12.92888047587189"><ele>437.99999999999994</ele><time>2026-04-10T15:49:19Z</time></trkpt><trkpt lat="42.86267655282195" lon="12.928862161322172"><ele>438.0</ele><time>2026-04-10T15:49:21Z</time></trkpt><trkpt lat="42.86259371767398" lon="12.928872222633677"><ele>438.0</ele><time>2026-04-10T15:49:24Z</time></trkpt><trkpt lat="42.86247566583798" lon="12.928892230766964"><ele>437.2</ele><time>2026-04-10T15:49:27Z</time></trkpt><trkpt lat="42.86238052348071" lon="12.92891047752506"><ele>436.4</ele><time>2026-04-10T15:49:28Z</time></trkpt><trkpt lat="42.86225942784817" lon="12.92893802132235"><ele>435.59999999999997</ele><time>2026-04-10T15:49:31Z</time></trkpt><trkpt lat="42.86216429639685" lon="12.928955988649879"><ele>434.79999999999995</ele><time>2026-04-10T15:49:32Z</time></trkpt><trkpt lat="42.86210051488842" lon="12.928968972694955"><ele>434.0</ele><time>2026-04-10T15:49:33Z</time></trkpt><trkpt lat="42.862006263952395" lon="12.928985066087902"><ele>434.0</ele><time>2026-04-10T15:49:35Z</time></trkpt><trkpt lat="42.861877309161436" lon="12.929011909963004"><ele>434.0</ele><time>2026-04-10T15:49:36Z</time></trkpt><trkpt lat="42.86175589082944" lon="12.92903121468135"><ele>430.0</ele><time>2026-04-10T15:49:37Z</time></trkpt><trkpt lat="42.86167739319348" lon="12.929014913890859"><ele>430.0</ele><time>2026-04-10T15:49:38Z</time></trkpt><trkpt lat="42.86158318951281" lon="12.928938372653018"><ele>430.0</ele><time>2026-04-10T15:49:40Z</time></trkpt></trkseg></trk></gpx>